<?xml version='1.0' encoding='UTF-8'?>
<gpx version="1.1" creator="https://www.komoot.de" xmlns="http://www.topografix.com/GPX/1/1" xmlns:xsi="http://www.w3.org/2001/XMLSchema-instance" xsi:schemaLocation="http://www.topografix.com/GPX/1/1 http://www.topografix.com/GPX/1/1/gpx.xsd">
  <metadata>
    <name>RTF Gravel-Tour Tuniberg - Kaiserstuhl - Marchhügel_31-12-2025</name>
    <author>
      <link href="https://www.komoot.de">
        <text>komoot</text>
        <type>text/html</type>
      </link>
    </author>
  </metadata>
  <wpt lat="48.061008" lon="7.801558">
    <name>Blick auf den Kaiserstuhl von March</name>
    <sym>Flag, Blue</sym>
  </wpt>
  <wpt lat="48.050108" lon="7.768273">
    <name>Kleiner Weiher</name>
    <sym>Flag, Blue</sym>
  </wpt>
  <wpt lat="48.048062" lon="7.730044">
    <name>Alternativer Einstieg in den Tuniberg-Höhenweg</name>
    <sym>Flag, Blue</sym>
  </wpt>
  <wpt lat="48.027218" lon="7.708379">
    <name>Kaiserstuhl: Tuniberghöhenweg</name>
    <sym>Flag, Blue</sym>
  </wpt>
  <wpt lat="48.021774" lon="7.701457">
    <name>Lösshohlweg Merdingen</name>
    <sym>Flag, Blue</sym>
  </wpt>
  <wpt lat="48.042530" lon="7.691943">
    <name>Wildblumen entlang des Weges</name>
    <sym>Flag, Blue</sym>
  </wpt>
  <wpt lat="48.066020" lon="7.672970">
    <name>Lilienhof Gasthaus &amp; Biergarten</name>
    <sym>Restaurant</sym>
  </wpt>
  <wpt lat="48.085600" lon="7.688532">
    <name>Panorama Vogelsang und Skulptur „Wanderer”</name>
    <sym>Flag, Blue</sym>
  </wpt>
  <wpt lat="48.085737" lon="7.712408">
    <name>Blick auf Bötzingen und den Schwarzwald</name>
    <sym>Flag, Blue</sym>
  </wpt>
  <wpt lat="48.104289" lon="7.710094">
    <name>Blick auf die Weinberge am Kaiserstuhl</name>
    <sym>Flag, Blue</sym>
  </wpt>
  <wpt lat="48.113228" lon="7.716042">
    <name>Wegweiser in den Weinbergen</name>
    <sym>Flag, Blue</sym>
  </wpt>
  <wpt lat="48.096222" lon="7.770223">
    <name>Bergkirche Obernimburg</name>
    <sym>Flag, Blue</sym>
  </wpt>
  <wpt lat="48.092863" lon="7.771089">
    <name>Blick auf den Kaiserstuhl</name>
    <sym>Flag, Blue</sym>
  </wpt>
  <wpt lat="48.080402" lon="7.778358">
    <name>Feldkreuz Hohkinzig</name>
    <sym>Flag, Blue</sym>
  </wpt>
  <trk>
    <name>RTF Gravel-Tour Tuniberg - Kaiserstuhl - Marchhügel_31-12-2025</name>
    <type>mtb_easy</type>
    <trkseg>
      <trkpt lat="48.072033" lon="7.807282">
        <ele>199.569080</ele>
        <time>2026-06-18T18:33:50.951Z</time>
      </trkpt>
      <trkpt lat="48.071918" lon="7.806830">
        <ele>199.569080</ele>
        <time>2026-06-18T18:33:56.357Z</time>
      </trkpt>
      <trkpt lat="48.071776" lon="7.806417">
        <ele>199.569080</ele>
        <time>2026-06-18T18:34:01.571Z</time>
      </trkpt>
      <trkpt lat="48.071771" lon="7.806291">
        <ele>199.569080</ele>
        <time>2026-06-18T18:34:02.969Z</time>
      </trkpt>
      <trkpt lat="48.071831" lon="7.806061">
        <ele>199.569080</ele>
        <time>2026-06-18T18:34:05.758Z</time>
      </trkpt>
      <trkpt lat="48.071834" lon="7.805743">
        <ele>199.502713</ele>
        <time>2026-06-18T18:34:09.227Z</time>
      </trkpt>
      <trkpt lat="48.071741" lon="7.805212">
        <ele>199.378541</ele>
        <time>2026-06-18T18:34:15.064Z</time>
      </trkpt>
      <trkpt lat="48.071599" lon="7.804721">
        <ele>199.257517</ele>
        <time>2026-06-18T18:34:20.748Z</time>
      </trkpt>
      <trkpt lat="48.071552" lon="7.804778">
        <ele>199.237038</ele>
        <time>2026-06-18T18:34:22.301Z</time>
      </trkpt>
      <trkpt lat="48.071301" lon="7.805072">
        <ele>199.129135</ele>
        <time>2026-06-18T18:34:30.401Z</time>
      </trkpt>
      <trkpt lat="48.071252" lon="7.805085">
        <ele>199.112289</ele>
        <time>2026-06-18T18:34:31.653Z</time>
      </trkpt>
      <trkpt lat="48.071199" lon="7.805027">
        <ele>199.090062</ele>
        <time>2026-06-18T18:34:33.311Z</time>
      </trkpt>
      <trkpt lat="48.071129" lon="7.804915">
        <ele>199.055371</ele>
        <time>2026-06-18T18:34:35.918Z</time>
      </trkpt>
      <trkpt lat="48.070447" lon="7.805839">
        <ele>198.994674</ele>
        <time>2026-06-18T18:35:04.474Z</time>
      </trkpt>
      <trkpt lat="48.070164" lon="7.806223">
        <ele>199.015297</ele>
        <time>2026-06-18T18:35:16.827Z</time>
      </trkpt>
      <trkpt lat="48.069510" lon="7.807109">
        <ele>199.099687</ele>
        <time>2026-06-18T18:35:46.038Z</time>
      </trkpt>
      <trkpt lat="48.069406" lon="7.807210">
        <ele>199.150064</ele>
        <time>2026-06-18T18:35:50.199Z</time>
      </trkpt>
      <trkpt lat="48.068320" lon="7.808690">
        <ele>199.746900</ele>
        <time>2026-06-18T18:36:39.441Z</time>
      </trkpt>
      <trkpt lat="48.068220" lon="7.808775">
        <ele>199.793273</ele>
        <time>2026-06-18T18:36:43.322Z</time>
      </trkpt>
      <trkpt lat="48.067345" lon="7.808020">
        <ele>200.176976</ele>
        <time>2026-06-18T18:37:17.589Z</time>
      </trkpt>
      <trkpt lat="48.067243" lon="7.807959">
        <ele>200.218704</ele>
        <time>2026-06-18T18:37:21.299Z</time>
      </trkpt>
      <trkpt lat="48.066599" lon="7.807731">
        <ele>200.470107</ele>
        <time>2026-06-18T18:37:43.105Z</time>
      </trkpt>
      <trkpt lat="48.066074" lon="7.808243">
        <ele>200.610101</ele>
        <time>2026-06-18T18:38:03.436Z</time>
      </trkpt>
      <trkpt lat="48.065580" lon="7.808723">
        <ele>200.741174</ele>
        <time>2026-06-18T18:38:22.722Z</time>
      </trkpt>
      <trkpt lat="48.065072" lon="7.809616">
        <ele>200.912373</ele>
        <time>2026-06-18T18:38:48.668Z</time>
      </trkpt>
      <trkpt lat="48.065005" lon="7.809647">
        <ele>200.926841</ele>
        <time>2026-06-18T18:38:51.013Z</time>
      </trkpt>
      <trkpt lat="48.064296" lon="7.808083">
        <ele>201.187402</ele>
        <time>2026-06-18T18:39:34.755Z</time>
      </trkpt>
      <trkpt lat="48.063274" lon="7.806987">
        <ele>201.616772</ele>
        <time>2026-06-18T18:40:17.773Z</time>
      </trkpt>
      <trkpt lat="48.062393" lon="7.806128">
        <ele>202.235644</ele>
        <time>2026-06-18T18:40:55.977Z</time>
      </trkpt>
      <trkpt lat="48.061859" lon="7.805871">
        <ele>202.960555</ele>
        <time>2026-06-18T18:41:17.579Z</time>
      </trkpt>
      <trkpt lat="48.061650" lon="7.805436">
        <ele>203.423268</ele>
        <time>2026-06-18T18:41:31.709Z</time>
      </trkpt>
      <trkpt lat="48.061146" lon="7.804058">
        <ele>205.206647</ele>
        <time>2026-06-18T18:42:15.898Z</time>
      </trkpt>
      <trkpt lat="48.061117" lon="7.803924">
        <ele>205.425729</ele>
        <time>2026-06-18T18:42:18.424Z</time>
      </trkpt>
      <trkpt lat="48.060990" lon="7.803488">
        <ele>206.165507</ele>
        <time>2026-06-18T18:42:26.829Z</time>
      </trkpt>
      <trkpt lat="48.061005" lon="7.802760">
        <ele>207.298398</ele>
        <time>2026-06-18T18:42:39.783Z</time>
      </trkpt>
      <trkpt lat="48.061024" lon="7.801875">
        <ele>208.861005</ele>
        <time>2026-06-18T18:42:57.345Z</time>
      </trkpt>
      <trkpt lat="48.061016" lon="7.801558">
        <ele>209.731735</ele>
        <time>2026-06-18T18:43:04.215Z</time>
      </trkpt>
      <trkpt lat="48.061006" lon="7.801155">
        <ele>210.838663</ele>
        <time>2026-06-18T18:43:13.258Z</time>
      </trkpt>
      <trkpt lat="48.060940" lon="7.798580">
        <ele>217.140692</ele>
        <time>2026-06-18T18:44:19.174Z</time>
      </trkpt>
      <trkpt lat="48.060968" lon="7.797308">
        <ele>219.346130</ele>
        <time>2026-06-18T18:44:44.158Z</time>
      </trkpt>
      <trkpt lat="48.060949" lon="7.796812">
        <ele>220.207057</ele>
        <time>2026-06-18T18:44:50.911Z</time>
      </trkpt>
      <trkpt lat="48.060923" lon="7.796379">
        <ele>220.285524</ele>
        <time>2026-06-18T18:44:55.839Z</time>
      </trkpt>
      <trkpt lat="48.060911" lon="7.795760">
        <ele>219.839122</ele>
        <time>2026-06-18T18:45:02.176Z</time>
      </trkpt>
      <trkpt lat="48.060054" lon="7.795329">
        <ele>218.863954</ele>
        <time>2026-06-18T18:45:14.806Z</time>
      </trkpt>
      <trkpt lat="48.059682" lon="7.794623">
        <ele>217.852861</ele>
        <time>2026-06-18T18:45:23.143Z</time>
      </trkpt>
      <trkpt lat="48.059544" lon="7.794284">
        <ele>217.249969</ele>
        <time>2026-06-18T18:45:26.844Z</time>
      </trkpt>
      <trkpt lat="48.059277" lon="7.793500">
        <ele>215.913478</ele>
        <time>2026-06-18T18:45:34.880Z</time>
      </trkpt>
      <trkpt lat="48.059081" lon="7.793162">
        <ele>215.233795</ele>
        <time>2026-06-18T18:45:38.852Z</time>
      </trkpt>
      <trkpt lat="48.058872" lon="7.792887">
        <ele>214.601288</ele>
        <time>2026-06-18T18:45:42.465Z</time>
      </trkpt>
      <trkpt lat="48.058492" lon="7.792270">
        <ele>212.251916</ele>
        <time>2026-06-18T18:45:49.344Z</time>
      </trkpt>
      <trkpt lat="48.058162" lon="7.791933">
        <ele>210.479655</ele>
        <time>2026-06-18T18:45:54.033Z</time>
      </trkpt>
      <trkpt lat="48.057767" lon="7.791657">
        <ele>208.545885</ele>
        <time>2026-06-18T18:45:59.051Z</time>
      </trkpt>
      <trkpt lat="48.057616" lon="7.791376">
        <ele>207.476923</ele>
        <time>2026-06-18T18:46:01.845Z</time>
      </trkpt>
      <trkpt lat="48.057483" lon="7.790998">
        <ele>206.351228</ele>
        <time>2026-06-18T18:46:05.174Z</time>
      </trkpt>
      <trkpt lat="48.057378" lon="7.790529">
        <ele>205.656515</ele>
        <time>2026-06-18T18:46:09.125Z</time>
      </trkpt>
      <trkpt lat="48.057323" lon="7.790405">
        <ele>205.447488</ele>
        <time>2026-06-18T18:46:10.342Z</time>
      </trkpt>
      <trkpt lat="48.057284" lon="7.790303">
        <ele>205.282437</ele>
        <time>2026-06-18T18:46:11.316Z</time>
      </trkpt>
      <trkpt lat="48.056961" lon="7.789636">
        <ele>204.125543</ele>
        <time>2026-06-18T18:46:18.584Z</time>
      </trkpt>
      <trkpt lat="48.056601" lon="7.789235">
        <ele>203.182383</ele>
        <time>2026-06-18T18:46:25.447Z</time>
      </trkpt>
      <trkpt lat="48.055861" lon="7.788515">
        <ele>203.786597</ele>
        <time>2026-06-18T18:46:44.842Z</time>
      </trkpt>
      <trkpt lat="48.055642" lon="7.788341">
        <ele>204.200299</ele>
        <time>2026-06-18T18:46:51.951Z</time>
      </trkpt>
      <trkpt lat="48.055039" lon="7.787911">
        <ele>205.314767</ele>
        <time>2026-06-18T18:47:12.995Z</time>
      </trkpt>
      <trkpt lat="48.054788" lon="7.787600">
        <ele>205.581492</ele>
        <time>2026-06-18T18:47:20.742Z</time>
      </trkpt>
      <trkpt lat="48.054606" lon="7.787254">
        <ele>205.219413</ele>
        <time>2026-06-18T18:47:25.755Z</time>
      </trkpt>
      <trkpt lat="48.054467" lon="7.786868">
        <ele>204.858843</ele>
        <time>2026-06-18T18:47:30.133Z</time>
      </trkpt>
      <trkpt lat="48.054385" lon="7.786568">
        <ele>204.592301</ele>
        <time>2026-06-18T18:47:33.230Z</time>
      </trkpt>
      <trkpt lat="48.054291" lon="7.786017">
        <ele>204.124648</ele>
        <time>2026-06-18T18:47:38.337Z</time>
      </trkpt>
      <trkpt lat="48.054288" lon="7.785845">
        <ele>203.983152</ele>
        <time>2026-06-18T18:47:39.826Z</time>
      </trkpt>
      <trkpt lat="48.054289" lon="7.785776">
        <ele>203.926395</ele>
        <time>2026-06-18T18:47:40.403Z</time>
      </trkpt>
      <trkpt lat="48.054293" lon="7.785541">
        <ele>203.733074</ele>
        <time>2026-06-18T18:47:42.365Z</time>
      </trkpt>
      <trkpt lat="48.054222" lon="7.785236">
        <ele>203.468678</ele>
        <time>2026-06-18T18:47:45.074Z</time>
      </trkpt>
      <trkpt lat="48.054213" lon="7.785090">
        <ele>203.355862</ele>
        <time>2026-06-18T18:47:46.291Z</time>
      </trkpt>
      <trkpt lat="48.054253" lon="7.784963">
        <ele>203.247837</ele>
        <time>2026-06-18T18:47:47.498Z</time>
      </trkpt>
      <trkpt lat="48.054488" lon="7.784534">
        <ele>202.821059</ele>
        <time>2026-06-18T18:47:52.536Z</time>
      </trkpt>
      <trkpt lat="48.054580" lon="7.784192">
        <ele>202.537398</ele>
        <time>2026-06-18T18:47:56.332Z</time>
      </trkpt>
      <trkpt lat="48.054510" lon="7.784048">
        <ele>202.400396</ele>
        <time>2026-06-18T18:47:58.212Z</time>
      </trkpt>
      <trkpt lat="48.054576" lon="7.783873">
        <ele>202.245789</ele>
        <time>2026-06-18T18:48:00.388Z</time>
      </trkpt>
      <trkpt lat="48.054659" lon="7.783488">
        <ele>201.934527</ele>
        <time>2026-06-18T18:48:04.824Z</time>
      </trkpt>
      <trkpt lat="48.054664" lon="7.783367">
        <ele>201.841247</ele>
        <time>2026-06-18T18:48:06.171Z</time>
      </trkpt>
      <trkpt lat="48.054623" lon="7.783270">
        <ele>201.752941</ele>
        <time>2026-06-18T18:48:07.419Z</time>
      </trkpt>
      <trkpt lat="48.054583" lon="7.783051">
        <ele>201.578255</ele>
        <time>2026-06-18T18:48:09.924Z</time>
      </trkpt>
      <trkpt lat="48.054557" lon="7.782440">
        <ele>201.235632</ele>
        <time>2026-06-18T18:48:16.531Z</time>
      </trkpt>
      <trkpt lat="48.054655" lon="7.781770">
        <ele>200.927634</ele>
        <time>2026-06-18T18:48:23.701Z</time>
      </trkpt>
      <trkpt lat="48.054674" lon="7.781656">
        <ele>200.874872</ele>
        <time>2026-06-18T18:48:24.911Z</time>
      </trkpt>
      <trkpt lat="48.054729" lon="7.781326">
        <ele>200.722141</ele>
        <time>2026-06-18T18:48:28.385Z</time>
      </trkpt>
      <trkpt lat="48.054738" lon="7.781230">
        <ele>200.678609</ele>
        <time>2026-06-18T18:48:29.375Z</time>
      </trkpt>
      <trkpt lat="48.054755" lon="7.781105">
        <ele>200.621325</ele>
        <time>2026-06-18T18:48:30.679Z</time>
      </trkpt>
      <trkpt lat="48.054774" lon="7.780939">
        <ele>200.545694</ele>
        <time>2026-06-18T18:48:32.403Z</time>
      </trkpt>
      <trkpt lat="48.054784" lon="7.780867">
        <ele>200.512670</ele>
        <time>2026-06-18T18:48:33.173Z</time>
      </trkpt>
      <trkpt lat="48.054807" lon="7.780696">
        <ele>200.434340</ele>
        <time>2026-06-18T18:48:34.959Z</time>
      </trkpt>
      <trkpt lat="48.054811" lon="7.780626">
        <ele>200.402790</ele>
        <time>2026-06-18T18:48:35.681Z</time>
      </trkpt>
      <trkpt lat="48.054819" lon="7.780446">
        <ele>200.321779</ele>
        <time>2026-06-18T18:48:37.528Z</time>
      </trkpt>
      <trkpt lat="48.054857" lon="7.779745">
        <ele>199.913187</ele>
        <time>2026-06-18T18:48:44.625Z</time>
      </trkpt>
      <trkpt lat="48.054909" lon="7.779509">
        <ele>199.750187</ele>
        <time>2026-06-18T18:48:47.079Z</time>
      </trkpt>
      <trkpt lat="48.055053" lon="7.778926">
        <ele>199.342490</ele>
        <time>2026-06-18T18:48:53.118Z</time>
      </trkpt>
      <trkpt lat="48.055138" lon="7.778386">
        <ele>198.978586</ele>
        <time>2026-06-18T18:48:58.528Z</time>
      </trkpt>
      <trkpt lat="48.055211" lon="7.777626">
        <ele>198.474941</ele>
        <time>2026-06-18T18:49:06.181Z</time>
      </trkpt>
      <trkpt lat="48.055288" lon="7.776829">
        <ele>198.253723</ele>
        <time>2026-06-18T18:49:22.301Z</time>
      </trkpt>
      <trkpt lat="48.055512" lon="7.775733">
        <ele>197.967768</ele>
        <time>2026-06-18T18:49:45.936Z</time>
      </trkpt>
      <trkpt lat="48.055721" lon="7.774503">
        <ele>197.771808</ele>
        <time>2026-06-18T18:50:12.903Z</time>
      </trkpt>
      <trkpt lat="48.055785" lon="7.774423">
        <ele>197.772073</ele>
        <time>2026-06-18T18:50:15.577Z</time>
      </trkpt>
      <trkpt lat="48.057033" lon="7.774902">
        <ele>197.776169</ele>
        <time>2026-06-18T18:50:56.857Z</time>
      </trkpt>
      <trkpt lat="48.057330" lon="7.775092">
        <ele>197.736089</ele>
        <time>2026-06-18T18:51:07.084Z</time>
      </trkpt>
      <trkpt lat="48.057394" lon="7.775117">
        <ele>197.723756</ele>
        <time>2026-06-18T18:51:09.179Z</time>
      </trkpt>
      <trkpt lat="48.057466" lon="7.775075">
        <ele>197.709348</ele>
        <time>2026-06-18T18:51:11.598Z</time>
      </trkpt>
      <trkpt lat="48.057240" lon="7.774679">
        <ele>197.644456</ele>
        <time>2026-06-18T18:51:17.370Z</time>
      </trkpt>
      <trkpt lat="48.056860" lon="7.773916">
        <ele>197.525877</ele>
        <time>2026-06-18T18:51:27.666Z</time>
      </trkpt>
      <trkpt lat="48.056405" lon="7.773120">
        <ele>197.446137</ele>
        <time>2026-06-18T18:51:39.181Z</time>
      </trkpt>
      <trkpt lat="48.056310" lon="7.772870">
        <ele>197.450037</ele>
        <time>2026-06-18T18:51:42.444Z</time>
      </trkpt>
      <trkpt lat="48.056088" lon="7.772108">
        <ele>197.461310</ele>
        <time>2026-06-18T18:51:52.207Z</time>
      </trkpt>
      <trkpt lat="48.055882" lon="7.771291">
        <ele>197.473153</ele>
        <time>2026-06-18T18:52:02.618Z</time>
      </trkpt>
      <trkpt lat="48.055837" lon="7.771117">
        <ele>197.475683</ele>
        <time>2026-06-18T18:52:04.735Z</time>
      </trkpt>
      <trkpt lat="48.055818" lon="7.771052">
        <ele>197.476645</ele>
        <time>2026-06-18T18:52:05.727Z</time>
      </trkpt>
      <trkpt lat="48.055695" lon="7.770657">
        <ele>197.474800</ele>
        <time>2026-06-18T18:52:11.612Z</time>
      </trkpt>
      <trkpt lat="48.055683" lon="7.770612">
        <ele>197.474418</ele>
        <time>2026-06-18T18:52:12.156Z</time>
      </trkpt>
      <trkpt lat="48.055588" lon="7.770249">
        <ele>197.471350</ele>
        <time>2026-06-18T18:52:16.658Z</time>
      </trkpt>
      <trkpt lat="48.055541" lon="7.770075">
        <ele>197.469873</ele>
        <time>2026-06-18T18:52:19.097Z</time>
      </trkpt>
      <trkpt lat="48.055489" lon="7.769880">
        <ele>197.468221</ele>
        <time>2026-06-18T18:52:21.852Z</time>
      </trkpt>
      <trkpt lat="48.054924" lon="7.770211">
        <ele>197.461076</ele>
        <time>2026-06-18T18:52:32.049Z</time>
      </trkpt>
      <trkpt lat="48.054708" lon="7.770286">
        <ele>197.458465</ele>
        <time>2026-06-18T18:52:35.737Z</time>
      </trkpt>
      <trkpt lat="48.054161" lon="7.770247">
        <ele>197.534562</ele>
        <time>2026-06-18T18:52:45.406Z</time>
      </trkpt>
      <trkpt lat="48.053934" lon="7.770178">
        <ele>197.582407</ele>
        <time>2026-06-18T18:52:49.521Z</time>
      </trkpt>
      <trkpt lat="48.053737" lon="7.770102">
        <ele>197.624429</ele>
        <time>2026-06-18T18:52:53.122Z</time>
      </trkpt>
      <trkpt lat="48.053274" lon="7.770165">
        <ele>197.720457</ele>
        <time>2026-06-18T18:53:01.480Z</time>
      </trkpt>
      <trkpt lat="48.052731" lon="7.769943">
        <ele>197.851121</ele>
        <time>2026-06-18T18:53:11.969Z</time>
      </trkpt>
      <trkpt lat="48.052174" lon="7.769760">
        <ele>198.162754</ele>
        <time>2026-06-18T18:53:23.130Z</time>
      </trkpt>
      <trkpt lat="48.051471" lon="7.769245">
        <ele>198.590504</ele>
        <time>2026-06-18T18:53:38.452Z</time>
      </trkpt>
      <trkpt lat="48.051264" lon="7.769222">
        <ele>198.703933</ele>
        <time>2026-06-18T18:53:42.643Z</time>
      </trkpt>
      <trkpt lat="48.050919" lon="7.769321">
        <ele>198.824400</ele>
        <time>2026-06-18T18:53:49.730Z</time>
      </trkpt>
      <trkpt lat="48.050536" lon="7.768940">
        <ele>198.864395</ele>
        <time>2026-06-18T18:53:58.584Z</time>
      </trkpt>
      <trkpt lat="48.050480" lon="7.768795">
        <ele>198.874129</ele>
        <time>2026-06-18T18:54:00.635Z</time>
      </trkpt>
      <trkpt lat="48.050185" lon="7.768301">
        <ele>198.912634</ele>
        <time>2026-06-18T18:54:08.296Z</time>
      </trkpt>
      <trkpt lat="48.050152" lon="7.768228">
        <ele>198.917756</ele>
        <time>2026-06-18T18:54:09.293Z</time>
      </trkpt>
      <trkpt lat="48.050048" lon="7.768003">
        <ele>198.933657</ele>
        <time>2026-06-18T18:54:12.393Z</time>
      </trkpt>
      <trkpt lat="48.049751" lon="7.766922">
        <ele>198.723545</ele>
        <time>2026-06-18T18:54:24.867Z</time>
      </trkpt>
      <trkpt lat="48.049632" lon="7.766585">
        <ele>198.566224</ele>
        <time>2026-06-18T18:54:32.500Z</time>
      </trkpt>
      <trkpt lat="48.049402" lon="7.766075">
        <ele>198.312280</ele>
        <time>2026-06-18T18:54:44.793Z</time>
      </trkpt>
      <trkpt lat="48.049365" lon="7.765918">
        <ele>198.243564</ele>
        <time>2026-06-18T18:54:48.141Z</time>
      </trkpt>
      <trkpt lat="48.049360" lon="7.765792">
        <ele>198.191462</ele>
        <time>2026-06-18T18:54:50.684Z</time>
      </trkpt>
      <trkpt lat="48.049413" lon="7.765530">
        <ele>198.078470</ele>
        <time>2026-06-18T18:54:56.156Z</time>
      </trkpt>
      <trkpt lat="48.049543" lon="7.765143">
        <ele>197.899690</ele>
        <time>2026-06-18T18:55:04.783Z</time>
      </trkpt>
      <trkpt lat="48.049769" lon="7.764344">
        <ele>197.478322</ele>
        <time>2026-06-18T18:55:22.064Z</time>
      </trkpt>
      <trkpt lat="48.049801" lon="7.764165">
        <ele>197.386484</ele>
        <time>2026-06-18T18:55:25.745Z</time>
      </trkpt>
      <trkpt lat="48.049799" lon="7.763978">
        <ele>197.293787</ele>
        <time>2026-06-18T18:55:29.447Z</time>
      </trkpt>
      <trkpt lat="48.049754" lon="7.763726">
        <ele>197.164506</ele>
        <time>2026-06-18T18:55:34.610Z</time>
      </trkpt>
      <trkpt lat="48.049474" lon="7.762384">
        <ele>196.512615</ele>
        <time>2026-06-18T18:56:02.493Z</time>
      </trkpt>
      <trkpt lat="48.049699" lon="7.762028">
        <ele>196.466812</ele>
        <time>2026-06-18T18:56:12.442Z</time>
      </trkpt>
      <trkpt lat="48.050909" lon="7.761246">
        <ele>196.282470</ele>
        <time>2026-06-18T18:56:54.275Z</time>
      </trkpt>
      <trkpt lat="48.051015" lon="7.761146">
        <ele>196.283465</ele>
        <time>2026-06-18T18:56:58.429Z</time>
      </trkpt>
      <trkpt lat="48.051189" lon="7.761077">
        <ele>196.329345</ele>
        <time>2026-06-18T18:57:04.401Z</time>
      </trkpt>
      <trkpt lat="48.051265" lon="7.760957">
        <ele>196.357509</ele>
        <time>2026-06-18T18:57:08.092Z</time>
      </trkpt>
      <trkpt lat="48.051278" lon="7.758252">
        <ele>196.674820</ele>
        <time>2026-06-18T18:58:08.151Z</time>
      </trkpt>
      <trkpt lat="48.051326" lon="7.754937">
        <ele>196.501062</ele>
        <time>2026-06-18T18:59:16.474Z</time>
      </trkpt>
      <trkpt lat="48.051319" lon="7.753625">
        <ele>196.566162</ele>
        <time>2026-06-18T18:59:45.495Z</time>
      </trkpt>
      <trkpt lat="48.051342" lon="7.753554">
        <ele>196.570076</ele>
        <time>2026-06-18T18:59:47.311Z</time>
      </trkpt>
      <trkpt lat="48.051347" lon="7.753402">
        <ele>196.577627</ele>
        <time>2026-06-18T18:59:50.801Z</time>
      </trkpt>
      <trkpt lat="48.051351" lon="7.752347">
        <ele>196.877077</ele>
        <time>2026-06-18T19:00:15.441Z</time>
      </trkpt>
      <trkpt lat="48.051203" lon="7.751717">
        <ele>197.067113</ele>
        <time>2026-06-18T19:00:31.171Z</time>
      </trkpt>
      <trkpt lat="48.051126" lon="7.751617">
        <ele>197.110524</ele>
        <time>2026-06-18T19:00:34.618Z</time>
      </trkpt>
      <trkpt lat="48.051013" lon="7.751594">
        <ele>197.159074</ele>
        <time>2026-06-18T19:00:38.457Z</time>
      </trkpt>
      <trkpt lat="48.050541" lon="7.751710">
        <ele>197.314539</ele>
        <time>2026-06-18T19:00:53.872Z</time>
      </trkpt>
      <trkpt lat="48.050528" lon="7.751226">
        <ele>197.106296</ele>
        <time>2026-06-18T19:01:03.921Z</time>
      </trkpt>
      <trkpt lat="48.050473" lon="7.750957">
        <ele>196.985363</ele>
        <time>2026-06-18T19:01:09.658Z</time>
      </trkpt>
      <trkpt lat="48.050378" lon="7.750811">
        <ele>196.897771</ele>
        <time>2026-06-18T19:01:13.794Z</time>
      </trkpt>
      <trkpt lat="48.048695" lon="7.749299">
        <ele>195.793543</ele>
        <time>2026-06-18T19:02:11.355Z</time>
      </trkpt>
      <trkpt lat="48.046572" lon="7.747374">
        <ele>195.367872</ele>
        <time>2026-06-18T19:03:30.133Z</time>
      </trkpt>
      <trkpt lat="48.048079" lon="7.743678">
        <ele>195.692452</ele>
        <time>2026-06-18T19:05:04.357Z</time>
      </trkpt>
      <trkpt lat="48.048106" lon="7.743613">
        <ele>195.694739</ele>
        <time>2026-06-18T19:05:06.008Z</time>
      </trkpt>
      <trkpt lat="48.048532" lon="7.742557">
        <ele>195.731603</ele>
        <time>2026-06-18T19:05:32.151Z</time>
      </trkpt>
      <trkpt lat="48.048997" lon="7.741488">
        <ele>195.416228</ele>
        <time>2026-06-18T19:05:58.658Z</time>
      </trkpt>
      <trkpt lat="48.049172" lon="7.741008">
        <ele>195.264356</ele>
        <time>2026-06-18T19:06:09.758Z</time>
      </trkpt>
      <trkpt lat="48.048613" lon="7.739963">
        <ele>194.944950</ele>
        <time>2026-06-18T19:06:25.992Z</time>
      </trkpt>
      <trkpt lat="48.048438" lon="7.739343">
        <ele>194.860595</ele>
        <time>2026-06-18T19:06:34.316Z</time>
      </trkpt>
      <trkpt lat="48.048069" lon="7.738330">
        <ele>194.715996</ele>
        <time>2026-06-18T19:06:50.105Z</time>
      </trkpt>
      <trkpt lat="48.047894" lon="7.738011">
        <ele>194.664272</ele>
        <time>2026-06-18T19:06:55.809Z</time>
      </trkpt>
      <trkpt lat="48.047586" lon="7.737865">
        <ele>194.495691</ele>
        <time>2026-06-18T19:07:02.174Z</time>
      </trkpt>
      <trkpt lat="48.047398" lon="7.737673">
        <ele>194.355083</ele>
        <time>2026-06-18T19:07:06.533Z</time>
      </trkpt>
      <trkpt lat="48.047361" lon="7.737469">
        <ele>194.267800</ele>
        <time>2026-06-18T19:07:09.169Z</time>
      </trkpt>
      <trkpt lat="48.047395" lon="7.737131">
        <ele>194.126658</ele>
        <time>2026-06-18T19:07:13.306Z</time>
      </trkpt>
      <trkpt lat="48.047527" lon="7.737006">
        <ele>194.030159</ele>
        <time>2026-06-18T19:07:15.995Z</time>
      </trkpt>
      <trkpt lat="48.047517" lon="7.736743">
        <ele>193.921383</ele>
        <time>2026-06-18T19:07:19.107Z</time>
      </trkpt>
      <trkpt lat="48.047450" lon="7.736598">
        <ele>193.848598</ele>
        <time>2026-06-18T19:07:21.158Z</time>
      </trkpt>
      <trkpt lat="48.047415" lon="7.736539">
        <ele>193.816026</ele>
        <time>2026-06-18T19:07:22.076Z</time>
      </trkpt>
      <trkpt lat="48.047604" lon="7.736201">
        <ele>193.634069</ele>
        <time>2026-06-18T19:07:27.117Z</time>
      </trkpt>
      <trkpt lat="48.047724" lon="7.735950">
        <ele>193.526186</ele>
        <time>2026-06-18T19:07:30.641Z</time>
      </trkpt>
      <trkpt lat="48.048334" lon="7.734720">
        <ele>193.266786</ele>
        <time>2026-06-18T19:07:46.949Z</time>
      </trkpt>
      <trkpt lat="48.048752" lon="7.733909">
        <ele>193.093338</ele>
        <time>2026-06-18T19:07:59.653Z</time>
      </trkpt>
      <trkpt lat="48.049090" lon="7.733384">
        <ele>193.105306</ele>
        <time>2026-06-18T19:08:08.571Z</time>
      </trkpt>
      <trkpt lat="48.049432" lon="7.732865">
        <ele>193.128268</ele>
        <time>2026-06-18T19:08:17.299Z</time>
      </trkpt>
      <trkpt lat="48.049686" lon="7.732488">
        <ele>193.145134</ele>
        <time>2026-06-18T19:08:23.574Z</time>
      </trkpt>
      <trkpt lat="48.049878" lon="7.732228">
        <ele>193.157341</ele>
        <time>2026-06-18T19:08:28.077Z</time>
      </trkpt>
      <trkpt lat="48.050091" lon="7.732024">
        <ele>193.175278</ele>
        <time>2026-06-18T19:08:32.454Z</time>
      </trkpt>
      <trkpt lat="48.050188" lon="7.731965">
        <ele>193.251055</ele>
        <time>2026-06-18T19:08:34.349Z</time>
      </trkpt>
      <trkpt lat="48.050302" lon="7.731899">
        <ele>193.339516</ele>
        <time>2026-06-18T19:08:36.619Z</time>
      </trkpt>
      <trkpt lat="48.050564" lon="7.731782">
        <ele>193.537385</ele>
        <time>2026-06-18T19:08:41.967Z</time>
      </trkpt>
      <trkpt lat="48.050581" lon="7.731773">
        <ele>193.550435</ele>
        <time>2026-06-18T19:08:42.330Z</time>
      </trkpt>
      <trkpt lat="48.050733" lon="7.731676">
        <ele>193.670024</ele>
        <time>2026-06-18T19:08:45.426Z</time>
      </trkpt>
      <trkpt lat="48.050825" lon="7.731572">
        <ele>193.753473</ele>
        <time>2026-06-18T19:08:47.931Z</time>
      </trkpt>
      <trkpt lat="48.050907" lon="7.731453">
        <ele>193.836149</ele>
        <time>2026-06-18T19:08:50.510Z</time>
      </trkpt>
      <trkpt lat="48.050981" lon="7.731274">
        <ele>193.937962</ele>
        <time>2026-06-18T19:08:53.776Z</time>
      </trkpt>
      <trkpt lat="48.050979" lon="7.731176">
        <ele>193.985391</ele>
        <time>2026-06-18T19:08:55.164Z</time>
      </trkpt>
      <trkpt lat="48.050964" lon="7.731123">
        <ele>194.013233</ele>
        <time>2026-06-18T19:08:55.975Z</time>
      </trkpt>
      <trkpt lat="48.050922" lon="7.730980">
        <ele>194.088793</ele>
        <time>2026-06-18T19:08:58.184Z</time>
      </trkpt>
      <trkpt lat="48.050882" lon="7.730834">
        <ele>194.165122</ele>
        <time>2026-06-18T19:09:00.730Z</time>
      </trkpt>
      <trkpt lat="48.050856" lon="7.730744">
        <ele>194.212552</ele>
        <time>2026-06-18T19:09:02.169Z</time>
      </trkpt>
      <trkpt lat="48.050702" lon="7.730848">
        <ele>194.334827</ele>
        <time>2026-06-18T19:09:05.875Z</time>
      </trkpt>
      <trkpt lat="48.050533" lon="7.730956">
        <ele>194.467819</ele>
        <time>2026-06-18T19:09:09.934Z</time>
      </trkpt>
      <trkpt lat="48.050438" lon="7.730984">
        <ele>194.876415</ele>
        <time>2026-06-18T19:09:12.224Z</time>
      </trkpt>
      <trkpt lat="48.050333" lon="7.730969">
        <ele>195.336008</ele>
        <time>2026-06-18T19:09:14.804Z</time>
      </trkpt>
      <trkpt lat="48.050268" lon="7.730937">
        <ele>195.634172</ele>
        <time>2026-06-18T19:09:16.548Z</time>
      </trkpt>
      <trkpt lat="48.050041" lon="7.730672">
        <ele>196.888805</ele>
        <time>2026-06-18T19:09:24.753Z</time>
      </trkpt>
      <trkpt lat="48.049944" lon="7.730595">
        <ele>197.367279</ele>
        <time>2026-06-18T19:09:28.304Z</time>
      </trkpt>
      <trkpt lat="48.049822" lon="7.730587">
        <ele>197.899375</ele>
        <time>2026-06-18T19:09:32.414Z</time>
      </trkpt>
      <trkpt lat="48.049714" lon="7.730684">
        <ele>198.448261</ele>
        <time>2026-06-18T19:09:36.959Z</time>
      </trkpt>
      <trkpt lat="48.049629" lon="7.730874">
        <ele>199.114182</ele>
        <time>2026-06-18T19:09:42.773Z</time>
      </trkpt>
      <trkpt lat="48.049551" lon="7.730983">
        <ele>199.579273</ele>
        <time>2026-06-18T19:09:47.197Z</time>
      </trkpt>
      <trkpt lat="48.049408" lon="7.731001">
        <ele>200.204562</ele>
        <time>2026-06-18T19:09:53.309Z</time>
      </trkpt>
      <trkpt lat="48.049384" lon="7.730890">
        <ele>200.544371</ele>
        <time>2026-06-18T19:09:56.924Z</time>
      </trkpt>
      <trkpt lat="48.049212" lon="7.730653">
        <ele>201.563305</ele>
        <time>2026-06-18T19:10:08.444Z</time>
      </trkpt>
      <trkpt lat="48.049064" lon="7.730513">
        <ele>202.338712</ele>
        <time>2026-06-18T19:10:17.451Z</time>
      </trkpt>
      <trkpt lat="48.048948" lon="7.730451">
        <ele>203.232095</ele>
        <time>2026-06-18T19:10:23.990Z</time>
      </trkpt>
      <trkpt lat="48.048727" lon="7.730591">
        <ele>204.972705</ele>
        <time>2026-06-18T19:10:37.039Z</time>
      </trkpt>
      <trkpt lat="48.048569" lon="7.730556">
        <ele>206.131102</ele>
        <time>2026-06-18T19:10:46.128Z</time>
      </trkpt>
      <trkpt lat="48.048399" lon="7.730422">
        <ele>207.524730</ele>
        <time>2026-06-18T19:10:57.342Z</time>
      </trkpt>
      <trkpt lat="48.048055" lon="7.730000">
        <ele>210.751267</ele>
        <time>2026-06-18T19:11:22.454Z</time>
      </trkpt>
      <trkpt lat="48.047856" lon="7.729733">
        <ele>212.690020</ele>
        <time>2026-06-18T19:11:36.237Z</time>
      </trkpt>
      <trkpt lat="48.047465" lon="7.729325">
        <ele>216.104762</ele>
        <time>2026-06-18T19:11:58.021Z</time>
      </trkpt>
      <trkpt lat="48.047000" lon="7.729030">
        <ele>219.570853</ele>
        <time>2026-06-18T19:12:19.743Z</time>
      </trkpt>
      <trkpt lat="48.046769" lon="7.728936">
        <ele>221.213653</ele>
        <time>2026-06-18T19:12:31.153Z</time>
      </trkpt>
      <trkpt lat="48.046129" lon="7.728532">
        <ele>225.980584</ele>
        <time>2026-06-18T19:13:03.969Z</time>
      </trkpt>
      <trkpt lat="48.046079" lon="7.728463">
        <ele>226.447415</ele>
        <time>2026-06-18T19:13:07.434Z</time>
      </trkpt>
      <trkpt lat="48.045728" lon="7.728251">
        <ele>229.344203</ele>
        <time>2026-06-18T19:13:27.819Z</time>
      </trkpt>
      <trkpt lat="48.045466" lon="7.728088">
        <ele>231.723008</ele>
        <time>2026-06-18T19:13:44.171Z</time>
      </trkpt>
      <trkpt lat="48.045176" lon="7.727898">
        <ele>234.377121</ele>
        <time>2026-06-18T19:14:03.340Z</time>
      </trkpt>
      <trkpt lat="48.044705" lon="7.727567">
        <ele>238.739689</ele>
        <time>2026-06-18T19:14:34.148Z</time>
      </trkpt>
      <trkpt lat="48.044148" lon="7.727022">
        <ele>243.353420</ele>
        <time>2026-06-18T19:15:09.587Z</time>
      </trkpt>
      <trkpt lat="48.043899" lon="7.726860">
        <ele>244.207271</ele>
        <time>2026-06-18T19:15:21.533Z</time>
      </trkpt>
      <trkpt lat="48.043700" lon="7.726667">
        <ele>244.953064</ele>
        <time>2026-06-18T19:15:30.212Z</time>
      </trkpt>
      <trkpt lat="48.043384" lon="7.726431">
        <ele>246.063716</ele>
        <time>2026-06-18T19:15:40.270Z</time>
      </trkpt>
      <trkpt lat="48.043219" lon="7.726381">
        <ele>246.593105</ele>
        <time>2026-06-18T19:15:44.722Z</time>
      </trkpt>
      <trkpt lat="48.043127" lon="7.726327">
        <ele>246.903880</ele>
        <time>2026-06-18T19:15:47.199Z</time>
      </trkpt>
      <trkpt lat="48.042708" lon="7.726080">
        <ele>248.320076</ele>
        <time>2026-06-18T19:15:56.531Z</time>
      </trkpt>
      <trkpt lat="48.042692" lon="7.725998">
        <ele>248.431608</ele>
        <time>2026-06-18T19:15:57.385Z</time>
      </trkpt>
      <trkpt lat="48.042080" lon="7.725796">
        <ele>248.492356</ele>
        <time>2026-06-18T19:16:07.118Z</time>
      </trkpt>
      <trkpt lat="48.041255" lon="7.725328">
        <ele>248.577883</ele>
        <time>2026-06-18T19:16:22.661Z</time>
      </trkpt>
      <trkpt lat="48.040764" lon="7.725100">
        <ele>248.683904</ele>
        <time>2026-06-18T19:16:33.270Z</time>
      </trkpt>
      <trkpt lat="48.040651" lon="7.725039">
        <ele>248.722890</ele>
        <time>2026-06-18T19:16:35.766Z</time>
      </trkpt>
      <trkpt lat="48.040351" lon="7.724995">
        <ele>248.820715</ele>
        <time>2026-06-18T19:16:42.189Z</time>
      </trkpt>
      <trkpt lat="48.040020" lon="7.724892">
        <ele>248.930432</ele>
        <time>2026-06-18T19:16:49.487Z</time>
      </trkpt>
      <trkpt lat="48.039034" lon="7.724226">
        <ele>248.845458</ele>
        <time>2026-06-18T19:17:07.345Z</time>
      </trkpt>
      <trkpt lat="48.038823" lon="7.724098">
        <ele>248.576710</ele>
        <time>2026-06-18T19:17:10.696Z</time>
      </trkpt>
      <trkpt lat="48.038572" lon="7.724001">
        <ele>248.270726</ele>
        <time>2026-06-18T19:17:14.418Z</time>
      </trkpt>
      <trkpt lat="48.038350" lon="7.723973">
        <ele>248.007770</ele>
        <time>2026-06-18T19:17:17.531Z</time>
      </trkpt>
      <trkpt lat="48.038041" lon="7.724016">
        <ele>247.641484</ele>
        <time>2026-06-18T19:17:21.789Z</time>
      </trkpt>
      <trkpt lat="48.037220" lon="7.723412">
        <ele>247.017338</ele>
        <time>2026-06-18T19:17:34.788Z</time>
      </trkpt>
      <trkpt lat="48.036479" lon="7.723249">
        <ele>246.934342</ele>
        <time>2026-06-18T19:17:47.607Z</time>
      </trkpt>
      <trkpt lat="48.035712" lon="7.723102">
        <ele>247.010502</ele>
        <time>2026-06-18T19:18:04.028Z</time>
      </trkpt>
      <trkpt lat="48.035359" lon="7.723005">
        <ele>247.358604</ele>
        <time>2026-06-18T19:18:11.480Z</time>
      </trkpt>
      <trkpt lat="48.035099" lon="7.722855">
        <ele>247.628888</ele>
        <time>2026-06-18T19:18:16.852Z</time>
      </trkpt>
      <trkpt lat="48.035004" lon="7.722800">
        <ele>247.727691</ele>
        <time>2026-06-18T19:18:18.901Z</time>
      </trkpt>
      <trkpt lat="48.034180" lon="7.722214">
        <ele>248.614334</ele>
        <time>2026-06-18T19:18:38.816Z</time>
      </trkpt>
      <trkpt lat="48.034112" lon="7.722219">
        <ele>248.718754</ele>
        <time>2026-06-18T19:18:40.314Z</time>
      </trkpt>
      <trkpt lat="48.034088" lon="7.722160">
        <ele>248.789580</ele>
        <time>2026-06-18T19:18:41.539Z</time>
      </trkpt>
      <trkpt lat="48.033908" lon="7.721717">
        <ele>249.321218</ele>
        <time>2026-06-18T19:18:50.026Z</time>
      </trkpt>
      <trkpt lat="48.033837" lon="7.721582">
        <ele>249.497366</ele>
        <time>2026-06-18T19:18:52.929Z</time>
      </trkpt>
      <trkpt lat="48.033448" lon="7.720931">
        <ele>250.392763</ele>
        <time>2026-06-18T19:19:07.801Z</time>
      </trkpt>
      <trkpt lat="48.033262" lon="7.720284">
        <ele>251.115053</ele>
        <time>2026-06-18T19:19:21.391Z</time>
      </trkpt>
      <trkpt lat="48.033156" lon="7.720179">
        <ele>251.310061</ele>
        <time>2026-06-18T19:19:24.513Z</time>
      </trkpt>
      <trkpt lat="48.032926" lon="7.720113">
        <ele>251.277158</ele>
        <time>2026-06-18T19:19:29.766Z</time>
      </trkpt>
      <trkpt lat="48.032558" lon="7.719970">
        <ele>251.100363</ele>
        <time>2026-06-18T19:19:37.289Z</time>
      </trkpt>
      <trkpt lat="48.032414" lon="7.719872">
        <ele>251.026798</ele>
        <time>2026-06-18T19:19:40.212Z</time>
      </trkpt>
      <trkpt lat="48.032164" lon="7.719568">
        <ele>250.876972</ele>
        <time>2026-06-18T19:19:45.924Z</time>
      </trkpt>
      <trkpt lat="48.031394" lon="7.718448">
        <ele>250.561978</ele>
        <time>2026-06-18T19:20:04.220Z</time>
      </trkpt>
      <trkpt lat="48.031109" lon="7.718151">
        <ele>250.593266</ele>
        <time>2026-06-18T19:20:10.176Z</time>
      </trkpt>
      <trkpt lat="48.031022" lon="7.718145">
        <ele>250.601110</ele>
        <time>2026-06-18T19:20:11.472Z</time>
      </trkpt>
      <trkpt lat="48.030972" lon="7.718087">
        <ele>250.606810</ele>
        <time>2026-06-18T19:20:12.447Z</time>
      </trkpt>
      <trkpt lat="48.030946" lon="7.718013">
        <ele>250.611845</ele>
        <time>2026-06-18T19:20:13.316Z</time>
      </trkpt>
      <trkpt lat="48.030972" lon="7.718087">
        <ele>250.616880</ele>
        <time>2026-06-18T19:20:14.197Z</time>
      </trkpt>
      <trkpt lat="48.031022" lon="7.718145">
        <ele>250.622579</ele>
        <time>2026-06-18T19:20:15.263Z</time>
      </trkpt>
      <trkpt lat="48.030972" lon="7.718087">
        <ele>250.628279</ele>
        <time>2026-06-18T19:20:16.327Z</time>
      </trkpt>
      <trkpt lat="48.030668" lon="7.717239">
        <ele>250.686231</ele>
        <time>2026-06-18T19:20:30.840Z</time>
      </trkpt>
      <trkpt lat="48.030614" lon="7.717087">
        <ele>250.752984</ele>
        <time>2026-06-18T19:20:33.949Z</time>
      </trkpt>
      <trkpt lat="48.030541" lon="7.716831">
        <ele>251.139832</ele>
        <time>2026-06-18T19:20:39.220Z</time>
      </trkpt>
      <trkpt lat="48.030420" lon="7.716440">
        <ele>251.738708</ele>
        <time>2026-06-18T19:20:47.885Z</time>
      </trkpt>
      <trkpt lat="48.030381" lon="7.716280">
        <ele>251.975427</ele>
        <time>2026-06-18T19:20:51.548Z</time>
      </trkpt>
      <trkpt lat="48.029927" lon="7.714580">
        <ele>254.357881</ele>
        <time>2026-06-18T19:21:26.309Z</time>
      </trkpt>
      <trkpt lat="48.029824" lon="7.714097">
        <ele>253.753600</ele>
        <time>2026-06-18T19:21:32.283Z</time>
      </trkpt>
      <trkpt lat="48.029657" lon="7.713117">
        <ele>252.548147</ele>
        <time>2026-06-18T19:21:41.454Z</time>
      </trkpt>
      <trkpt lat="48.029572" lon="7.712753">
        <ele>252.088580</ele>
        <time>2026-06-18T19:21:44.630Z</time>
      </trkpt>
      <trkpt lat="48.029434" lon="7.712401">
        <ele>251.602223</ele>
        <time>2026-06-18T19:21:47.982Z</time>
      </trkpt>
      <trkpt lat="48.029140" lon="7.711540">
        <ele>250.934498</ele>
        <time>2026-06-18T19:21:55.982Z</time>
      </trkpt>
      <trkpt lat="48.029093" lon="7.711281">
        <ele>250.814141</ele>
        <time>2026-06-18T19:21:58.248Z</time>
      </trkpt>
      <trkpt lat="48.029068" lon="7.711137">
        <ele>250.747419</ele>
        <time>2026-06-18T19:21:59.531Z</time>
      </trkpt>
      <trkpt lat="48.028972" lon="7.710129">
        <ele>250.290787</ele>
        <time>2026-06-18T19:22:10.480Z</time>
      </trkpt>
      <trkpt lat="48.028924" lon="7.709861">
        <ele>250.166358</ele>
        <time>2026-06-18T19:22:15.263Z</time>
      </trkpt>
      <trkpt lat="48.028835" lon="7.709599">
        <ele>250.034566</ele>
        <time>2026-06-18T19:22:21.003Z</time>
      </trkpt>
      <trkpt lat="48.028648" lon="7.709189">
        <ele>251.301777</ele>
        <time>2026-06-18T19:22:31.942Z</time>
      </trkpt>
      <trkpt lat="48.028309" lon="7.708707">
        <ele>253.228419</ele>
        <time>2026-06-18T19:22:49.551Z</time>
      </trkpt>
      <trkpt lat="48.028279" lon="7.708686">
        <ele>253.364847</ele>
        <time>2026-06-18T19:22:50.870Z</time>
      </trkpt>
      <trkpt lat="48.028238" lon="7.708666">
        <ele>253.542469</ele>
        <time>2026-06-18T19:22:52.617Z</time>
      </trkpt>
      <trkpt lat="48.028198" lon="7.708646">
        <ele>253.716180</ele>
        <time>2026-06-18T19:22:54.334Z</time>
      </trkpt>
      <trkpt lat="48.028091" lon="7.708603">
        <ele>254.172510</ele>
        <time>2026-06-18T19:22:58.947Z</time>
      </trkpt>
      <trkpt lat="48.027213" lon="7.708436">
        <ele>257.698990</ele>
        <time>2026-06-18T19:23:32.720Z</time>
      </trkpt>
      <trkpt lat="48.027108" lon="7.708416">
        <ele>258.001884</ele>
        <time>2026-06-18T19:23:36.232Z</time>
      </trkpt>
      <trkpt lat="48.027099" lon="7.708412">
        <ele>258.028751</ele>
        <time>2026-06-18T19:23:36.572Z</time>
      </trkpt>
      <trkpt lat="48.027067" lon="7.708396">
        <ele>258.125306</ele>
        <time>2026-06-18T19:23:37.666Z</time>
      </trkpt>
      <trkpt lat="48.027077" lon="7.708189">
        <ele>258.522487</ele>
        <time>2026-06-18T19:23:42.326Z</time>
      </trkpt>
      <trkpt lat="48.027252" lon="7.707624">
        <ele>259.714096</ele>
        <time>2026-06-18T19:23:56.084Z</time>
      </trkpt>
      <trkpt lat="48.027290" lon="7.707282">
        <ele>260.377572</ele>
        <time>2026-06-18T19:24:03.327Z</time>
      </trkpt>
      <trkpt lat="48.027269" lon="7.707189">
        <ele>260.565422</ele>
        <time>2026-06-18T19:24:05.299Z</time>
      </trkpt>
      <trkpt lat="48.027180" lon="7.707015">
        <ele>260.984644</ele>
        <time>2026-06-18T19:24:12.025Z</time>
      </trkpt>
      <trkpt lat="48.026852" lon="7.706658">
        <ele>262.145569</ele>
        <time>2026-06-18T19:24:29.640Z</time>
      </trkpt>
      <trkpt lat="48.026400" lon="7.706177">
        <ele>262.605915</ele>
        <time>2026-06-18T19:24:50.176Z</time>
      </trkpt>
      <trkpt lat="48.026060" lon="7.705733">
        <ele>262.639867</ele>
        <time>2026-06-18T19:25:04.847Z</time>
      </trkpt>
      <trkpt lat="48.026066" lon="7.705721">
        <ele>262.640621</ele>
        <time>2026-06-18T19:25:05.199Z</time>
      </trkpt>
      <trkpt lat="48.025303" lon="7.705088">
        <ele>262.706250</ele>
        <time>2026-06-18T19:25:18.620Z</time>
      </trkpt>
      <trkpt lat="48.024766" lon="7.704632">
        <ele>263.330813</ele>
        <time>2026-06-18T19:25:30.926Z</time>
      </trkpt>
      <trkpt lat="48.024437" lon="7.704335">
        <ele>263.758262</ele>
        <time>2026-06-18T19:25:40.717Z</time>
      </trkpt>
      <trkpt lat="48.024367" lon="7.704322">
        <ele>263.836717</ele>
        <time>2026-06-18T19:25:42.594Z</time>
      </trkpt>
      <trkpt lat="48.023881" lon="7.704255">
        <ele>264.379556</ele>
        <time>2026-06-18T19:25:56.046Z</time>
      </trkpt>
      <trkpt lat="48.023389" lon="7.704229">
        <ele>264.508844</ele>
        <time>2026-06-18T19:26:07.161Z</time>
      </trkpt>
      <trkpt lat="48.023134" lon="7.704105">
        <ele>264.229104</ele>
        <time>2026-06-18T19:26:11.635Z</time>
      </trkpt>
      <trkpt lat="48.022022" lon="7.703336">
        <ele>262.950951</ele>
        <time>2026-06-18T19:26:28.895Z</time>
      </trkpt>
      <trkpt lat="48.021480" lon="7.702996">
        <ele>260.869690</ele>
        <time>2026-06-18T19:26:36.544Z</time>
      </trkpt>
      <trkpt lat="48.021408" lon="7.702919">
        <ele>260.504614</ele>
        <time>2026-06-18T19:26:37.625Z</time>
      </trkpt>
      <trkpt lat="48.021626" lon="7.702028">
        <ele>257.887617</ele>
        <time>2026-06-18T19:26:45.247Z</time>
      </trkpt>
      <trkpt lat="48.021726" lon="7.701721">
        <ele>256.945712</ele>
        <time>2026-06-18T19:26:47.924Z</time>
      </trkpt>
      <trkpt lat="48.021772" lon="7.701456">
        <ele>256.190527</ele>
        <time>2026-06-18T19:26:50.059Z</time>
      </trkpt>
      <trkpt lat="48.021780" lon="7.701409">
        <ele>256.056751</ele>
        <time>2026-06-18T19:26:50.436Z</time>
      </trkpt>
      <trkpt lat="48.021786" lon="7.701172">
        <ele>255.389121</ele>
        <time>2026-06-18T19:26:52.260Z</time>
      </trkpt>
      <trkpt lat="48.021690" lon="7.700637">
        <ele>252.458088</ele>
        <time>2026-06-18T19:26:56.413Z</time>
      </trkpt>
      <trkpt lat="48.021437" lon="7.699977">
        <ele>248.432810</ele>
        <time>2026-06-18T19:27:02.003Z</time>
      </trkpt>
      <trkpt lat="48.021398" lon="7.699760">
        <ele>247.243828</ele>
        <time>2026-06-18T19:27:03.653Z</time>
      </trkpt>
      <trkpt lat="48.021465" lon="7.698872">
        <ele>242.515189</ele>
        <time>2026-06-18T19:27:10.102Z</time>
      </trkpt>
      <trkpt lat="48.021454" lon="7.698582">
        <ele>240.830659</ele>
        <time>2026-06-18T19:27:12.161Z</time>
      </trkpt>
      <trkpt lat="48.021138" lon="7.697081">
        <ele>226.637350</ele>
        <time>2026-06-18T19:27:22.855Z</time>
      </trkpt>
      <trkpt lat="48.021044" lon="7.696233">
        <ele>218.884324</ele>
        <time>2026-06-18T19:27:28.574Z</time>
      </trkpt>
      <trkpt lat="48.020933" lon="7.695527">
        <ele>213.297580</ele>
        <time>2026-06-18T19:27:33.401Z</time>
      </trkpt>
      <trkpt lat="48.020955" lon="7.694493">
        <ele>205.907529</ele>
        <time>2026-06-18T19:27:41.717Z</time>
      </trkpt>
      <trkpt lat="48.021030" lon="7.693896">
        <ele>201.568328</ele>
        <time>2026-06-18T19:27:46.896Z</time>
      </trkpt>
      <trkpt lat="48.020992" lon="7.693882">
        <ele>201.150346</ele>
        <time>2026-06-18T19:27:47.416Z</time>
      </trkpt>
      <trkpt lat="48.021030" lon="7.693896">
        <ele>200.732365</ele>
        <time>2026-06-18T19:27:47.939Z</time>
      </trkpt>
      <trkpt lat="48.020994" lon="7.693274">
        <ele>197.450810</ele>
        <time>2026-06-18T19:27:53.786Z</time>
      </trkpt>
      <trkpt lat="48.020816" lon="7.692536">
        <ele>196.399454</ele>
        <time>2026-06-18T19:28:01.970Z</time>
      </trkpt>
      <trkpt lat="48.020789" lon="7.692103">
        <ele>195.816660</ele>
        <time>2026-06-18T19:28:06.895Z</time>
      </trkpt>
      <trkpt lat="48.020813" lon="7.691792">
        <ele>195.397113</ele>
        <time>2026-06-18T19:28:10.526Z</time>
      </trkpt>
      <trkpt lat="48.020964" lon="7.690834">
        <ele>194.116983</ele>
        <time>2026-06-18T19:28:22.646Z</time>
      </trkpt>
      <trkpt lat="48.020976" lon="7.690752">
        <ele>194.111112</ele>
        <time>2026-06-18T19:28:23.725Z</time>
      </trkpt>
      <trkpt lat="48.021026" lon="7.690527">
        <ele>194.094530</ele>
        <time>2026-06-18T19:28:26.755Z</time>
      </trkpt>
      <trkpt lat="48.021153" lon="7.690251">
        <ele>194.071099</ele>
        <time>2026-06-18T19:28:31.064Z</time>
      </trkpt>
      <trkpt lat="48.021422" lon="7.689650">
        <ele>194.020521</ele>
        <time>2026-06-18T19:28:40.612Z</time>
      </trkpt>
      <trkpt lat="48.021463" lon="7.689565">
        <ele>194.013192</ele>
        <time>2026-06-18T19:28:42.020Z</time>
      </trkpt>
      <trkpt lat="48.021793" lon="7.688794">
        <ele>193.949171</ele>
        <time>2026-06-18T19:28:54.574Z</time>
      </trkpt>
      <trkpt lat="48.021928" lon="7.688470">
        <ele>193.891915</ele>
        <time>2026-06-18T19:28:59.880Z</time>
      </trkpt>
      <trkpt lat="48.022140" lon="7.688689">
        <ele>193.768892</ele>
        <time>2026-06-18T19:29:04.817Z</time>
      </trkpt>
      <trkpt lat="48.022357" lon="7.688913">
        <ele>193.642997</ele>
        <time>2026-06-18T19:29:09.702Z</time>
      </trkpt>
      <trkpt lat="48.022519" lon="7.689099">
        <ele>193.545480</ele>
        <time>2026-06-18T19:29:13.452Z</time>
      </trkpt>
      <trkpt lat="48.022787" lon="7.689325">
        <ele>193.398582</ele>
        <time>2026-06-18T19:29:18.220Z</time>
      </trkpt>
      <trkpt lat="48.022851" lon="7.689379">
        <ele>193.363497</ele>
        <time>2026-06-18T19:29:19.360Z</time>
      </trkpt>
      <trkpt lat="48.023050" lon="7.689587">
        <ele>193.247576</ele>
        <time>2026-06-18T19:29:26.615Z</time>
      </trkpt>
      <trkpt lat="48.024352" lon="7.690931">
        <ele>192.470038</ele>
        <time>2026-06-18T19:30:14.128Z</time>
      </trkpt>
      <trkpt lat="48.025091" lon="7.689312">
        <ele>192.170675</ele>
        <time>2026-06-18T19:30:39.413Z</time>
      </trkpt>
      <trkpt lat="48.025828" lon="7.687724">
        <ele>192.169583</ele>
        <time>2026-06-18T19:31:06.056Z</time>
      </trkpt>
      <trkpt lat="48.026561" lon="7.686117">
        <ele>192.250602</ele>
        <time>2026-06-18T19:31:32.271Z</time>
      </trkpt>
      <trkpt lat="48.026839" lon="7.685514">
        <ele>192.247598</ele>
        <time>2026-06-18T19:31:41.954Z</time>
      </trkpt>
      <trkpt lat="48.027350" lon="7.685562">
        <ele>192.199144</ele>
        <time>2026-06-18T19:31:50.536Z</time>
      </trkpt>
      <trkpt lat="48.027651" lon="7.685634">
        <ele>192.170297</ele>
        <time>2026-06-18T19:31:55.584Z</time>
      </trkpt>
      <trkpt lat="48.028550" lon="7.686001">
        <ele>192.075698</ele>
        <time>2026-06-18T19:32:11.243Z</time>
      </trkpt>
      <trkpt lat="48.028737" lon="7.686058">
        <ele>192.050163</ele>
        <time>2026-06-18T19:32:14.426Z</time>
      </trkpt>
      <trkpt lat="48.029009" lon="7.686076">
        <ele>192.013735</ele>
        <time>2026-06-18T19:32:19.013Z</time>
      </trkpt>
      <trkpt lat="48.029376" lon="7.686077">
        <ele>191.964631</ele>
        <time>2026-06-18T19:32:25.207Z</time>
      </trkpt>
      <trkpt lat="48.029922" lon="7.685975">
        <ele>191.891010</ele>
        <time>2026-06-18T19:32:34.396Z</time>
      </trkpt>
      <trkpt lat="48.030359" lon="7.685946">
        <ele>191.806364</ele>
        <time>2026-06-18T19:32:41.684Z</time>
      </trkpt>
      <trkpt lat="48.030639" lon="7.685985">
        <ele>191.728556</ele>
        <time>2026-06-18T19:32:46.337Z</time>
      </trkpt>
      <trkpt lat="48.030746" lon="7.684637">
        <ele>191.477383</ele>
        <time>2026-06-18T19:33:01.237Z</time>
      </trkpt>
      <trkpt lat="48.031683" lon="7.685010">
        <ele>191.087464</ele>
        <time>2026-06-18T19:33:30.776Z</time>
      </trkpt>
      <trkpt lat="48.031835" lon="7.685108">
        <ele>191.004571</ele>
        <time>2026-06-18T19:33:35.725Z</time>
      </trkpt>
      <trkpt lat="48.032957" lon="7.686216">
        <ele>190.407544</ele>
        <time>2026-06-18T19:34:16.495Z</time>
      </trkpt>
      <trkpt lat="48.033099" lon="7.686416">
        <ele>190.368415</ele>
        <time>2026-06-18T19:34:22.587Z</time>
      </trkpt>
      <trkpt lat="48.034076" lon="7.688248">
        <ele>190.086978</ele>
        <time>2026-06-18T19:35:12.084Z</time>
      </trkpt>
      <trkpt lat="48.034455" lon="7.688704">
        <ele>190.062904</ele>
        <time>2026-06-18T19:35:27.222Z</time>
      </trkpt>
      <trkpt lat="48.035686" lon="7.690113">
        <ele>190.023610</ele>
        <time>2026-06-18T19:36:16.296Z</time>
      </trkpt>
      <trkpt lat="48.036210" lon="7.690628">
        <ele>190.044094</ele>
        <time>2026-06-18T19:36:36.620Z</time>
      </trkpt>
      <trkpt lat="48.037045" lon="7.691200">
        <ele>190.043980</ele>
        <time>2026-06-18T19:37:05.891Z</time>
      </trkpt>
      <trkpt lat="48.038269" lon="7.691881">
        <ele>189.892261</ele>
        <time>2026-06-18T19:37:46.597Z</time>
      </trkpt>
      <trkpt lat="48.041400" lon="7.693812">
        <ele>190.055143</ele>
        <time>2026-06-18T19:38:54.998Z</time>
      </trkpt>
      <trkpt lat="48.041423" lon="7.693773">
        <ele>190.057022</ele>
        <time>2026-06-18T19:38:55.584Z</time>
      </trkpt>
      <trkpt lat="48.041477" lon="7.693682">
        <ele>190.061416</ele>
        <time>2026-06-18T19:38:57.225Z</time>
      </trkpt>
      <trkpt lat="48.041870" lon="7.693039">
        <ele>190.068335</ele>
        <time>2026-06-18T19:39:07.145Z</time>
      </trkpt>
      <trkpt lat="48.042505" lon="7.691912">
        <ele>189.999228</ele>
        <time>2026-06-18T19:39:23.732Z</time>
      </trkpt>
      <trkpt lat="48.043036" lon="7.690970">
        <ele>189.970721</ele>
        <time>2026-06-18T19:39:37.714Z</time>
      </trkpt>
      <trkpt lat="48.044259" lon="7.689083">
        <ele>190.097744</ele>
        <time>2026-06-18T19:40:08.658Z</time>
      </trkpt>
      <trkpt lat="48.044875" lon="7.688322">
        <ele>190.169769</ele>
        <time>2026-06-18T19:40:22.646Z</time>
      </trkpt>
      <trkpt lat="48.044897" lon="7.688304">
        <ele>190.172030</ele>
        <time>2026-06-18T19:40:23.069Z</time>
      </trkpt>
      <trkpt lat="48.044977" lon="7.688250">
        <ele>190.179942</ele>
        <time>2026-06-18T19:40:24.827Z</time>
      </trkpt>
      <trkpt lat="48.045117" lon="7.688187">
        <ele>190.193122</ele>
        <time>2026-06-18T19:40:27.391Z</time>
      </trkpt>
      <trkpt lat="48.046343" lon="7.687382">
        <ele>190.340170</ele>
        <time>2026-06-18T19:40:50.579Z</time>
      </trkpt>
      <trkpt lat="48.046367" lon="7.687457">
        <ele>190.347095</ele>
        <time>2026-06-18T19:40:51.589Z</time>
      </trkpt>
      <trkpt lat="48.046838" lon="7.687131">
        <ele>190.411755</ele>
        <time>2026-06-18T19:41:00.987Z</time>
      </trkpt>
      <trkpt lat="48.048004" lon="7.686323">
        <ele>190.454967</ele>
        <time>2026-06-18T19:41:23.732Z</time>
      </trkpt>
      <trkpt lat="48.048516" lon="7.685997">
        <ele>190.445537</ele>
        <time>2026-06-18T19:41:33.071Z</time>
      </trkpt>
      <trkpt lat="48.048570" lon="7.685915">
        <ele>190.444233</ele>
        <time>2026-06-18T19:41:34.365Z</time>
      </trkpt>
      <trkpt lat="48.048609" lon="7.685214">
        <ele>190.441030</ele>
        <time>2026-06-18T19:41:42.232Z</time>
      </trkpt>
      <trkpt lat="48.048673" lon="7.684956">
        <ele>190.444613</ele>
        <time>2026-06-18T19:41:45.266Z</time>
      </trkpt>
      <trkpt lat="48.048732" lon="7.684814">
        <ele>190.446789</ele>
        <time>2026-06-18T19:41:47.105Z</time>
      </trkpt>
      <trkpt lat="48.048956" lon="7.684486">
        <ele>190.452894</ele>
        <time>2026-06-18T19:41:52.406Z</time>
      </trkpt>
      <trkpt lat="48.049042" lon="7.684389">
        <ele>190.454991</ele>
        <time>2026-06-18T19:41:54.248Z</time>
      </trkpt>
      <trkpt lat="48.049356" lon="7.684073">
        <ele>190.462361</ele>
        <time>2026-06-18T19:42:00.847Z</time>
      </trkpt>
      <trkpt lat="48.049595" lon="7.683915">
        <ele>190.467450</ele>
        <time>2026-06-18T19:42:05.600Z</time>
      </trkpt>
      <trkpt lat="48.049550" lon="7.683777">
        <ele>190.469449</ele>
        <time>2026-06-18T19:42:07.526Z</time>
      </trkpt>
      <trkpt lat="48.049225" lon="7.683176">
        <ele>190.411324</ele>
        <time>2026-06-18T19:42:21.513Z</time>
      </trkpt>
      <trkpt lat="48.048856" lon="7.682522">
        <ele>190.295912</ele>
        <time>2026-06-18T19:42:31.380Z</time>
      </trkpt>
      <trkpt lat="48.048381" lon="7.681731">
        <ele>190.152519</ele>
        <time>2026-06-18T19:42:42.750Z</time>
      </trkpt>
      <trkpt lat="48.048106" lon="7.681260">
        <ele>190.027185</ele>
        <time>2026-06-18T19:42:49.185Z</time>
      </trkpt>
      <trkpt lat="48.047955" lon="7.680921">
        <ele>189.919224</ele>
        <time>2026-06-18T19:42:53.376Z</time>
      </trkpt>
      <trkpt lat="48.047668" lon="7.680459">
        <ele>189.752077</ele>
        <time>2026-06-18T19:42:59.970Z</time>
      </trkpt>
      <trkpt lat="48.046542" lon="7.678467">
        <ele>189.415328</ele>
        <time>2026-06-18T19:43:32.653Z</time>
      </trkpt>
      <trkpt lat="48.045809" lon="7.677222">
        <ele>189.489593</ele>
        <time>2026-06-18T19:43:54.768Z</time>
      </trkpt>
      <trkpt lat="48.045739" lon="7.677039">
        <ele>189.537512</ele>
        <time>2026-06-18T19:43:57.661Z</time>
      </trkpt>
      <trkpt lat="48.045647" lon="7.676448">
        <ele>189.675429</ele>
        <time>2026-06-18T19:44:06.074Z</time>
      </trkpt>
      <trkpt lat="48.045385" lon="7.675395">
        <ele>189.930794</ele>
        <time>2026-06-18T19:44:21.916Z</time>
      </trkpt>
      <trkpt lat="48.045355" lon="7.675140">
        <ele>189.989642</ele>
        <time>2026-06-18T19:44:25.612Z</time>
      </trkpt>
      <trkpt lat="48.045357" lon="7.675102">
        <ele>189.998305</ele>
        <time>2026-06-18T19:44:26.171Z</time>
      </trkpt>
      <trkpt lat="48.046054" lon="7.674840">
        <ele>190.151325</ele>
        <time>2026-06-18T19:44:41.227Z</time>
      </trkpt>
      <trkpt lat="48.046112" lon="7.674789">
        <ele>190.163544</ele>
        <time>2026-06-18T19:44:42.600Z</time>
      </trkpt>
      <trkpt lat="48.046228" lon="7.674003">
        <ele>190.261276</ele>
        <time>2026-06-18T19:44:52.151Z</time>
      </trkpt>
      <trkpt lat="48.046188" lon="7.672604">
        <ele>190.503853</ele>
        <time>2026-06-18T19:45:07.949Z</time>
      </trkpt>
      <trkpt lat="48.046136" lon="7.672355">
        <ele>190.575136</ele>
        <time>2026-06-18T19:45:10.954Z</time>
      </trkpt>
      <trkpt lat="48.045859" lon="7.671640">
        <ele>190.800947</ele>
        <time>2026-06-18T19:45:21.166Z</time>
      </trkpt>
      <trkpt lat="48.045814" lon="7.671452">
        <ele>190.855512</ele>
        <time>2026-06-18T19:45:23.794Z</time>
      </trkpt>
      <trkpt lat="48.046239" lon="7.670123">
        <ele>191.460943</ele>
        <time>2026-06-18T19:45:44.112Z</time>
      </trkpt>
      <trkpt lat="48.046218" lon="7.668673">
        <ele>192.394544</ele>
        <time>2026-06-18T19:46:04.449Z</time>
      </trkpt>
      <trkpt lat="48.046164" lon="7.668096">
        <ele>192.769588</ele>
        <time>2026-06-18T19:46:13.020Z</time>
      </trkpt>
      <trkpt lat="48.047213" lon="7.667945">
        <ele>194.823464</ele>
        <time>2026-06-18T19:46:38.781Z</time>
      </trkpt>
      <trkpt lat="48.047208" lon="7.667856">
        <ele>194.944241</ele>
        <time>2026-06-18T19:46:40.388Z</time>
      </trkpt>
      <trkpt lat="48.048842" lon="7.667538">
        <ele>200.258852</ele>
        <time>2026-06-18T19:47:28.169Z</time>
      </trkpt>
      <trkpt lat="48.049110" lon="7.667518">
        <ele>201.399569</ele>
        <time>2026-06-18T19:47:37.908Z</time>
      </trkpt>
      <trkpt lat="48.049782" lon="7.667470">
        <ele>204.409191</ele>
        <time>2026-06-18T19:48:07.013Z</time>
      </trkpt>
      <trkpt lat="48.049981" lon="7.666482">
        <ele>210.598257</ele>
        <time>2026-06-18T19:48:52.567Z</time>
      </trkpt>
      <trkpt lat="48.050045" lon="7.666289">
        <ele>211.890448</ele>
        <time>2026-06-18T19:49:03.253Z</time>
      </trkpt>
      <trkpt lat="48.050320" lon="7.665945">
        <ele>215.106836</ele>
        <time>2026-06-18T19:49:32.349Z</time>
      </trkpt>
      <trkpt lat="48.050375" lon="7.665828">
        <ele>215.964725</ele>
        <time>2026-06-18T19:49:40.143Z</time>
      </trkpt>
      <trkpt lat="48.050437" lon="7.665662">
        <ele>217.105232</ele>
        <time>2026-06-18T19:49:50.518Z</time>
      </trkpt>
      <trkpt lat="48.050562" lon="7.665380">
        <ele>219.134679</ele>
        <time>2026-06-18T19:50:08.028Z</time>
      </trkpt>
      <trkpt lat="48.050729" lon="7.665034">
        <ele>221.560181</ele>
        <time>2026-06-18T19:50:29.686Z</time>
      </trkpt>
      <trkpt lat="48.050860" lon="7.664574">
        <ele>224.278041</ele>
        <time>2026-06-18T19:50:55.653Z</time>
      </trkpt>
      <trkpt lat="48.050869" lon="7.664518">
        <ele>224.591112</ele>
        <time>2026-06-18T19:50:58.661Z</time>
      </trkpt>
      <trkpt lat="48.050800" lon="7.664395">
        <ele>225.463931</ele>
        <time>2026-06-18T19:51:05.965Z</time>
      </trkpt>
      <trkpt lat="48.050744" lon="7.664264">
        <ele>226.309156</ele>
        <time>2026-06-18T19:51:13.028Z</time>
      </trkpt>
      <trkpt lat="48.050576" lon="7.663999">
        <ele>228.294383</ele>
        <time>2026-06-18T19:51:28.215Z</time>
      </trkpt>
      <trkpt lat="48.050406" lon="7.663431">
        <ele>231.677201</ele>
        <time>2026-06-18T19:51:49.834Z</time>
      </trkpt>
      <trkpt lat="48.050335" lon="7.662864">
        <ele>234.812862</ele>
        <time>2026-06-18T19:52:05.500Z</time>
      </trkpt>
      <trkpt lat="48.050434" lon="7.662467">
        <ele>236.041468</ele>
        <time>2026-06-18T19:52:16.630Z</time>
      </trkpt>
      <trkpt lat="48.050448" lon="7.662168">
        <ele>236.884689</ele>
        <time>2026-06-18T19:52:24.804Z</time>
      </trkpt>
      <trkpt lat="48.050823" lon="7.662470">
        <ele>238.677013</ele>
        <time>2026-06-18T19:52:40.760Z</time>
      </trkpt>
      <trkpt lat="48.051263" lon="7.662724">
        <ele>240.661816</ele>
        <time>2026-06-18T19:52:56.676Z</time>
      </trkpt>
      <trkpt lat="48.051615" lon="7.663039">
        <ele>242.388007</ele>
        <time>2026-06-18T19:53:11.870Z</time>
      </trkpt>
      <trkpt lat="48.051667" lon="7.663109">
        <ele>242.679969</ele>
        <time>2026-06-18T19:53:14.605Z</time>
      </trkpt>
      <trkpt lat="48.051875" lon="7.663447">
        <ele>243.958368</ele>
        <time>2026-06-18T19:53:26.885Z</time>
      </trkpt>
      <trkpt lat="48.052024" lon="7.663787">
        <ele>245.089653</ele>
        <time>2026-06-18T19:53:37.814Z</time>
      </trkpt>
      <trkpt lat="48.052209" lon="7.663995">
        <ele>246.053014</ele>
        <time>2026-06-18T19:53:47.049Z</time>
      </trkpt>
      <trkpt lat="48.052301" lon="7.664012">
        <ele>246.438899</ele>
        <time>2026-06-18T19:53:50.768Z</time>
      </trkpt>
      <trkpt lat="48.052857" lon="7.664219">
        <ele>248.823993</ele>
        <time>2026-06-18T19:54:12.523Z</time>
      </trkpt>
      <trkpt lat="48.053619" lon="7.664764">
        <ele>252.090094</ele>
        <time>2026-06-18T19:54:42.059Z</time>
      </trkpt>
      <trkpt lat="48.053662" lon="7.664789">
        <ele>252.262100</ele>
        <time>2026-06-18T19:54:43.643Z</time>
      </trkpt>
      <trkpt lat="48.054261" lon="7.665234">
        <ele>254.755673</ele>
        <time>2026-06-18T19:55:06.375Z</time>
      </trkpt>
      <trkpt lat="48.055280" lon="7.665810">
        <ele>260.569035</ele>
        <time>2026-06-18T19:55:48.033Z</time>
      </trkpt>
      <trkpt lat="48.055573" lon="7.666011">
        <ele>262.743144</ele>
        <time>2026-06-18T19:56:03.462Z</time>
      </trkpt>
      <trkpt lat="48.056005" lon="7.666256">
        <ele>265.859267</ele>
        <time>2026-06-18T19:56:28.143Z</time>
      </trkpt>
      <trkpt lat="48.056190" lon="7.666324">
        <ele>267.144181</ele>
        <time>2026-06-18T19:56:39.283Z</time>
      </trkpt>
      <trkpt lat="48.056539" lon="7.666364">
        <ele>269.783752</ele>
        <time>2026-06-18T19:57:00.998Z</time>
      </trkpt>
      <trkpt lat="48.056770" lon="7.666426">
        <ele>271.978012</ele>
        <time>2026-06-18T19:57:16.143Z</time>
      </trkpt>
      <trkpt lat="48.056941" lon="7.666511">
        <ele>273.662743</ele>
        <time>2026-06-18T19:57:28.000Z</time>
      </trkpt>
      <trkpt lat="48.057024" lon="7.666537">
        <ele>274.455595</ele>
        <time>2026-06-18T19:57:33.674Z</time>
      </trkpt>
      <trkpt lat="48.058048" lon="7.667237">
        <ele>284.981701</ele>
        <time>2026-06-18T19:58:44.087Z</time>
      </trkpt>
      <trkpt lat="48.058547" lon="7.667637">
        <ele>289.585631</ele>
        <time>2026-06-18T19:59:15.204Z</time>
      </trkpt>
      <trkpt lat="48.059602" lon="7.668205">
        <ele>298.523582</ele>
        <time>2026-06-18T20:00:15.914Z</time>
      </trkpt>
      <trkpt lat="48.060248" lon="7.668490">
        <ele>302.958059</ele>
        <time>2026-06-18T20:01:02.268Z</time>
      </trkpt>
      <trkpt lat="48.060651" lon="7.668567">
        <ele>305.431419</ele>
        <time>2026-06-18T20:01:28.947Z</time>
      </trkpt>
      <trkpt lat="48.061199" lon="7.668672">
        <ele>308.794848</ele>
        <time>2026-06-18T20:02:02.128Z</time>
      </trkpt>
      <trkpt lat="48.061540" lon="7.668757">
        <ele>310.890651</ele>
        <time>2026-06-18T20:02:20.342Z</time>
      </trkpt>
      <trkpt lat="48.061987" lon="7.668921">
        <ele>311.498147</ele>
        <time>2026-06-18T20:02:42.615Z</time>
      </trkpt>
      <trkpt lat="48.062726" lon="7.669004">
        <ele>312.476334</ele>
        <time>2026-06-18T20:03:09.651Z</time>
      </trkpt>
      <trkpt lat="48.062928" lon="7.669072">
        <ele>312.749629</ele>
        <time>2026-06-18T20:03:16.449Z</time>
      </trkpt>
      <trkpt lat="48.063067" lon="7.669213">
        <ele>312.971289</ele>
        <time>2026-06-18T20:03:21.982Z</time>
      </trkpt>
      <trkpt lat="48.063254" lon="7.669538">
        <ele>313.268124</ele>
        <time>2026-06-18T20:03:31.531Z</time>
      </trkpt>
      <trkpt lat="48.063537" lon="7.670124">
        <ele>313.310420</ele>
        <time>2026-06-18T20:03:47.696Z</time>
      </trkpt>
      <trkpt lat="48.064005" lon="7.670926">
        <ele>313.372706</ele>
        <time>2026-06-18T20:04:14.247Z</time>
      </trkpt>
      <trkpt lat="48.064725" lon="7.671541">
        <ele>311.859762</ele>
        <time>2026-06-18T20:04:43.021Z</time>
      </trkpt>
      <trkpt lat="48.064879" lon="7.671626">
        <ele>310.980540</ele>
        <time>2026-06-18T20:04:47.732Z</time>
      </trkpt>
      <trkpt lat="48.065042" lon="7.671787">
        <ele>309.934378</ele>
        <time>2026-06-18T20:04:52.942Z</time>
      </trkpt>
      <trkpt lat="48.065289" lon="7.672101">
        <ele>308.198338</ele>
        <time>2026-06-18T20:05:00.913Z</time>
      </trkpt>
      <trkpt lat="48.065403" lon="7.672405">
        <ele>306.950513</ele>
        <time>2026-06-18T20:05:06.434Z</time>
      </trkpt>
      <trkpt lat="48.065482" lon="7.672499">
        <ele>306.409879</ele>
        <time>2026-06-18T20:05:07.513Z</time>
      </trkpt>
      <trkpt lat="48.065588" lon="7.672727">
        <ele>305.415655</ele>
        <time>2026-06-18T20:05:09.490Z</time>
      </trkpt>
      <trkpt lat="48.065706" lon="7.672913">
        <ele>304.497614</ele>
        <time>2026-06-18T20:05:11.321Z</time>
      </trkpt>
      <trkpt lat="48.066024" lon="7.672911">
        <ele>302.749696</ele>
        <time>2026-06-18T20:05:14.793Z</time>
      </trkpt>
      <trkpt lat="48.066242" lon="7.673155">
        <ele>301.225938</ele>
        <time>2026-06-18T20:05:18.317Z</time>
      </trkpt>
      <trkpt lat="48.066557" lon="7.673602">
        <ele>298.796103</ele>
        <time>2026-06-18T20:05:23.975Z</time>
      </trkpt>
      <trkpt lat="48.066764" lon="7.673575">
        <ele>297.633087</ele>
        <time>2026-06-18T20:05:26.599Z</time>
      </trkpt>
      <trkpt lat="48.066981" lon="7.673684">
        <ele>296.351892</ele>
        <time>2026-06-18T20:05:29.620Z</time>
      </trkpt>
      <trkpt lat="48.067123" lon="7.673841">
        <ele>295.363679</ele>
        <time>2026-06-18T20:05:32.067Z</time>
      </trkpt>
      <trkpt lat="48.067612" lon="7.674718">
        <ele>294.141711</ele>
        <time>2026-06-18T20:05:45.214Z</time>
      </trkpt>
      <trkpt lat="48.067653" lon="7.674742">
        <ele>294.181457</ele>
        <time>2026-06-18T20:05:45.977Z</time>
      </trkpt>
      <trkpt lat="48.067827" lon="7.674695">
        <ele>294.341082</ele>
        <time>2026-06-18T20:05:49.151Z</time>
      </trkpt>
      <trkpt lat="48.067917" lon="7.674756">
        <ele>294.430280</ele>
        <time>2026-06-18T20:05:50.993Z</time>
      </trkpt>
      <trkpt lat="48.068226" lon="7.674682">
        <ele>294.712794</ele>
        <time>2026-06-18T20:05:57.957Z</time>
      </trkpt>
      <trkpt lat="48.068476" lon="7.674622">
        <ele>294.941377</ele>
        <time>2026-06-18T20:06:05.112Z</time>
      </trkpt>
      <trkpt lat="48.068793" lon="7.674638">
        <ele>295.227726</ele>
        <time>2026-06-18T20:06:16.169Z</time>
      </trkpt>
      <trkpt lat="48.068972" lon="7.674690">
        <ele>295.613226</ele>
        <time>2026-06-18T20:06:23.268Z</time>
      </trkpt>
      <trkpt lat="48.069252" lon="7.674888">
        <ele>297.116270</ele>
        <time>2026-06-18T20:06:35.306Z</time>
      </trkpt>
      <trkpt lat="48.069406" lon="7.675041">
        <ele>298.013417</ele>
        <time>2026-06-18T20:06:41.679Z</time>
      </trkpt>
      <trkpt lat="48.069728" lon="7.675486">
        <ele>300.140680</ele>
        <time>2026-06-18T20:06:58.054Z</time>
      </trkpt>
      <trkpt lat="48.069870" lon="7.675618">
        <ele>300.952005</ele>
        <time>2026-06-18T20:07:04.924Z</time>
      </trkpt>
      <trkpt lat="48.070078" lon="7.675746">
        <ele>302.043539</ele>
        <time>2026-06-18T20:07:14.704Z</time>
      </trkpt>
      <trkpt lat="48.070360" lon="7.675814">
        <ele>303.429859</ele>
        <time>2026-06-18T20:07:27.921Z</time>
      </trkpt>
      <trkpt lat="48.070770" lon="7.675795">
        <ele>306.276031</ele>
        <time>2026-06-18T20:07:48.324Z</time>
      </trkpt>
      <trkpt lat="48.070946" lon="7.675765">
        <ele>307.680746</ele>
        <time>2026-06-18T20:07:57.763Z</time>
      </trkpt>
      <trkpt lat="48.071492" lon="7.675807">
        <ele>312.016276</ele>
        <time>2026-06-18T20:08:27.684Z</time>
      </trkpt>
      <trkpt lat="48.073430" lon="7.676115">
        <ele>329.281784</ele>
        <time>2026-06-18T20:10:22.809Z</time>
      </trkpt>
      <trkpt lat="48.074023" lon="7.676163">
        <ele>334.924489</ele>
        <time>2026-06-18T20:11:01.153Z</time>
      </trkpt>
      <trkpt lat="48.074214" lon="7.676057">
        <ele>337.426924</ele>
        <time>2026-06-18T20:11:15.107Z</time>
      </trkpt>
      <trkpt lat="48.074709" lon="7.675508">
        <ele>345.593105</ele>
        <time>2026-06-18T20:12:00.554Z</time>
      </trkpt>
      <trkpt lat="48.074882" lon="7.675098">
        <ele>349.887565</ele>
        <time>2026-06-18T20:12:26.390Z</time>
      </trkpt>
      <trkpt lat="48.075106" lon="7.674814">
        <ele>353.778712</ele>
        <time>2026-06-18T20:12:51.130Z</time>
      </trkpt>
      <trkpt lat="48.076080" lon="7.674123">
        <ele>366.138510</ele>
        <time>2026-06-18T20:14:30.329Z</time>
      </trkpt>
      <trkpt lat="48.076478" lon="7.673966">
        <ele>370.399368</ele>
        <time>2026-06-18T20:15:00.765Z</time>
      </trkpt>
      <trkpt lat="48.076782" lon="7.673663">
        <ele>374.180385</ele>
        <time>2026-06-18T20:15:20.294Z</time>
      </trkpt>
      <trkpt lat="48.076911" lon="7.673646">
        <ele>375.520979</ele>
        <time>2026-06-18T20:15:25.760Z</time>
      </trkpt>
      <trkpt lat="48.077006" lon="7.673696">
        <ele>376.563466</ele>
        <time>2026-06-18T20:15:29.551Z</time>
      </trkpt>
      <trkpt lat="48.077020" lon="7.673835">
        <ele>377.535736</ele>
        <time>2026-06-18T20:15:32.651Z</time>
      </trkpt>
      <trkpt lat="48.076999" lon="7.673967">
        <ele>377.948553</ele>
        <time>2026-06-18T20:15:35.548Z</time>
      </trkpt>
      <trkpt lat="48.076941" lon="7.674085">
        <ele>378.057970</ele>
        <time>2026-06-18T20:15:38.174Z</time>
      </trkpt>
      <trkpt lat="48.076473" lon="7.674294">
        <ele>378.603945</ele>
        <time>2026-06-18T20:15:46.993Z</time>
      </trkpt>
      <trkpt lat="48.076333" lon="7.674393">
        <ele>378.777042</ele>
        <time>2026-06-18T20:15:49.304Z</time>
      </trkpt>
      <trkpt lat="48.076273" lon="7.674479">
        <ele>378.869914</ele>
        <time>2026-06-18T20:15:50.487Z</time>
      </trkpt>
      <trkpt lat="48.076208" lon="7.674649">
        <ele>379.016212</ele>
        <time>2026-06-18T20:15:52.375Z</time>
      </trkpt>
      <trkpt lat="48.076083" lon="7.675572">
        <ele>379.719642</ele>
        <time>2026-06-18T20:16:04.365Z</time>
      </trkpt>
      <trkpt lat="48.076076" lon="7.675795">
        <ele>379.886390</ele>
        <time>2026-06-18T20:16:09.799Z</time>
      </trkpt>
      <trkpt lat="48.076128" lon="7.675985">
        <ele>380.665708</ele>
        <time>2026-06-18T20:16:15.590Z</time>
      </trkpt>
      <trkpt lat="48.076207" lon="7.676142">
        <ele>381.450143</ele>
        <time>2026-06-18T20:16:21.743Z</time>
      </trkpt>
      <trkpt lat="48.076395" lon="7.676328">
        <ele>382.796345</ele>
        <time>2026-06-18T20:16:33.334Z</time>
      </trkpt>
      <trkpt lat="48.076558" lon="7.676368">
        <ele>383.783028</ele>
        <time>2026-06-18T20:16:42.490Z</time>
      </trkpt>
      <trkpt lat="48.076970" lon="7.676350">
        <ele>386.245162</ele>
        <time>2026-06-18T20:17:06.276Z</time>
      </trkpt>
      <trkpt lat="48.077155" lon="7.676374">
        <ele>387.354404</ele>
        <time>2026-06-18T20:17:16.676Z</time>
      </trkpt>
      <trkpt lat="48.077671" lon="7.676584">
        <ele>390.548650</ele>
        <time>2026-06-18T20:17:42.204Z</time>
      </trkpt>
      <trkpt lat="48.077898" lon="7.676769">
        <ele>390.919249</ele>
        <time>2026-06-18T20:17:51.176Z</time>
      </trkpt>
      <trkpt lat="48.078025" lon="7.676919">
        <ele>391.105110</ele>
        <time>2026-06-18T20:17:55.997Z</time>
      </trkpt>
      <trkpt lat="48.078093" lon="7.677107">
        <ele>391.269202</ele>
        <time>2026-06-18T20:17:59.770Z</time>
      </trkpt>
      <trkpt lat="48.078131" lon="7.677359">
        <ele>391.467494</ele>
        <time>2026-06-18T20:18:03.650Z</time>
      </trkpt>
      <trkpt lat="48.078076" lon="7.677704">
        <ele>391.739738</ele>
        <time>2026-06-18T20:18:08.123Z</time>
      </trkpt>
      <trkpt lat="48.078079" lon="7.678052">
        <ele>392.006873</ele>
        <time>2026-06-18T20:18:11.970Z</time>
      </trkpt>
      <trkpt lat="48.078339" lon="7.678475">
        <ele>392.448052</ele>
        <time>2026-06-18T20:18:18.151Z</time>
      </trkpt>
      <trkpt lat="48.078973" lon="7.679389">
        <ele>395.549527</ele>
        <time>2026-06-18T20:18:37.806Z</time>
      </trkpt>
      <trkpt lat="48.079294" lon="7.679976">
        <ele>397.747682</ele>
        <time>2026-06-18T20:18:59.281Z</time>
      </trkpt>
      <trkpt lat="48.079456" lon="7.680172">
        <ele>398.651175</ele>
        <time>2026-06-18T20:19:10.222Z</time>
      </trkpt>
      <trkpt lat="48.079576" lon="7.680213">
        <ele>399.185045</ele>
        <time>2026-06-18T20:19:17.204Z</time>
      </trkpt>
      <trkpt lat="48.079713" lon="7.680191">
        <ele>399.782671</ele>
        <time>2026-06-18T20:19:25.457Z</time>
      </trkpt>
      <trkpt lat="48.080642" lon="7.679685">
        <ele>403.435207</ele>
        <time>2026-06-18T20:20:18.367Z</time>
      </trkpt>
      <trkpt lat="48.080724" lon="7.679673">
        <ele>403.728842</ele>
        <time>2026-06-18T20:20:21.457Z</time>
      </trkpt>
      <trkpt lat="48.081010" lon="7.679780">
        <ele>404.779481</ele>
        <time>2026-06-18T20:20:30.309Z</time>
      </trkpt>
      <trkpt lat="48.081069" lon="7.679877">
        <ele>405.091818</ele>
        <time>2026-06-18T20:20:32.268Z</time>
      </trkpt>
      <trkpt lat="48.081099" lon="7.679978">
        <ele>405.354994</ele>
        <time>2026-06-18T20:20:33.743Z</time>
      </trkpt>
      <trkpt lat="48.081116" lon="7.680035">
        <ele>405.503619</ele>
        <time>2026-06-18T20:20:34.523Z</time>
      </trkpt>
      <trkpt lat="48.081156" lon="7.680772">
        <ele>406.988969</ele>
        <time>2026-06-18T20:20:42.388Z</time>
      </trkpt>
      <trkpt lat="48.081220" lon="7.681265">
        <ele>407.234723</ele>
        <time>2026-06-18T20:20:47.263Z</time>
      </trkpt>
      <trkpt lat="48.081292" lon="7.681502">
        <ele>407.362124</ele>
        <time>2026-06-18T20:20:50.026Z</time>
      </trkpt>
      <trkpt lat="48.081394" lon="7.681677">
        <ele>407.475767</ele>
        <time>2026-06-18T20:20:52.692Z</time>
      </trkpt>
      <trkpt lat="48.081771" lon="7.681918">
        <ele>407.776030</ele>
        <time>2026-06-18T20:21:01.286Z</time>
      </trkpt>
      <trkpt lat="48.082050" lon="7.682160">
        <ele>408.012216</ele>
        <time>2026-06-18T20:21:11.418Z</time>
      </trkpt>
      <trkpt lat="48.082176" lon="7.682155">
        <ele>408.104537</ele>
        <time>2026-06-18T20:21:16.184Z</time>
      </trkpt>
      <trkpt lat="48.082340" lon="7.682095">
        <ele>408.228196</ele>
        <time>2026-06-18T20:21:22.742Z</time>
      </trkpt>
      <trkpt lat="48.082510" lon="7.682175">
        <ele>408.622198</ele>
        <time>2026-06-18T20:21:29.857Z</time>
      </trkpt>
      <trkpt lat="48.082639" lon="7.682334">
        <ele>409.005672</ele>
        <time>2026-06-18T20:21:36.602Z</time>
      </trkpt>
      <trkpt lat="48.082711" lon="7.682700">
        <ele>409.590596</ele>
        <time>2026-06-18T20:21:46.755Z</time>
      </trkpt>
      <trkpt lat="48.082746" lon="7.682786">
        <ele>409.744978</ele>
        <time>2026-06-18T20:21:49.112Z</time>
      </trkpt>
      <trkpt lat="48.082854" lon="7.682879">
        <ele>410.030902</ele>
        <time>2026-06-18T20:21:53.465Z</time>
      </trkpt>
      <trkpt lat="48.083133" lon="7.682924">
        <ele>410.674861</ele>
        <time>2026-06-18T20:22:01.676Z</time>
      </trkpt>
      <trkpt lat="48.083233" lon="7.682977">
        <ele>410.918302</ele>
        <time>2026-06-18T20:22:03.990Z</time>
      </trkpt>
      <trkpt lat="48.083302" lon="7.683111">
        <ele>411.177673</ele>
        <time>2026-06-18T20:22:06.423Z</time>
      </trkpt>
      <trkpt lat="48.083318" lon="7.683213">
        <ele>411.338297</ele>
        <time>2026-06-18T20:22:08.044Z</time>
      </trkpt>
      <trkpt lat="48.083306" lon="7.683440">
        <ele>411.687387</ele>
        <time>2026-06-18T20:22:11.467Z</time>
      </trkpt>
      <trkpt lat="48.083249" lon="7.683714">
        <ele>412.127337</ele>
        <time>2026-06-18T20:22:15.528Z</time>
      </trkpt>
      <trkpt lat="48.083216" lon="7.684208">
        <ele>412.261014</ele>
        <time>2026-06-18T20:22:22.145Z</time>
      </trkpt>
      <trkpt lat="48.083123" lon="7.684683">
        <ele>412.114155</ele>
        <time>2026-06-18T20:22:29.043Z</time>
      </trkpt>
      <trkpt lat="48.083148" lon="7.685296">
        <ele>411.931942</ele>
        <time>2026-06-18T20:22:37.276Z</time>
      </trkpt>
      <trkpt lat="48.083104" lon="7.685819">
        <ele>411.775544</ele>
        <time>2026-06-18T20:22:44.036Z</time>
      </trkpt>
      <trkpt lat="48.083111" lon="7.685948">
        <ele>411.737144</ele>
        <time>2026-06-18T20:22:45.617Z</time>
      </trkpt>
      <trkpt lat="48.083134" lon="7.686001">
        <ele>411.718392</ele>
        <time>2026-06-18T20:22:46.370Z</time>
      </trkpt>
      <trkpt lat="48.083201" lon="7.686121">
        <ele>411.671992</ele>
        <time>2026-06-18T20:22:48.169Z</time>
      </trkpt>
      <trkpt lat="48.083317" lon="7.686207">
        <ele>411.614501</ele>
        <time>2026-06-18T20:22:50.286Z</time>
      </trkpt>
      <trkpt lat="48.083822" lon="7.686182">
        <ele>409.311318</ele>
        <time>2026-06-18T20:22:57.791Z</time>
      </trkpt>
      <trkpt lat="48.083974" lon="7.686211">
        <ele>408.429483</ele>
        <time>2026-06-18T20:22:59.880Z</time>
      </trkpt>
      <trkpt lat="48.084200" lon="7.686362">
        <ele>407.005177</ele>
        <time>2026-06-18T20:23:03.138Z</time>
      </trkpt>
      <trkpt lat="48.084387" lon="7.686555">
        <ele>405.697994</ele>
        <time>2026-06-18T20:23:06.051Z</time>
      </trkpt>
      <trkpt lat="48.084976" lon="7.687576">
        <ele>400.130161</ele>
        <time>2026-06-18T20:23:17.250Z</time>
      </trkpt>
      <trkpt lat="48.085223" lon="7.687929">
        <ele>397.095282</ele>
        <time>2026-06-18T20:23:21.340Z</time>
      </trkpt>
      <trkpt lat="48.085368" lon="7.688144">
        <ele>395.281502</ele>
        <time>2026-06-18T20:23:23.766Z</time>
      </trkpt>
      <trkpt lat="48.085578" lon="7.688544">
        <ele>392.261186</ele>
        <time>2026-06-18T20:23:27.839Z</time>
      </trkpt>
      <trkpt lat="48.085598" lon="7.688538">
        <ele>392.079910</ele>
        <time>2026-06-18T20:23:28.092Z</time>
      </trkpt>
      <trkpt lat="48.085639" lon="7.688541">
        <ele>391.715103</ele>
        <time>2026-06-18T20:23:28.590Z</time>
      </trkpt>
      <trkpt lat="48.085598" lon="7.688538">
        <ele>391.350296</ele>
        <time>2026-06-18T20:23:29.084Z</time>
      </trkpt>
      <trkpt lat="48.085578" lon="7.688544">
        <ele>391.169020</ele>
        <time>2026-06-18T20:23:29.334Z</time>
      </trkpt>
      <trkpt lat="48.085553" lon="7.688597">
        <ele>390.783836</ele>
        <time>2026-06-18T20:23:30.340Z</time>
      </trkpt>
      <trkpt lat="48.085530" lon="7.688806">
        <ele>389.526327</ele>
        <time>2026-06-18T20:23:33.681Z</time>
      </trkpt>
      <trkpt lat="48.085553" lon="7.689201">
        <ele>387.172410</ele>
        <time>2026-06-18T20:23:39.952Z</time>
      </trkpt>
      <trkpt lat="48.085671" lon="7.689516">
        <ele>385.076296</ele>
        <time>2026-06-18T20:23:45.669Z</time>
      </trkpt>
      <trkpt lat="48.085779" lon="7.689792">
        <ele>383.633221</ele>
        <time>2026-06-18T20:23:50.783Z</time>
      </trkpt>
      <trkpt lat="48.085807" lon="7.690145">
        <ele>382.029473</ele>
        <time>2026-06-18T20:23:56.424Z</time>
      </trkpt>
      <trkpt lat="48.085958" lon="7.691146">
        <ele>377.399758</ele>
        <time>2026-06-18T20:24:13.143Z</time>
      </trkpt>
      <trkpt lat="48.085970" lon="7.691466">
        <ele>375.953809</ele>
        <time>2026-06-18T20:24:18.495Z</time>
      </trkpt>
      <trkpt lat="48.085912" lon="7.691544">
        <ele>375.427250</ele>
        <time>2026-06-18T20:24:19.500Z</time>
      </trkpt>
      <trkpt lat="48.085810" lon="7.691606">
        <ele>374.683762</ele>
        <time>2026-06-18T20:24:20.954Z</time>
      </trkpt>
      <trkpt lat="48.085777" lon="7.691620">
        <ele>374.452118</ele>
        <time>2026-06-18T20:24:21.414Z</time>
      </trkpt>
      <trkpt lat="48.085699" lon="7.691656">
        <ele>373.900870</ele>
        <time>2026-06-18T20:24:22.533Z</time>
      </trkpt>
      <trkpt lat="48.085531" lon="7.691779">
        <ele>372.748512</ele>
        <time>2026-06-18T20:24:25.054Z</time>
      </trkpt>
      <trkpt lat="48.085304" lon="7.692090">
        <ele>371.189605</ele>
        <time>2026-06-18T20:24:29.158Z</time>
      </trkpt>
      <trkpt lat="48.085258" lon="7.692225">
        <ele>370.676736</ele>
        <time>2026-06-18T20:24:30.487Z</time>
      </trkpt>
      <trkpt lat="48.085315" lon="7.692348">
        <ele>370.170125</ele>
        <time>2026-06-18T20:24:31.806Z</time>
      </trkpt>
      <trkpt lat="48.085578" lon="7.692149">
        <ele>368.677233</ele>
        <time>2026-06-18T20:24:35.643Z</time>
      </trkpt>
      <trkpt lat="48.085737" lon="7.692069">
        <ele>367.827456</ele>
        <time>2026-06-18T20:24:37.908Z</time>
      </trkpt>
      <trkpt lat="48.085851" lon="7.692053">
        <ele>367.247399</ele>
        <time>2026-06-18T20:24:39.497Z</time>
      </trkpt>
      <trkpt lat="48.086217" lon="7.692204">
        <ele>365.324112</ele>
        <time>2026-06-18T20:24:44.875Z</time>
      </trkpt>
      <trkpt lat="48.086294" lon="7.692266">
        <ele>364.881181</ele>
        <time>2026-06-18T20:24:47.215Z</time>
      </trkpt>
      <trkpt lat="48.086348" lon="7.692269">
        <ele>364.607428</ele>
        <time>2026-06-18T20:24:48.702Z</time>
      </trkpt>
      <trkpt lat="48.086215" lon="7.692323">
        <ele>363.879485</ele>
        <time>2026-06-18T20:24:50.334Z</time>
      </trkpt>
      <trkpt lat="48.086106" lon="7.692323">
        <ele>363.050562</ele>
        <time>2026-06-18T20:24:51.556Z</time>
      </trkpt>
      <trkpt lat="48.085946" lon="7.692328">
        <ele>361.833528</ele>
        <time>2026-06-18T20:24:53.334Z</time>
      </trkpt>
      <trkpt lat="48.085814" lon="7.692372">
        <ele>360.805109</ele>
        <time>2026-06-18T20:24:54.806Z</time>
      </trkpt>
      <trkpt lat="48.085616" lon="7.692570">
        <ele>358.994291</ele>
        <time>2026-06-18T20:24:57.352Z</time>
      </trkpt>
      <trkpt lat="48.085487" lon="7.692748">
        <ele>357.660087</ele>
        <time>2026-06-18T20:24:59.201Z</time>
      </trkpt>
      <trkpt lat="48.085347" lon="7.693030">
        <ele>355.875179</ele>
        <time>2026-06-18T20:25:01.643Z</time>
      </trkpt>
      <trkpt lat="48.085334" lon="7.693104">
        <ele>355.486463</ele>
        <time>2026-06-18T20:25:02.276Z</time>
      </trkpt>
      <trkpt lat="48.085335" lon="7.693162">
        <ele>355.191714</ele>
        <time>2026-06-18T20:25:02.750Z</time>
      </trkpt>
      <trkpt lat="48.085374" lon="7.693215">
        <ele>354.791140</ele>
        <time>2026-06-18T20:25:03.408Z</time>
      </trkpt>
      <trkpt lat="48.085480" lon="7.693242">
        <ele>353.973445</ele>
        <time>2026-06-18T20:25:04.763Z</time>
      </trkpt>
      <trkpt lat="48.085622" lon="7.693253">
        <ele>352.892118</ele>
        <time>2026-06-18T20:25:06.599Z</time>
      </trkpt>
      <trkpt lat="48.085740" lon="7.693314">
        <ele>351.942750</ele>
        <time>2026-06-18T20:25:08.232Z</time>
      </trkpt>
      <trkpt lat="48.085781" lon="7.693358">
        <ele>351.559108</ele>
        <time>2026-06-18T20:25:08.908Z</time>
      </trkpt>
      <trkpt lat="48.085821" lon="7.693548">
        <ele>350.547083</ele>
        <time>2026-06-18T20:25:10.763Z</time>
      </trkpt>
      <trkpt lat="48.085885" lon="7.693849">
        <ele>349.344139</ele>
        <time>2026-06-18T20:25:13.648Z</time>
      </trkpt>
      <trkpt lat="48.085915" lon="7.694086">
        <ele>348.483923</ele>
        <time>2026-06-18T20:25:15.470Z</time>
      </trkpt>
      <trkpt lat="48.085936" lon="7.694154">
        <ele>348.216766</ele>
        <time>2026-06-18T20:25:16.043Z</time>
      </trkpt>
      <trkpt lat="48.086002" lon="7.694252">
        <ele>347.720503</ele>
        <time>2026-06-18T20:25:17.084Z</time>
      </trkpt>
      <trkpt lat="48.086133" lon="7.694279">
        <ele>347.014573</ele>
        <time>2026-06-18T20:25:18.622Z</time>
      </trkpt>
      <trkpt lat="48.086198" lon="7.694293">
        <ele>346.664003</ele>
        <time>2026-06-18T20:25:19.360Z</time>
      </trkpt>
      <trkpt lat="48.086257" lon="7.694325">
        <ele>346.329001</ele>
        <time>2026-06-18T20:25:20.074Z</time>
      </trkpt>
      <trkpt lat="48.086302" lon="7.694383">
        <ele>346.011999</ele>
        <time>2026-06-18T20:25:20.735Z</time>
      </trkpt>
      <trkpt lat="48.086366" lon="7.694463">
        <ele>345.566892</ele>
        <time>2026-06-18T20:25:21.686Z</time>
      </trkpt>
      <trkpt lat="48.086443" lon="7.694534">
        <ele>345.084113</ele>
        <time>2026-06-18T20:25:22.707Z</time>
      </trkpt>
      <trkpt lat="48.086468" lon="7.694665">
        <ele>344.598263</ele>
        <time>2026-06-18T20:25:23.753Z</time>
      </trkpt>
      <trkpt lat="48.086396" lon="7.694881">
        <ele>343.737410</ele>
        <time>2026-06-18T20:25:27.595Z</time>
      </trkpt>
      <trkpt lat="48.086303" lon="7.695019">
        <ele>343.038361</ele>
        <time>2026-06-18T20:25:30.775Z</time>
      </trkpt>
      <trkpt lat="48.086174" lon="7.695126">
        <ele>342.251058</ele>
        <time>2026-06-18T20:25:34.434Z</time>
      </trkpt>
      <trkpt lat="48.085873" lon="7.695459">
        <ele>340.498087</ele>
        <time>2026-06-18T20:25:43.821Z</time>
      </trkpt>
      <trkpt lat="48.085728" lon="7.695584">
        <ele>340.107432</ele>
        <time>2026-06-18T20:25:47.980Z</time>
      </trkpt>
      <trkpt lat="48.085444" lon="7.695678">
        <ele>339.428360</ele>
        <time>2026-06-18T20:25:55.128Z</time>
      </trkpt>
      <trkpt lat="48.085205" lon="7.695801">
        <ele>338.838308</ele>
        <time>2026-06-18T20:26:02.306Z</time>
      </trkpt>
      <trkpt lat="48.085081" lon="7.695938">
        <ele>338.478491</ele>
        <time>2026-06-18T20:26:06.737Z</time>
      </trkpt>
      <trkpt lat="48.085040" lon="7.696055">
        <ele>338.272429</ele>
        <time>2026-06-18T20:26:09.260Z</time>
      </trkpt>
      <trkpt lat="48.085000" lon="7.696168">
        <ele>338.072974</ele>
        <time>2026-06-18T20:26:11.750Z</time>
      </trkpt>
      <trkpt lat="48.085003" lon="7.696747">
        <ele>337.169909</ele>
        <time>2026-06-18T20:26:23.048Z</time>
      </trkpt>
      <trkpt lat="48.084965" lon="7.697012">
        <ele>336.747187</ele>
        <time>2026-06-18T20:26:28.306Z</time>
      </trkpt>
      <trkpt lat="48.084801" lon="7.697156">
        <ele>336.161230</ele>
        <time>2026-06-18T20:26:33.513Z</time>
      </trkpt>
      <trkpt lat="48.084274" lon="7.697292">
        <ele>333.959041</ele>
        <time>2026-06-18T20:26:48.077Z</time>
      </trkpt>
      <trkpt lat="48.084019" lon="7.697426">
        <ele>332.846133</ele>
        <time>2026-06-18T20:26:55.008Z</time>
      </trkpt>
      <trkpt lat="48.083704" lon="7.697670">
        <ele>331.385586</ele>
        <time>2026-06-18T20:27:03.219Z</time>
      </trkpt>
      <trkpt lat="48.083227" lon="7.697931">
        <ele>329.294193</ele>
        <time>2026-06-18T20:27:15.003Z</time>
      </trkpt>
      <trkpt lat="48.083062" lon="7.698095">
        <ele>328.150493</ele>
        <time>2026-06-18T20:27:19.640Z</time>
      </trkpt>
      <trkpt lat="48.082814" lon="7.698582">
        <ele>325.550696</ele>
        <time>2026-06-18T20:27:29.628Z</time>
      </trkpt>
      <trkpt lat="48.082780" lon="7.698667">
        <ele>325.130080</ele>
        <time>2026-06-18T20:27:31.321Z</time>
      </trkpt>
      <trkpt lat="48.082756" lon="7.698693">
        <ele>324.941803</ele>
        <time>2026-06-18T20:27:32.036Z</time>
      </trkpt>
      <trkpt lat="48.082680" lon="7.699073">
        <ele>323.257733</ele>
        <time>2026-06-18T20:27:38.564Z</time>
      </trkpt>
      <trkpt lat="48.082670" lon="7.699226">
        <ele>322.605056</ele>
        <time>2026-06-18T20:27:40.993Z</time>
      </trkpt>
      <trkpt lat="48.082664" lon="7.699306">
        <ele>322.263275</ele>
        <time>2026-06-18T20:27:42.253Z</time>
      </trkpt>
      <trkpt lat="48.082629" lon="7.699558">
        <ele>321.170508</ele>
        <time>2026-06-18T20:27:46.171Z</time>
      </trkpt>
      <trkpt lat="48.082542" lon="7.699981">
        <ele>319.291437</ele>
        <time>2026-06-18T20:27:52.781Z</time>
      </trkpt>
      <trkpt lat="48.082480" lon="7.700162">
        <ele>318.427856</ele>
        <time>2026-06-18T20:27:55.750Z</time>
      </trkpt>
      <trkpt lat="48.082303" lon="7.700495">
        <ele>316.591763</ele>
        <time>2026-06-18T20:28:01.893Z</time>
      </trkpt>
      <trkpt lat="48.082248" lon="7.700519">
        <ele>316.217294</ele>
        <time>2026-06-18T20:28:02.490Z</time>
      </trkpt>
      <trkpt lat="48.082059" lon="7.700719">
        <ele>314.704371</ele>
        <time>2026-06-18T20:28:04.980Z</time>
      </trkpt>
      <trkpt lat="48.081866" lon="7.700985">
        <ele>312.989522</ele>
        <time>2026-06-18T20:28:07.837Z</time>
      </trkpt>
      <trkpt lat="48.081536" lon="7.701563">
        <ele>309.669365</ele>
        <time>2026-06-18T20:28:13.421Z</time>
      </trkpt>
      <trkpt lat="48.081507" lon="7.701600">
        <ele>309.420292</ele>
        <time>2026-06-18T20:28:13.834Z</time>
      </trkpt>
      <trkpt lat="48.081619" lon="7.701664">
        <ele>308.636677</ele>
        <time>2026-06-18T20:28:15.442Z</time>
      </trkpt>
      <trkpt lat="48.082296" lon="7.702031">
        <ele>305.111076</ele>
        <time>2026-06-18T20:28:26.076Z</time>
      </trkpt>
      <trkpt lat="48.082538" lon="7.702136">
        <ele>304.453894</ele>
        <time>2026-06-18T20:28:30.340Z</time>
      </trkpt>
      <trkpt lat="48.082642" lon="7.702151">
        <ele>304.181378</ele>
        <time>2026-06-18T20:28:32.273Z</time>
      </trkpt>
      <trkpt lat="48.082790" lon="7.702125">
        <ele>303.792706</ele>
        <time>2026-06-18T20:28:34.745Z</time>
      </trkpt>
      <trkpt lat="48.083235" lon="7.701920">
        <ele>302.578306</ele>
        <time>2026-06-18T20:28:41.969Z</time>
      </trkpt>
      <trkpt lat="48.083665" lon="7.702030">
        <ele>301.440493</ele>
        <time>2026-06-18T20:28:48.717Z</time>
      </trkpt>
      <trkpt lat="48.083854" lon="7.702023">
        <ele>300.886521</ele>
        <time>2026-06-18T20:28:51.773Z</time>
      </trkpt>
      <trkpt lat="48.083965" lon="7.702019">
        <ele>300.528186</ele>
        <time>2026-06-18T20:28:53.559Z</time>
      </trkpt>
      <trkpt lat="48.084263" lon="7.702275">
        <ele>299.419328</ele>
        <time>2026-06-18T20:28:58.794Z</time>
      </trkpt>
      <trkpt lat="48.084436" lon="7.702566">
        <ele>298.579484</ele>
        <time>2026-06-18T20:29:02.531Z</time>
      </trkpt>
      <trkpt lat="48.084556" lon="7.702672">
        <ele>298.129806</ele>
        <time>2026-06-18T20:29:04.587Z</time>
      </trkpt>
      <trkpt lat="48.084894" lon="7.702647">
        <ele>297.037645</ele>
        <time>2026-06-18T20:29:09.804Z</time>
      </trkpt>
      <trkpt lat="48.085007" lon="7.702758">
        <ele>296.601451</ele>
        <time>2026-06-18T20:29:11.914Z</time>
      </trkpt>
      <trkpt lat="48.085271" lon="7.703320">
        <ele>294.764296</ele>
        <time>2026-06-18T20:29:18.946Z</time>
      </trkpt>
      <trkpt lat="48.085473" lon="7.703748">
        <ele>292.191940</ele>
        <time>2026-06-18T20:29:23.783Z</time>
      </trkpt>
      <trkpt lat="48.085584" lon="7.704085">
        <ele>290.347570</ele>
        <time>2026-06-18T20:29:27.061Z</time>
      </trkpt>
      <trkpt lat="48.085648" lon="7.704485">
        <ele>288.328575</ele>
        <time>2026-06-18T20:29:30.569Z</time>
      </trkpt>
      <trkpt lat="48.085618" lon="7.704787">
        <ele>286.829861</ele>
        <time>2026-06-18T20:29:33.168Z</time>
      </trkpt>
      <trkpt lat="48.085316" lon="7.705976">
        <ele>280.990436</ele>
        <time>2026-06-18T20:29:43.837Z</time>
      </trkpt>
      <trkpt lat="48.085217" lon="7.706533">
        <ele>278.878165</ele>
        <time>2026-06-18T20:29:48.673Z</time>
      </trkpt>
      <trkpt lat="48.085109" lon="7.707630">
        <ele>274.814521</ele>
        <time>2026-06-18T20:29:58.569Z</time>
      </trkpt>
      <trkpt lat="48.085031" lon="7.707768">
        <ele>274.152050</ele>
        <time>2026-06-18T20:30:00.360Z</time>
      </trkpt>
      <trkpt lat="48.084980" lon="7.707843">
        <ele>273.759845</ele>
        <time>2026-06-18T20:30:01.444Z</time>
      </trkpt>
      <trkpt lat="48.085027" lon="7.707900">
        <ele>273.428008</ele>
        <time>2026-06-18T20:30:02.444Z</time>
      </trkpt>
      <trkpt lat="48.085036" lon="7.708007">
        <ele>273.032783</ele>
        <time>2026-06-18T20:30:03.623Z</time>
      </trkpt>
      <trkpt lat="48.084810" lon="7.709169">
        <ele>276.388406</ele>
        <time>2026-06-18T20:30:28.403Z</time>
      </trkpt>
      <trkpt lat="48.084834" lon="7.709306">
        <ele>276.957083</ele>
        <time>2026-06-18T20:30:33.954Z</time>
      </trkpt>
      <trkpt lat="48.084938" lon="7.709421">
        <ele>277.734220</ele>
        <time>2026-06-18T20:30:42.044Z</time>
      </trkpt>
      <trkpt lat="48.085129" lon="7.709532">
        <ele>278.965695</ele>
        <time>2026-06-18T20:30:55.814Z</time>
      </trkpt>
      <trkpt lat="48.085203" lon="7.709615">
        <ele>279.521468</ele>
        <time>2026-06-18T20:31:02.408Z</time>
      </trkpt>
      <trkpt lat="48.085210" lon="7.709628">
        <ele>279.588510</ele>
        <time>2026-06-18T20:31:03.232Z</time>
      </trkpt>
      <trkpt lat="48.085226" lon="7.709669">
        <ele>279.779162</ele>
        <time>2026-06-18T20:31:05.569Z</time>
      </trkpt>
      <trkpt lat="48.085501" lon="7.710884">
        <ele>284.713522</ele>
        <time>2026-06-18T20:32:11.385Z</time>
      </trkpt>
      <trkpt lat="48.085658" lon="7.711245">
        <ele>286.235596</ele>
        <time>2026-06-18T20:32:31.911Z</time>
      </trkpt>
      <trkpt lat="48.085666" lon="7.711259">
        <ele>286.300694</ele>
        <time>2026-06-18T20:32:32.735Z</time>
      </trkpt>
      <trkpt lat="48.085751" lon="7.711488">
        <ele>287.226368</ele>
        <time>2026-06-18T20:32:43.934Z</time>
      </trkpt>
      <trkpt lat="48.085773" lon="7.711788">
        <ele>288.292764</ele>
        <time>2026-06-18T20:32:55.719Z</time>
      </trkpt>
      <trkpt lat="48.085850" lon="7.712284">
        <ele>290.092043</ele>
        <time>2026-06-18T20:33:12.595Z</time>
      </trkpt>
      <trkpt lat="48.085727" lon="7.712313">
        <ele>290.750662</ele>
        <time>2026-06-18T20:33:16.072Z</time>
      </trkpt>
      <trkpt lat="48.085850" lon="7.712284">
        <ele>291.409281</ele>
        <time>2026-06-18T20:33:18.911Z</time>
      </trkpt>
      <trkpt lat="48.085900" lon="7.712560">
        <ele>292.419729</ele>
        <time>2026-06-18T20:33:24.299Z</time>
      </trkpt>
      <trkpt lat="48.085993" lon="7.712771">
        <ele>292.089320</ele>
        <time>2026-06-18T20:33:28.556Z</time>
      </trkpt>
      <trkpt lat="48.086164" lon="7.713038">
        <ele>291.020928</ele>
        <time>2026-06-18T20:33:34.362Z</time>
      </trkpt>
      <trkpt lat="48.086325" lon="7.713463">
        <ele>289.609697</ele>
        <time>2026-06-18T20:33:41.549Z</time>
      </trkpt>
      <trkpt lat="48.086338" lon="7.713503">
        <ele>289.481212</ele>
        <time>2026-06-18T20:33:42.243Z</time>
      </trkpt>
      <trkpt lat="48.086354" lon="7.713536">
        <ele>289.363434</ele>
        <time>2026-06-18T20:33:42.878Z</time>
      </trkpt>
      <trkpt lat="48.086386" lon="7.713982">
        <ele>288.067792</ele>
        <time>2026-06-18T20:33:49.885Z</time>
      </trkpt>
      <trkpt lat="48.086387" lon="7.714027">
        <ele>287.937742</ele>
        <time>2026-06-18T20:33:50.592Z</time>
      </trkpt>
      <trkpt lat="48.086492" lon="7.714621">
        <ele>286.162973</ele>
        <time>2026-06-18T20:34:00.151Z</time>
      </trkpt>
      <trkpt lat="48.086491" lon="7.714716">
        <ele>285.888541</ele>
        <time>2026-06-18T20:34:01.620Z</time>
      </trkpt>
      <trkpt lat="48.086479" lon="7.715031">
        <ele>284.977214</ele>
        <time>2026-06-18T20:34:06.602Z</time>
      </trkpt>
      <trkpt lat="48.086433" lon="7.715266">
        <ele>284.338959</ele>
        <time>2026-06-18T20:34:10.164Z</time>
      </trkpt>
      <trkpt lat="48.086432" lon="7.715367">
        <ele>284.081198</ele>
        <time>2026-06-18T20:34:10.951Z</time>
      </trkpt>
      <trkpt lat="48.086504" lon="7.716150">
        <ele>282.064297</ele>
        <time>2026-06-18T20:34:22.822Z</time>
      </trkpt>
      <trkpt lat="48.086520" lon="7.716586">
        <ele>280.950035</ele>
        <time>2026-06-18T20:34:29.630Z</time>
      </trkpt>
      <trkpt lat="48.086523" lon="7.716859">
        <ele>280.253300</ele>
        <time>2026-06-18T20:34:33.936Z</time>
      </trkpt>
      <trkpt lat="48.086492" lon="7.717198">
        <ele>279.380172</ele>
        <time>2026-06-18T20:34:39.372Z</time>
      </trkpt>
      <trkpt lat="48.086396" lon="7.717633">
        <ele>278.211130</ele>
        <time>2026-06-18T20:34:46.564Z</time>
      </trkpt>
      <trkpt lat="48.086250" lon="7.718105">
        <ele>277.236764</ele>
        <time>2026-06-18T20:34:54.681Z</time>
      </trkpt>
      <trkpt lat="48.085998" lon="7.718946">
        <ele>275.634018</ele>
        <time>2026-06-18T20:35:09.742Z</time>
      </trkpt>
      <trkpt lat="48.085958" lon="7.719124">
        <ele>275.307459</ele>
        <time>2026-06-18T20:35:12.891Z</time>
      </trkpt>
      <trkpt lat="48.085954" lon="7.719393">
        <ele>274.839593</ele>
        <time>2026-06-18T20:35:17.423Z</time>
      </trkpt>
      <trkpt lat="48.086037" lon="7.719480">
        <ele>274.575845</ele>
        <time>2026-06-18T20:35:19.954Z</time>
      </trkpt>
      <trkpt lat="48.086181" lon="7.719687">
        <ele>274.056175</ele>
        <time>2026-06-18T20:35:22.600Z</time>
      </trkpt>
      <trkpt lat="48.086235" lon="7.719923">
        <ele>273.622404</ele>
        <time>2026-06-18T20:35:24.794Z</time>
      </trkpt>
      <trkpt lat="48.086378" lon="7.720138">
        <ele>272.933433</ele>
        <time>2026-06-18T20:35:27.403Z</time>
      </trkpt>
      <trkpt lat="48.086731" lon="7.720369">
        <ele>271.177558</ele>
        <time>2026-06-18T20:35:32.283Z</time>
      </trkpt>
      <trkpt lat="48.087211" lon="7.720478">
        <ele>268.964830</ele>
        <time>2026-06-18T20:35:38.151Z</time>
      </trkpt>
      <trkpt lat="48.087566" lon="7.720037">
        <ele>266.862317</ele>
        <time>2026-06-18T20:35:44.447Z</time>
      </trkpt>
      <trkpt lat="48.087708" lon="7.719963">
        <ele>266.177029</ele>
        <time>2026-06-18T20:35:46.497Z</time>
      </trkpt>
      <trkpt lat="48.087887" lon="7.719973">
        <ele>265.360631</ele>
        <time>2026-06-18T20:35:48.924Z</time>
      </trkpt>
      <trkpt lat="48.088408" lon="7.720226">
        <ele>261.438804</ele>
        <time>2026-06-18T20:35:56.202Z</time>
      </trkpt>
      <trkpt lat="48.088594" lon="7.720379">
        <ele>259.858131</ele>
        <time>2026-06-18T20:35:58.987Z</time>
      </trkpt>
      <trkpt lat="48.088811" lon="7.720615">
        <ele>257.860459</ele>
        <time>2026-06-18T20:36:02.500Z</time>
      </trkpt>
      <trkpt lat="48.088851" lon="7.720525">
        <ele>257.322647</ele>
        <time>2026-06-18T20:36:04.125Z</time>
      </trkpt>
      <trkpt lat="48.088985" lon="7.719932">
        <ele>254.208192</ele>
        <time>2026-06-18T20:36:13.408Z</time>
      </trkpt>
      <trkpt lat="48.088995" lon="7.719762">
        <ele>253.359159</ele>
        <time>2026-06-18T20:36:15.934Z</time>
      </trkpt>
      <trkpt lat="48.089066" lon="7.719184">
        <ele>250.417680</ele>
        <time>2026-06-18T20:36:20.901Z</time>
      </trkpt>
      <trkpt lat="48.089064" lon="7.719127">
        <ele>250.129790</ele>
        <time>2026-06-18T20:36:21.383Z</time>
      </trkpt>
      <trkpt lat="48.089607" lon="7.719175">
        <ele>246.022568</ele>
        <time>2026-06-18T20:36:28.250Z</time>
      </trkpt>
      <trkpt lat="48.089934" lon="7.719205">
        <ele>243.548826</ele>
        <time>2026-06-18T20:36:32.469Z</time>
      </trkpt>
      <trkpt lat="48.090276" lon="7.719104">
        <ele>240.916690</ele>
        <time>2026-06-18T20:36:37.021Z</time>
      </trkpt>
      <trkpt lat="48.090530" lon="7.719164">
        <ele>238.975061</ele>
        <time>2026-06-18T20:36:40.449Z</time>
      </trkpt>
      <trkpt lat="48.090697" lon="7.719230">
        <ele>237.912913</ele>
        <time>2026-06-18T20:36:42.822Z</time>
      </trkpt>
      <trkpt lat="48.090971" lon="7.719401">
        <ele>236.841155</ele>
        <time>2026-06-18T20:36:47.010Z</time>
      </trkpt>
      <trkpt lat="48.091246" lon="7.719663">
        <ele>235.664306</ele>
        <time>2026-06-18T20:36:51.691Z</time>
      </trkpt>
      <trkpt lat="48.091497" lon="7.719975">
        <ele>234.486460</ele>
        <time>2026-06-18T20:36:56.452Z</time>
      </trkpt>
      <trkpt lat="48.091573" lon="7.720118">
        <ele>234.045766</ele>
        <time>2026-06-18T20:36:58.278Z</time>
      </trkpt>
      <trkpt lat="48.091911" lon="7.720974">
        <ele>231.647777</ele>
        <time>2026-06-18T20:37:08.809Z</time>
      </trkpt>
      <trkpt lat="48.091996" lon="7.721207">
        <ele>231.094553</ele>
        <time>2026-06-18T20:37:11.845Z</time>
      </trkpt>
      <trkpt lat="48.092080" lon="7.721407">
        <ele>230.603093</ele>
        <time>2026-06-18T20:37:14.505Z</time>
      </trkpt>
      <trkpt lat="48.092363" lon="7.722145">
        <ele>228.832875</ele>
        <time>2026-06-18T20:37:23.401Z</time>
      </trkpt>
      <trkpt lat="48.092525" lon="7.722567">
        <ele>227.820367</ele>
        <time>2026-06-18T20:37:28.199Z</time>
      </trkpt>
      <trkpt lat="48.092683" lon="7.722938">
        <ele>226.905082</ele>
        <time>2026-06-18T20:37:32.465Z</time>
      </trkpt>
      <trkpt lat="48.092819" lon="7.723229">
        <ele>226.166275</ele>
        <time>2026-06-18T20:37:35.862Z</time>
      </trkpt>
      <trkpt lat="48.092957" lon="7.723444">
        <ele>225.533116</ele>
        <time>2026-06-18T20:37:38.676Z</time>
      </trkpt>
      <trkpt lat="48.093203" lon="7.723803">
        <ele>224.435275</ele>
        <time>2026-06-18T20:37:43.441Z</time>
      </trkpt>
      <trkpt lat="48.093314" lon="7.724026">
        <ele>223.841636</ele>
        <time>2026-06-18T20:37:46.000Z</time>
      </trkpt>
      <trkpt lat="48.093362" lon="7.724223">
        <ele>223.394030</ele>
        <time>2026-06-18T20:37:47.954Z</time>
      </trkpt>
      <trkpt lat="48.093355" lon="7.724455">
        <ele>222.898318</ele>
        <time>2026-06-18T20:37:50.156Z</time>
      </trkpt>
      <trkpt lat="48.093798" lon="7.723971">
        <ele>221.145726</ele>
        <time>2026-06-18T20:37:57.204Z</time>
      </trkpt>
      <trkpt lat="48.093843" lon="7.723931">
        <ele>220.978481</ele>
        <time>2026-06-18T20:37:57.936Z</time>
      </trkpt>
      <trkpt lat="48.093874" lon="7.723714">
        <ele>220.504820</ele>
        <time>2026-06-18T20:38:00.179Z</time>
      </trkpt>
      <trkpt lat="48.093997" lon="7.723405">
        <ele>220.572091</ele>
        <time>2026-06-18T20:38:04.548Z</time>
      </trkpt>
      <trkpt lat="48.094362" lon="7.722716">
        <ele>221.523977</ele>
        <time>2026-06-18T20:38:18.227Z</time>
      </trkpt>
      <trkpt lat="48.094467" lon="7.722384">
        <ele>221.921589</ele>
        <time>2026-06-18T20:38:25.118Z</time>
      </trkpt>
      <trkpt lat="48.094552" lon="7.722050">
        <ele>222.308467</ele>
        <time>2026-06-18T20:38:32.125Z</time>
      </trkpt>
      <trkpt lat="48.094728" lon="7.721602">
        <ele>222.871048</ele>
        <time>2026-06-18T20:38:42.766Z</time>
      </trkpt>
      <trkpt lat="48.095223" lon="7.720529">
        <ele>224.404333</ele>
        <time>2026-06-18T20:39:06.822Z</time>
      </trkpt>
      <trkpt lat="48.095241" lon="7.720487">
        <ele>224.464457</ele>
        <time>2026-06-18T20:39:07.551Z</time>
      </trkpt>
      <trkpt lat="48.095257" lon="7.720450">
        <ele>224.517562</ele>
        <time>2026-06-18T20:39:08.158Z</time>
      </trkpt>
      <trkpt lat="48.095510" lon="7.719911">
        <ele>225.311285</ele>
        <time>2026-06-18T20:39:17.429Z</time>
      </trkpt>
      <trkpt lat="48.095562" lon="7.719932">
        <ele>225.408439</ele>
        <time>2026-06-18T20:39:18.743Z</time>
      </trkpt>
      <trkpt lat="48.095934" lon="7.720416">
        <ele>226.297448</ele>
        <time>2026-06-18T20:39:32.271Z</time>
      </trkpt>
      <trkpt lat="48.096257" lon="7.720865">
        <ele>227.774374</ele>
        <time>2026-06-18T20:39:44.528Z</time>
      </trkpt>
      <trkpt lat="48.096510" lon="7.721142">
        <ele>228.940292</ele>
        <time>2026-06-18T20:39:53.873Z</time>
      </trkpt>
      <trkpt lat="48.096718" lon="7.720940">
        <ele>229.862542</ele>
        <time>2026-06-18T20:40:02.737Z</time>
      </trkpt>
      <trkpt lat="48.097120" lon="7.720277">
        <ele>232.087283</ele>
        <time>2026-06-18T20:40:27.544Z</time>
      </trkpt>
      <trkpt lat="48.097396" lon="7.719883">
        <ele>233.795054</ele>
        <time>2026-06-18T20:40:43.786Z</time>
      </trkpt>
      <trkpt lat="48.097816" lon="7.719188">
        <ele>237.971539</ele>
        <time>2026-06-18T20:41:15.077Z</time>
      </trkpt>
      <trkpt lat="48.098095" lon="7.718682">
        <ele>240.895352</ele>
        <time>2026-06-18T20:41:38.505Z</time>
      </trkpt>
      <trkpt lat="48.098280" lon="7.718928">
        <ele>242.546126</ele>
        <time>2026-06-18T20:41:51.799Z</time>
      </trkpt>
      <trkpt lat="48.098382" lon="7.718748">
        <ele>243.597994</ele>
        <time>2026-06-18T20:42:00.189Z</time>
      </trkpt>
      <trkpt lat="48.099310" lon="7.718187">
        <ele>249.437290</ele>
        <time>2026-06-18T20:42:48.839Z</time>
      </trkpt>
      <trkpt lat="48.099477" lon="7.718023">
        <ele>250.552280</ele>
        <time>2026-06-18T20:42:57.212Z</time>
      </trkpt>
      <trkpt lat="48.099562" lon="7.717892">
        <ele>251.233289</ele>
        <time>2026-06-18T20:43:02.326Z</time>
      </trkpt>
      <trkpt lat="48.099986" lon="7.717066">
        <ele>255.117676</ele>
        <time>2026-06-18T20:43:31.033Z</time>
      </trkpt>
      <trkpt lat="48.100038" lon="7.716967">
        <ele>255.529197</ele>
        <time>2026-06-18T20:43:34.482Z</time>
      </trkpt>
      <trkpt lat="48.100921" lon="7.715283">
        <ele>262.363316</ele>
        <time>2026-06-18T20:44:34.605Z</time>
      </trkpt>
      <trkpt lat="48.101032" lon="7.715021">
        <ele>263.353691</ele>
        <time>2026-06-18T20:44:43.150Z</time>
      </trkpt>
      <trkpt lat="48.101173" lon="7.714538">
        <ele>264.861838</ele>
        <time>2026-06-18T20:44:57.470Z</time>
      </trkpt>
      <trkpt lat="48.101225" lon="7.714150">
        <ele>265.949563</ele>
        <time>2026-06-18T20:45:07.847Z</time>
      </trkpt>
      <trkpt lat="48.101279" lon="7.713841">
        <ele>266.827482</ele>
        <time>2026-06-18T20:45:14.735Z</time>
      </trkpt>
      <trkpt lat="48.101290" lon="7.713611">
        <ele>267.461281</ele>
        <time>2026-06-18T20:45:19.291Z</time>
      </trkpt>
      <trkpt lat="48.101270" lon="7.713330">
        <ele>268.238014</ele>
        <time>2026-06-18T20:45:25.135Z</time>
      </trkpt>
      <trkpt lat="48.101210" lon="7.713011">
        <ele>269.148932</ele>
        <time>2026-06-18T20:45:32.526Z</time>
      </trkpt>
      <trkpt lat="48.101216" lon="7.712959">
        <ele>269.293978</ele>
        <time>2026-06-18T20:45:33.696Z</time>
      </trkpt>
      <trkpt lat="48.101290" lon="7.712879">
        <ele>269.669629</ele>
        <time>2026-06-18T20:45:37.061Z</time>
      </trkpt>
      <trkpt lat="48.101390" lon="7.713367">
        <ele>271.072675</ele>
        <time>2026-06-18T20:45:51.021Z</time>
      </trkpt>
      <trkpt lat="48.101441" lon="7.713561">
        <ele>271.817354</ele>
        <time>2026-06-18T20:45:56.947Z</time>
      </trkpt>
      <trkpt lat="48.101488" lon="7.713633">
        <ele>272.196803</ele>
        <time>2026-06-18T20:45:59.737Z</time>
      </trkpt>
      <trkpt lat="48.101843" lon="7.713887">
        <ele>274.417149</ele>
        <time>2026-06-18T20:46:16.686Z</time>
      </trkpt>
      <trkpt lat="48.101899" lon="7.713450">
        <ele>276.094116</ele>
        <time>2026-06-18T20:46:29.520Z</time>
      </trkpt>
      <trkpt lat="48.101965" lon="7.712300">
        <ele>280.444083</ele>
        <time>2026-06-18T20:47:06.370Z</time>
      </trkpt>
      <trkpt lat="48.101902" lon="7.711503">
        <ele>284.022074</ele>
        <time>2026-06-18T20:47:32.669Z</time>
      </trkpt>
      <trkpt lat="48.101862" lon="7.710996">
        <ele>286.444790</ele>
        <time>2026-06-18T20:47:50.013Z</time>
      </trkpt>
      <trkpt lat="48.101843" lon="7.710612">
        <ele>288.272069</ele>
        <time>2026-06-18T20:48:03.291Z</time>
      </trkpt>
      <trkpt lat="48.102060" lon="7.710565">
        <ele>289.830145</ele>
        <time>2026-06-18T20:48:14.847Z</time>
      </trkpt>
      <trkpt lat="48.102477" lon="7.710399">
        <ele>292.896321</ele>
        <time>2026-06-18T20:48:37.714Z</time>
      </trkpt>
      <trkpt lat="48.102566" lon="7.710336">
        <ele>293.595869</ele>
        <time>2026-06-18T20:48:43.079Z</time>
      </trkpt>
      <trkpt lat="48.102609" lon="7.710259">
        <ele>294.072195</ele>
        <time>2026-06-18T20:48:46.842Z</time>
      </trkpt>
      <trkpt lat="48.102824" lon="7.709942">
        <ele>296.372099</ele>
        <time>2026-06-18T20:49:04.092Z</time>
      </trkpt>
      <trkpt lat="48.102934" lon="7.709900">
        <ele>297.238599</ele>
        <time>2026-06-18T20:49:10.653Z</time>
      </trkpt>
      <trkpt lat="48.103257" lon="7.709917">
        <ele>299.705596</ele>
        <time>2026-06-18T20:49:28.291Z</time>
      </trkpt>
      <trkpt lat="48.103367" lon="7.709918">
        <ele>300.545247</ele>
        <time>2026-06-18T20:49:33.860Z</time>
      </trkpt>
      <trkpt lat="48.103892" lon="7.709836">
        <ele>304.574337</ele>
        <time>2026-06-18T20:50:02.872Z</time>
      </trkpt>
      <trkpt lat="48.104019" lon="7.709861">
        <ele>305.552074</ele>
        <time>2026-06-18T20:50:09.811Z</time>
      </trkpt>
      <trkpt lat="48.104333" lon="7.710006">
        <ele>308.023688</ele>
        <time>2026-06-18T20:50:27.480Z</time>
      </trkpt>
      <trkpt lat="48.104340" lon="7.710084">
        <ele>308.356981</ele>
        <time>2026-06-18T20:50:30.875Z</time>
      </trkpt>
      <trkpt lat="48.104333" lon="7.710006">
        <ele>308.690275</ele>
        <time>2026-06-18T20:50:34.342Z</time>
      </trkpt>
      <trkpt lat="48.104397" lon="7.710016">
        <ele>309.098356</ele>
        <time>2026-06-18T20:50:37.902Z</time>
      </trkpt>
      <trkpt lat="48.104485" lon="7.709897">
        <ele>309.850303</ele>
        <time>2026-06-18T20:50:44.174Z</time>
      </trkpt>
      <trkpt lat="48.104562" lon="7.709870">
        <ele>310.351832</ele>
        <time>2026-06-18T20:50:48.266Z</time>
      </trkpt>
      <trkpt lat="48.105138" lon="7.710091">
        <ele>314.122716</ele>
        <time>2026-06-18T20:51:19.084Z</time>
      </trkpt>
      <trkpt lat="48.105190" lon="7.710100">
        <ele>314.454686</ele>
        <time>2026-06-18T20:51:21.717Z</time>
      </trkpt>
      <trkpt lat="48.105319" lon="7.710021">
        <ele>315.338545</ele>
        <time>2026-06-18T20:51:28.995Z</time>
      </trkpt>
      <trkpt lat="48.105888" lon="7.709986">
        <ele>318.950089</ele>
        <time>2026-06-18T20:51:55.806Z</time>
      </trkpt>
      <trkpt lat="48.106577" lon="7.709864">
        <ele>318.354066</ele>
        <time>2026-06-18T20:52:19.041Z</time>
      </trkpt>
      <trkpt lat="48.107102" lon="7.709865">
        <ele>317.625585</ele>
        <time>2026-06-18T20:52:28.294Z</time>
      </trkpt>
      <trkpt lat="48.107766" lon="7.709786">
        <ele>316.342876</ele>
        <time>2026-06-18T20:52:37.324Z</time>
      </trkpt>
      <trkpt lat="48.107855" lon="7.709792">
        <ele>315.396395</ele>
        <time>2026-06-18T20:52:38.452Z</time>
      </trkpt>
      <trkpt lat="48.107881" lon="7.710545">
        <ele>310.047574</ele>
        <time>2026-06-18T20:52:43.722Z</time>
      </trkpt>
      <trkpt lat="48.107928" lon="7.711194">
        <ele>305.416657</ele>
        <time>2026-06-18T20:52:48.158Z</time>
      </trkpt>
      <trkpt lat="48.107939" lon="7.711282">
        <ele>304.781553</ele>
        <time>2026-06-18T20:52:48.766Z</time>
      </trkpt>
      <trkpt lat="48.108038" lon="7.711718">
        <ele>301.514695</ele>
        <time>2026-06-18T20:52:51.888Z</time>
      </trkpt>
      <trkpt lat="48.108352" lon="7.712309">
        <ele>296.846204</ele>
        <time>2026-06-18T20:52:57.077Z</time>
      </trkpt>
      <trkpt lat="48.108428" lon="7.712413">
        <ele>296.258509</ele>
        <time>2026-06-18T20:52:58.152Z</time>
      </trkpt>
      <trkpt lat="48.108880" lon="7.713032">
        <ele>292.762059</ele>
        <time>2026-06-18T20:53:04.862Z</time>
      </trkpt>
      <trkpt lat="48.109138" lon="7.713384">
        <ele>290.769704</ele>
        <time>2026-06-18T20:53:09.164Z</time>
      </trkpt>
      <trkpt lat="48.109178" lon="7.713141">
        <ele>289.815721</ele>
        <time>2026-06-18T20:53:11.516Z</time>
      </trkpt>
      <trkpt lat="48.109228" lon="7.713065">
        <ele>289.409036</ele>
        <time>2026-06-18T20:53:12.562Z</time>
      </trkpt>
      <trkpt lat="48.109373" lon="7.712852">
        <ele>288.249574</ele>
        <time>2026-06-18T20:53:15.413Z</time>
      </trkpt>
      <trkpt lat="48.109547" lon="7.712147">
        <ele>285.651584</ele>
        <time>2026-06-18T20:53:22.181Z</time>
      </trkpt>
      <trkpt lat="48.109604" lon="7.711958">
        <ele>284.966919</ele>
        <time>2026-06-18T20:53:23.967Z</time>
      </trkpt>
      <trkpt lat="48.109639" lon="7.711937">
        <ele>284.780494</ele>
        <time>2026-06-18T20:53:24.477Z</time>
      </trkpt>
      <trkpt lat="48.109922" lon="7.712056">
        <ele>283.327119</ele>
        <time>2026-06-18T20:53:28.826Z</time>
      </trkpt>
      <trkpt lat="48.110195" lon="7.713053">
        <ele>279.769603</ele>
        <time>2026-06-18T20:53:38.487Z</time>
      </trkpt>
      <trkpt lat="48.110413" lon="7.713739">
        <ele>276.776948</ele>
        <time>2026-06-18T20:53:44.936Z</time>
      </trkpt>
      <trkpt lat="48.110771" lon="7.714774">
        <ele>271.405781</ele>
        <time>2026-06-18T20:53:55.021Z</time>
      </trkpt>
      <trkpt lat="48.110834" lon="7.714951">
        <ele>270.481532</ele>
        <time>2026-06-18T20:53:56.804Z</time>
      </trkpt>
      <trkpt lat="48.110920" lon="7.714881">
        <ele>269.806038</ele>
        <time>2026-06-18T20:53:58.122Z</time>
      </trkpt>
      <trkpt lat="48.111600" lon="7.714671">
        <ele>265.309388</ele>
        <time>2026-06-18T20:54:07.551Z</time>
      </trkpt>
      <trkpt lat="48.112223" lon="7.714500">
        <ele>262.156472</ele>
        <time>2026-06-18T20:54:16.250Z</time>
      </trkpt>
      <trkpt lat="48.112841" lon="7.715424">
        <ele>257.809593</ele>
        <time>2026-06-18T20:54:28.276Z</time>
      </trkpt>
      <trkpt lat="48.113222" lon="7.715996">
        <ele>257.668981</ele>
        <time>2026-06-18T20:54:35.954Z</time>
      </trkpt>
      <trkpt lat="48.112621" lon="7.717643">
        <ele>259.388276</ele>
        <time>2026-06-18T20:55:13.549Z</time>
      </trkpt>
      <trkpt lat="48.112499" lon="7.717866">
        <ele>259.801338</ele>
        <time>2026-06-18T20:55:24.158Z</time>
      </trkpt>
      <trkpt lat="48.112212" lon="7.718179">
        <ele>261.395677</ele>
        <time>2026-06-18T20:55:44.003Z</time>
      </trkpt>
      <trkpt lat="48.111933" lon="7.718536">
        <ele>263.043600</ele>
        <time>2026-06-18T20:56:03.449Z</time>
      </trkpt>
      <trkpt lat="48.111810" lon="7.718900">
        <ele>264.266835</ele>
        <time>2026-06-18T20:56:17.023Z</time>
      </trkpt>
      <trkpt lat="48.111734" lon="7.719226">
        <ele>265.302189</ele>
        <time>2026-06-18T20:56:27.033Z</time>
      </trkpt>
      <trkpt lat="48.111653" lon="7.719740">
        <ele>266.885719</ele>
        <time>2026-06-18T20:56:38.357Z</time>
      </trkpt>
      <trkpt lat="48.111558" lon="7.719926">
        <ele>267.587891</ele>
        <time>2026-06-18T20:56:41.888Z</time>
      </trkpt>
      <trkpt lat="48.111450" lon="7.720061">
        <ele>267.260716</ele>
        <time>2026-06-18T20:56:44.485Z</time>
      </trkpt>
      <trkpt lat="48.111150" lon="7.720420">
        <ele>266.008178</ele>
        <time>2026-06-18T20:56:50.630Z</time>
      </trkpt>
      <trkpt lat="48.110727" lon="7.721169">
        <ele>263.871674</ele>
        <time>2026-06-18T20:57:00.084Z</time>
      </trkpt>
      <trkpt lat="48.110592" lon="7.721335">
        <ele>263.301929</ele>
        <time>2026-06-18T20:57:02.500Z</time>
      </trkpt>
      <trkpt lat="48.110576" lon="7.722069">
        <ele>261.676170</ele>
        <time>2026-06-18T20:57:08.153Z</time>
      </trkpt>
      <trkpt lat="48.110004" lon="7.722135">
        <ele>259.285250</ele>
        <time>2026-06-18T20:57:14.771Z</time>
      </trkpt>
      <trkpt lat="48.109958" lon="7.722172">
        <ele>259.067643</ele>
        <time>2026-06-18T20:57:15.373Z</time>
      </trkpt>
      <trkpt lat="48.109755" lon="7.724028">
        <ele>253.981480</ele>
        <time>2026-06-18T20:57:30.763Z</time>
      </trkpt>
      <trkpt lat="48.109703" lon="7.724175">
        <ele>253.664585</ele>
        <time>2026-06-18T20:57:32.271Z</time>
      </trkpt>
      <trkpt lat="48.109691" lon="7.724494">
        <ele>253.055948</ele>
        <time>2026-06-18T20:57:35.148Z</time>
      </trkpt>
      <trkpt lat="48.109645" lon="7.724792">
        <ele>252.473306</ele>
        <time>2026-06-18T20:57:37.888Z</time>
      </trkpt>
      <trkpt lat="48.109576" lon="7.725035">
        <ele>251.970288</ele>
        <time>2026-06-18T20:57:40.237Z</time>
      </trkpt>
      <trkpt lat="48.109493" lon="7.725273">
        <ele>251.458799</ele>
        <time>2026-06-18T20:57:42.617Z</time>
      </trkpt>
      <trkpt lat="48.109380" lon="7.725499">
        <ele>250.920955</ele>
        <time>2026-06-18T20:57:45.100Z</time>
      </trkpt>
      <trkpt lat="48.109243" lon="7.725681">
        <ele>250.398492</ele>
        <time>2026-06-18T20:57:47.500Z</time>
      </trkpt>
      <trkpt lat="48.108893" lon="7.726041">
        <ele>249.187144</ele>
        <time>2026-06-18T20:57:52.880Z</time>
      </trkpt>
      <trkpt lat="48.108240" lon="7.726548">
        <ele>244.997623</ele>
        <time>2026-06-18T20:58:01.862Z</time>
      </trkpt>
      <trkpt lat="48.108063" lon="7.726744">
        <ele>243.738605</ele>
        <time>2026-06-18T20:58:04.403Z</time>
      </trkpt>
      <trkpt lat="48.107745" lon="7.727185">
        <ele>241.259798</ele>
        <time>2026-06-18T20:58:09.194Z</time>
      </trkpt>
      <trkpt lat="48.107709" lon="7.727201">
        <ele>241.045023</ele>
        <time>2026-06-18T20:58:09.600Z</time>
      </trkpt>
      <trkpt lat="48.107418" lon="7.727060">
        <ele>239.295722</ele>
        <time>2026-06-18T20:58:12.903Z</time>
      </trkpt>
      <trkpt lat="48.107280" lon="7.727028">
        <ele>238.439345</ele>
        <time>2026-06-18T20:58:14.408Z</time>
      </trkpt>
      <trkpt lat="48.107103" lon="7.726934">
        <ele>237.204551</ele>
        <time>2026-06-18T20:58:16.418Z</time>
      </trkpt>
      <trkpt lat="48.106896" lon="7.726754">
        <ele>235.630713</ele>
        <time>2026-06-18T20:58:18.990Z</time>
      </trkpt>
      <trkpt lat="48.106822" lon="7.726657">
        <ele>234.984104</ele>
        <time>2026-06-18T20:58:20.051Z</time>
      </trkpt>
      <trkpt lat="48.106503" lon="7.726297">
        <ele>232.357801</ele>
        <time>2026-06-18T20:58:24.393Z</time>
      </trkpt>
      <trkpt lat="48.106321" lon="7.726068">
        <ele>230.794832</ele>
        <time>2026-06-18T20:58:27.018Z</time>
      </trkpt>
      <trkpt lat="48.105976" lon="7.725696">
        <ele>227.999623</ele>
        <time>2026-06-18T20:58:31.947Z</time>
      </trkpt>
      <trkpt lat="48.105629" lon="7.726266">
        <ele>226.130285</ele>
        <time>2026-06-18T20:58:45.388Z</time>
      </trkpt>
      <trkpt lat="48.105292" lon="7.726897">
        <ele>224.785538</ele>
        <time>2026-06-18T20:59:00.095Z</time>
      </trkpt>
      <trkpt lat="48.104730" lon="7.728354">
        <ele>222.232043</ele>
        <time>2026-06-18T20:59:30.816Z</time>
      </trkpt>
      <trkpt lat="48.104304" lon="7.729698">
        <ele>220.794839</ele>
        <time>2026-06-18T20:59:59.138Z</time>
      </trkpt>
      <trkpt lat="48.104233" lon="7.729877">
        <ele>220.593711</ele>
        <time>2026-06-18T21:00:03.217Z</time>
      </trkpt>
      <trkpt lat="48.104044" lon="7.730162">
        <ele>220.205687</ele>
        <time>2026-06-18T21:00:11.008Z</time>
      </trkpt>
      <trkpt lat="48.104190" lon="7.730383">
        <ele>219.882438</ele>
        <time>2026-06-18T21:00:14.049Z</time>
      </trkpt>
      <trkpt lat="48.104087" lon="7.730526">
        <ele>219.608872</ele>
        <time>2026-06-18T21:00:18.069Z</time>
      </trkpt>
      <trkpt lat="48.103763" lon="7.730764">
        <ele>218.905982</ele>
        <time>2026-06-18T21:00:28.253Z</time>
      </trkpt>
      <trkpt lat="48.102804" lon="7.730909">
        <ele>217.028637</ele>
        <time>2026-06-18T21:00:54.607Z</time>
      </trkpt>
      <trkpt lat="48.102612" lon="7.731028">
        <ele>216.623912</ele>
        <time>2026-06-18T21:01:00.100Z</time>
      </trkpt>
      <trkpt lat="48.102329" lon="7.731301">
        <ele>215.851438</ele>
        <time>2026-06-18T21:01:09.008Z</time>
      </trkpt>
      <trkpt lat="48.102250" lon="7.731385">
        <ele>215.618650</ele>
        <time>2026-06-18T21:01:11.564Z</time>
      </trkpt>
      <trkpt lat="48.102111" lon="7.731533">
        <ele>215.208873</ele>
        <time>2026-06-18T21:01:16.097Z</time>
      </trkpt>
      <trkpt lat="48.101991" lon="7.731662">
        <ele>214.853961</ele>
        <time>2026-06-18T21:01:20.023Z</time>
      </trkpt>
      <trkpt lat="48.101895" lon="7.731773">
        <ele>214.562555</ele>
        <time>2026-06-18T21:01:23.250Z</time>
      </trkpt>
      <trkpt lat="48.101493" lon="7.732285">
        <ele>213.294603</ele>
        <time>2026-06-18T21:01:37.324Z</time>
      </trkpt>
      <trkpt lat="48.101057" lon="7.733022">
        <ele>211.857583</ele>
        <time>2026-06-18T21:01:55.125Z</time>
      </trkpt>
      <trkpt lat="48.100866" lon="7.733484">
        <ele>211.273765</ele>
        <time>2026-06-18T21:02:05.201Z</time>
      </trkpt>
      <trkpt lat="48.100718" lon="7.733976">
        <ele>210.693979</ele>
        <time>2026-06-18T21:02:15.289Z</time>
      </trkpt>
      <trkpt lat="48.100384" lon="7.734889">
        <ele>209.575455</ele>
        <time>2026-06-18T21:02:35.092Z</time>
      </trkpt>
      <trkpt lat="48.100390" lon="7.734921">
        <ele>209.539743</ele>
        <time>2026-06-18T21:02:35.778Z</time>
      </trkpt>
      <trkpt lat="48.100334" lon="7.734991">
        <ele>209.422378</ele>
        <time>2026-06-18T21:02:36.840Z</time>
      </trkpt>
      <trkpt lat="48.100287" lon="7.735033">
        <ele>209.334318</ele>
        <time>2026-06-18T21:02:37.664Z</time>
      </trkpt>
      <trkpt lat="48.100144" lon="7.735235">
        <ele>209.040287</ele>
        <time>2026-06-18T21:02:40.549Z</time>
      </trkpt>
      <trkpt lat="48.099804" lon="7.735499">
        <ele>208.482443</ele>
        <time>2026-06-18T21:02:46.067Z</time>
      </trkpt>
      <trkpt lat="48.099444" lon="7.735763">
        <ele>207.898583</ele>
        <time>2026-06-18T21:02:51.776Z</time>
      </trkpt>
      <trkpt lat="48.099064" lon="7.736084">
        <ele>207.263096</ele>
        <time>2026-06-18T21:02:57.875Z</time>
      </trkpt>
      <trkpt lat="48.098636" lon="7.736459">
        <ele>206.527208</ele>
        <time>2026-06-18T21:03:04.891Z</time>
      </trkpt>
      <trkpt lat="48.098209" lon="7.736990">
        <ele>205.599807</ele>
        <time>2026-06-18T21:03:12.722Z</time>
      </trkpt>
      <trkpt lat="48.098023" lon="7.737265">
        <ele>205.163065</ele>
        <time>2026-06-18T21:03:16.454Z</time>
      </trkpt>
      <trkpt lat="48.097464" lon="7.737918">
        <ele>203.978464</ele>
        <time>2026-06-18T21:03:26.301Z</time>
      </trkpt>
      <trkpt lat="48.097155" lon="7.738237">
        <ele>203.365529</ele>
        <time>2026-06-18T21:03:31.462Z</time>
      </trkpt>
      <trkpt lat="48.096647" lon="7.738880">
        <ele>202.311013</ele>
        <time>2026-06-18T21:03:40.334Z</time>
      </trkpt>
      <trkpt lat="48.096606" lon="7.738920">
        <ele>202.233436</ele>
        <time>2026-06-18T21:03:40.998Z</time>
      </trkpt>
      <trkpt lat="48.096053" lon="7.739458">
        <ele>201.187973</ele>
        <time>2026-06-18T21:03:50.401Z</time>
      </trkpt>
      <trkpt lat="48.095950" lon="7.739501">
        <ele>201.018461</ele>
        <time>2026-06-18T21:03:52.051Z</time>
      </trkpt>
      <trkpt lat="48.095911" lon="7.739653">
        <ele>200.846059</ele>
        <time>2026-06-18T21:03:53.883Z</time>
      </trkpt>
      <trkpt lat="48.095888" lon="7.739746">
        <ele>200.726683</ele>
        <time>2026-06-18T21:03:55.039Z</time>
      </trkpt>
      <trkpt lat="48.095777" lon="7.740018">
        <ele>200.253353</ele>
        <time>2026-06-18T21:03:58.605Z</time>
      </trkpt>
      <trkpt lat="48.095558" lon="7.740441">
        <ele>199.458606</ele>
        <time>2026-06-18T21:04:03.781Z</time>
      </trkpt>
      <trkpt lat="48.095301" lon="7.741065">
        <ele>198.369990</ele>
        <time>2026-06-18T21:04:10.319Z</time>
      </trkpt>
      <trkpt lat="48.095195" lon="7.741344">
        <ele>197.893349</ele>
        <time>2026-06-18T21:04:13.123Z</time>
      </trkpt>
      <trkpt lat="48.095029" lon="7.741744">
        <ele>197.194045</ele>
        <time>2026-06-18T21:04:17.281Z</time>
      </trkpt>
      <trkpt lat="48.094837" lon="7.742201">
        <ele>196.327728</ele>
        <time>2026-06-18T21:04:21.944Z</time>
      </trkpt>
      <trkpt lat="48.094732" lon="7.742576">
        <ele>195.622733</ele>
        <time>2026-06-18T21:04:25.482Z</time>
      </trkpt>
      <trkpt lat="48.094636" lon="7.743240">
        <ele>194.444827</ele>
        <time>2026-06-18T21:04:31.340Z</time>
      </trkpt>
      <trkpt lat="48.094608" lon="7.743397">
        <ele>194.163083</ele>
        <time>2026-06-18T21:04:32.819Z</time>
      </trkpt>
      <trkpt lat="48.095058" lon="7.743811">
        <ele>192.792026</ele>
        <time>2026-06-18T21:04:40.235Z</time>
      </trkpt>
      <trkpt lat="48.095174" lon="7.743923">
        <ele>192.433721</ele>
        <time>2026-06-18T21:04:42.459Z</time>
      </trkpt>
      <trkpt lat="48.095391" lon="7.744160">
        <ele>192.028172</ele>
        <time>2026-06-18T21:04:46.962Z</time>
      </trkpt>
      <trkpt lat="48.095598" lon="7.744385">
        <ele>191.884476</ele>
        <time>2026-06-18T21:04:51.704Z</time>
      </trkpt>
      <trkpt lat="48.095624" lon="7.744414">
        <ele>191.866262</ele>
        <time>2026-06-18T21:04:52.316Z</time>
      </trkpt>
      <trkpt lat="48.095646" lon="7.744603">
        <ele>191.794282</ele>
        <time>2026-06-18T21:04:54.829Z</time>
      </trkpt>
      <trkpt lat="48.095551" lon="7.744911">
        <ele>191.666994</ele>
        <time>2026-06-18T21:04:59.072Z</time>
      </trkpt>
      <trkpt lat="48.095533" lon="7.745092">
        <ele>191.598335</ele>
        <time>2026-06-18T21:05:01.278Z</time>
      </trkpt>
      <trkpt lat="48.095576" lon="7.745153">
        <ele>191.565059</ele>
        <time>2026-06-18T21:05:02.209Z</time>
      </trkpt>
      <trkpt lat="48.095993" lon="7.745116">
        <ele>191.330394</ele>
        <time>2026-06-18T21:05:08.980Z</time>
      </trkpt>
      <trkpt lat="48.096258" lon="7.745153">
        <ele>191.180881</ele>
        <time>2026-06-18T21:05:13.209Z</time>
      </trkpt>
      <trkpt lat="48.096638" lon="7.745292">
        <ele>190.705628</ele>
        <time>2026-06-18T21:05:19.676Z</time>
      </trkpt>
      <trkpt lat="48.096994" lon="7.745413">
        <ele>190.118614</ele>
        <time>2026-06-18T21:05:26.635Z</time>
      </trkpt>
      <trkpt lat="48.097375" lon="7.745452">
        <ele>189.504533</ele>
        <time>2026-06-18T21:05:32.612Z</time>
      </trkpt>
      <trkpt lat="48.097804" lon="7.745397">
        <ele>188.812174</ele>
        <time>2026-06-18T21:05:38.008Z</time>
      </trkpt>
      <trkpt lat="48.098139" lon="7.745268">
        <ele>188.255963</ele>
        <time>2026-06-18T21:05:42.309Z</time>
      </trkpt>
      <trkpt lat="48.098359" lon="7.745164">
        <ele>187.706971</ele>
        <time>2026-06-18T21:05:45.204Z</time>
      </trkpt>
      <trkpt lat="48.098398" lon="7.745397">
        <ele>187.305998</ele>
        <time>2026-06-18T21:05:47.204Z</time>
      </trkpt>
      <trkpt lat="48.098403" lon="7.745490">
        <ele>187.150252</ele>
        <time>2026-06-18T21:05:47.975Z</time>
      </trkpt>
      <trkpt lat="48.098408" lon="7.745584">
        <ele>186.992842</ele>
        <time>2026-06-18T21:05:48.763Z</time>
      </trkpt>
      <trkpt lat="48.098404" lon="7.745851">
        <ele>186.547030</ele>
        <time>2026-06-18T21:05:51.436Z</time>
      </trkpt>
      <trkpt lat="48.098312" lon="7.746972">
        <ele>184.661682</ele>
        <time>2026-06-18T21:06:02.753Z</time>
      </trkpt>
      <trkpt lat="48.098316" lon="7.748285">
        <ele>183.698620</ele>
        <time>2026-06-18T21:06:19.311Z</time>
      </trkpt>
      <trkpt lat="48.098325" lon="7.751463">
        <ele>183.759991</ele>
        <time>2026-06-18T21:07:04.250Z</time>
      </trkpt>
      <trkpt lat="48.098329" lon="7.751624">
        <ele>183.772105</ele>
        <time>2026-06-18T21:07:07.788Z</time>
      </trkpt>
      <trkpt lat="48.098325" lon="7.751463">
        <ele>183.784218</ele>
        <time>2026-06-18T21:07:11.265Z</time>
      </trkpt>
      <trkpt lat="48.099170" lon="7.751542">
        <ele>183.842487</ele>
        <time>2026-06-18T21:07:27.878Z</time>
      </trkpt>
      <trkpt lat="48.100155" lon="7.751555">
        <ele>183.515476</ele>
        <time>2026-06-18T21:07:46.551Z</time>
      </trkpt>
      <trkpt lat="48.101042" lon="7.751522">
        <ele>183.225213</ele>
        <time>2026-06-18T21:08:03.143Z</time>
      </trkpt>
      <trkpt lat="48.101970" lon="7.751369">
        <ele>182.940800</ele>
        <time>2026-06-18T21:08:20.789Z</time>
      </trkpt>
      <trkpt lat="48.102053" lon="7.751382">
        <ele>182.915377</ele>
        <time>2026-06-18T21:08:22.385Z</time>
      </trkpt>
      <trkpt lat="48.102847" lon="7.751592">
        <ele>182.704411</ele>
        <time>2026-06-18T21:08:38.041Z</time>
      </trkpt>
      <trkpt lat="48.103683" lon="7.751778">
        <ele>182.608151</ele>
        <time>2026-06-18T21:08:54.630Z</time>
      </trkpt>
      <trkpt lat="48.103850" lon="7.751818">
        <ele>182.588889</ele>
        <time>2026-06-18T21:08:57.947Z</time>
      </trkpt>
      <trkpt lat="48.104578" lon="7.751976">
        <ele>182.507940</ele>
        <time>2026-06-18T21:09:12.299Z</time>
      </trkpt>
      <trkpt lat="48.105516" lon="7.752181">
        <ele>182.420161</ele>
        <time>2026-06-18T21:09:30.793Z</time>
      </trkpt>
      <trkpt lat="48.106424" lon="7.752327">
        <ele>182.314241</ele>
        <time>2026-06-18T21:09:48.857Z</time>
      </trkpt>
      <trkpt lat="48.106446" lon="7.752330">
        <ele>182.309782</ele>
        <time>2026-06-18T21:09:49.278Z</time>
      </trkpt>
      <trkpt lat="48.107263" lon="7.752436">
        <ele>182.144256</ele>
        <time>2026-06-18T21:10:04.704Z</time>
      </trkpt>
      <trkpt lat="48.107313" lon="7.752438">
        <ele>182.134160</ele>
        <time>2026-06-18T21:10:05.707Z</time>
      </trkpt>
      <trkpt lat="48.107812" lon="7.752551">
        <ele>182.032294</ele>
        <time>2026-06-18T21:10:15.401Z</time>
      </trkpt>
      <trkpt lat="48.107854" lon="7.752560">
        <ele>182.023730</ele>
        <time>2026-06-18T21:10:16.215Z</time>
      </trkpt>
      <trkpt lat="48.108205" lon="7.752601">
        <ele>182.034746</ele>
        <time>2026-06-18T21:10:23.122Z</time>
      </trkpt>
      <trkpt lat="48.108759" lon="7.752685">
        <ele>182.165229</ele>
        <time>2026-06-18T21:10:34.554Z</time>
      </trkpt>
      <trkpt lat="48.108836" lon="7.752758">
        <ele>182.186584</ele>
        <time>2026-06-18T21:10:36.554Z</time>
      </trkpt>
      <trkpt lat="48.109528" lon="7.753856">
        <ele>182.432192</ele>
        <time>2026-06-18T21:10:58.344Z</time>
      </trkpt>
      <trkpt lat="48.109890" lon="7.754378">
        <ele>182.653057</ele>
        <time>2026-06-18T21:11:09.314Z</time>
      </trkpt>
      <trkpt lat="48.110106" lon="7.754769">
        <ele>182.801983</ele>
        <time>2026-06-18T21:11:16.748Z</time>
      </trkpt>
      <trkpt lat="48.110180" lon="7.754880">
        <ele>182.848015</ele>
        <time>2026-06-18T21:11:18.735Z</time>
      </trkpt>
      <trkpt lat="48.110211" lon="7.754945">
        <ele>182.871456</ele>
        <time>2026-06-18T21:11:19.891Z</time>
      </trkpt>
      <trkpt lat="48.109685" lon="7.755948">
        <ele>183.215171</ele>
        <time>2026-06-18T21:11:36.283Z</time>
      </trkpt>
      <trkpt lat="48.109445" lon="7.756651">
        <ele>183.282471</ele>
        <time>2026-06-18T21:11:45.936Z</time>
      </trkpt>
      <trkpt lat="48.109164" lon="7.758051">
        <ele>183.407079</ele>
        <time>2026-06-18T21:12:02.773Z</time>
      </trkpt>
      <trkpt lat="48.109041" lon="7.758397">
        <ele>183.433957</ele>
        <time>2026-06-18T21:12:07.197Z</time>
      </trkpt>
      <trkpt lat="48.108857" lon="7.758633">
        <ele>183.440308</ele>
        <time>2026-06-18T21:12:11.322Z</time>
      </trkpt>
      <trkpt lat="48.108608" lon="7.758852">
        <ele>183.447878</ele>
        <time>2026-06-18T21:12:16.245Z</time>
      </trkpt>
      <trkpt lat="48.108239" lon="7.759093">
        <ele>183.458433</ele>
        <time>2026-06-18T21:12:23.146Z</time>
      </trkpt>
      <trkpt lat="48.107723" lon="7.759345">
        <ele>183.472662</ele>
        <time>2026-06-18T21:12:32.559Z</time>
      </trkpt>
      <trkpt lat="48.106862" lon="7.759673">
        <ele>183.476044</ele>
        <time>2026-06-18T21:12:48.015Z</time>
      </trkpt>
      <trkpt lat="48.106055" lon="7.759885">
        <ele>183.471654</ele>
        <time>2026-06-18T21:13:02.018Z</time>
      </trkpt>
      <trkpt lat="48.105520" lon="7.759927">
        <ele>183.461571</ele>
        <time>2026-06-18T21:13:11.094Z</time>
      </trkpt>
      <trkpt lat="48.105449" lon="7.759966">
        <ele>183.458248</ele>
        <time>2026-06-18T21:13:12.375Z</time>
      </trkpt>
      <trkpt lat="48.105433" lon="7.759975">
        <ele>183.457497</ele>
        <time>2026-06-18T21:13:12.650Z</time>
      </trkpt>
      <trkpt lat="48.105313" lon="7.760116">
        <ele>183.450795</ele>
        <time>2026-06-18T21:13:15.214Z</time>
      </trkpt>
      <trkpt lat="48.105392" lon="7.760269">
        <ele>183.445121</ele>
        <time>2026-06-18T21:13:17.380Z</time>
      </trkpt>
      <trkpt lat="48.105410" lon="7.760306">
        <ele>183.443778</ele>
        <time>2026-06-18T21:13:17.885Z</time>
      </trkpt>
      <trkpt lat="48.105460" lon="7.760400">
        <ele>183.440252</ele>
        <time>2026-06-18T21:13:19.220Z</time>
      </trkpt>
      <trkpt lat="48.105493" lon="7.760471">
        <ele>183.437713</ele>
        <time>2026-06-18T21:13:20.186Z</time>
      </trkpt>
      <trkpt lat="48.105515" lon="7.760520">
        <ele>183.435981</ele>
        <time>2026-06-18T21:13:20.837Z</time>
      </trkpt>
      <trkpt lat="48.105562" lon="7.760542">
        <ele>183.433817</ele>
        <time>2026-06-18T21:13:21.656Z</time>
      </trkpt>
      <trkpt lat="48.105589" lon="7.760596">
        <ele>183.431838</ele>
        <time>2026-06-18T21:13:22.423Z</time>
      </trkpt>
      <trkpt lat="48.105602" lon="7.760636">
        <ele>183.430533</ele>
        <time>2026-06-18T21:13:22.908Z</time>
      </trkpt>
      <trkpt lat="48.105675" lon="7.760812">
        <ele>183.424454</ele>
        <time>2026-06-18T21:13:25.232Z</time>
      </trkpt>
      <trkpt lat="48.105720" lon="7.760939">
        <ele>183.420235</ele>
        <time>2026-06-18T21:13:26.837Z</time>
      </trkpt>
      <trkpt lat="48.105817" lon="7.761326">
        <ele>183.408107</ele>
        <time>2026-06-18T21:13:31.462Z</time>
      </trkpt>
      <trkpt lat="48.105881" lon="7.761944">
        <ele>183.395053</ele>
        <time>2026-06-18T21:13:38.758Z</time>
      </trkpt>
      <trkpt lat="48.105886" lon="7.762028">
        <ele>183.405726</ele>
        <time>2026-06-18T21:13:39.748Z</time>
      </trkpt>
      <trkpt lat="48.105926" lon="7.762546">
        <ele>183.471718</ele>
        <time>2026-06-18T21:13:45.875Z</time>
      </trkpt>
      <trkpt lat="48.105937" lon="7.762628">
        <ele>183.482303</ele>
        <time>2026-06-18T21:13:46.842Z</time>
      </trkpt>
      <trkpt lat="48.105962" lon="7.762691">
        <ele>183.491577</ele>
        <time>2026-06-18T21:13:47.702Z</time>
      </trkpt>
      <trkpt lat="48.106030" lon="7.762810">
        <ele>183.511399</ele>
        <time>2026-06-18T21:13:49.564Z</time>
      </trkpt>
      <trkpt lat="48.106105" lon="7.763029">
        <ele>183.542547</ele>
        <time>2026-06-18T21:13:52.549Z</time>
      </trkpt>
      <trkpt lat="48.106120" lon="7.763240">
        <ele>183.569401</ele>
        <time>2026-06-18T21:13:55.186Z</time>
      </trkpt>
      <trkpt lat="48.106067" lon="7.763734">
        <ele>183.632720</ele>
        <time>2026-06-18T21:14:01.561Z</time>
      </trkpt>
      <trkpt lat="48.106056" lon="7.764161">
        <ele>183.686799</ele>
        <time>2026-06-18T21:14:06.962Z</time>
      </trkpt>
      <trkpt lat="48.106103" lon="7.764491">
        <ele>183.729502</ele>
        <time>2026-06-18T21:14:11.146Z</time>
      </trkpt>
      <trkpt lat="48.106180" lon="7.764734">
        <ele>183.705528</ele>
        <time>2026-06-18T21:14:14.289Z</time>
      </trkpt>
      <trkpt lat="48.106143" lon="7.764872">
        <ele>183.690125</ele>
        <time>2026-06-18T21:14:15.936Z</time>
      </trkpt>
      <trkpt lat="48.106113" lon="7.764935">
        <ele>183.682111</ele>
        <time>2026-06-18T21:14:17.551Z</time>
      </trkpt>
      <trkpt lat="48.106031" lon="7.765087">
        <ele>183.661871</ele>
        <time>2026-06-18T21:14:19.663Z</time>
      </trkpt>
      <trkpt lat="48.106120" lon="7.765781">
        <ele>183.588675</ele>
        <time>2026-06-18T21:14:27.141Z</time>
      </trkpt>
      <trkpt lat="48.106111" lon="7.765883">
        <ele>183.578019</ele>
        <time>2026-06-18T21:14:28.255Z</time>
      </trkpt>
      <trkpt lat="48.106075" lon="7.765949">
        <ele>183.569192</ele>
        <time>2026-06-18T21:14:29.171Z</time>
      </trkpt>
      <trkpt lat="48.106004" lon="7.766039">
        <ele>183.554763</ele>
        <time>2026-06-18T21:14:30.954Z</time>
      </trkpt>
      <trkpt lat="48.105565" lon="7.765318">
        <ele>183.453700</ele>
        <time>2026-06-18T21:14:43.582Z</time>
      </trkpt>
      <trkpt lat="48.105223" lon="7.764770">
        <ele>183.508480</ele>
        <time>2026-06-18T21:14:53.584Z</time>
      </trkpt>
      <trkpt lat="48.104830" lon="7.764285">
        <ele>183.566027</ele>
        <time>2026-06-18T21:15:04.490Z</time>
      </trkpt>
      <trkpt lat="48.104595" lon="7.763997">
        <ele>183.600341</ele>
        <time>2026-06-18T21:15:11.164Z</time>
      </trkpt>
      <trkpt lat="48.104520" lon="7.763904">
        <ele>183.611345</ele>
        <time>2026-06-18T21:15:13.225Z</time>
      </trkpt>
      <trkpt lat="48.104002" lon="7.763410">
        <ele>183.634573</ele>
        <time>2026-06-18T21:15:25.454Z</time>
      </trkpt>
      <trkpt lat="48.103653" lon="7.763106">
        <ele>183.595411</ele>
        <time>2026-06-18T21:15:33.100Z</time>
      </trkpt>
      <trkpt lat="48.101683" lon="7.763310">
        <ele>183.471859</ele>
        <time>2026-06-18T21:16:35.176Z</time>
      </trkpt>
      <trkpt lat="48.100048" lon="7.763224">
        <ele>183.546963</ele>
        <time>2026-06-18T21:17:27.671Z</time>
      </trkpt>
      <trkpt lat="48.099999" lon="7.763422">
        <ele>183.566237</ele>
        <time>2026-06-18T21:17:32.194Z</time>
      </trkpt>
      <trkpt lat="48.099986" lon="7.763584">
        <ele>183.581130</ele>
        <time>2026-06-18T21:17:35.653Z</time>
      </trkpt>
      <trkpt lat="48.099784" lon="7.764671">
        <ele>183.684119</ele>
        <time>2026-06-18T21:18:00.140Z</time>
      </trkpt>
      <trkpt lat="48.099488" lon="7.766464">
        <ele>184.812557</ele>
        <time>2026-06-18T21:18:41.349Z</time>
      </trkpt>
      <trkpt lat="48.099432" lon="7.766732">
        <ele>185.005582</ele>
        <time>2026-06-18T21:18:48.000Z</time>
      </trkpt>
      <trkpt lat="48.099337" lon="7.767194">
        <ele>185.337865</ele>
        <time>2026-06-18T21:19:00.311Z</time>
      </trkpt>
      <trkpt lat="48.099331" lon="7.767226">
        <ele>185.360712</ele>
        <time>2026-06-18T21:19:01.176Z</time>
      </trkpt>
      <trkpt lat="48.099333" lon="7.767321">
        <ele>185.426046</ele>
        <time>2026-06-18T21:19:03.712Z</time>
      </trkpt>
      <trkpt lat="48.099327" lon="7.767407">
        <ele>185.485483</ele>
        <time>2026-06-18T21:19:06.112Z</time>
      </trkpt>
      <trkpt lat="48.099290" lon="7.767551">
        <ele>185.736841</ele>
        <time>2026-06-18T21:19:10.383Z</time>
      </trkpt>
      <trkpt lat="48.099209" lon="7.767727">
        <ele>186.501929</ele>
        <time>2026-06-18T21:19:16.516Z</time>
      </trkpt>
      <trkpt lat="48.099082" lon="7.768123">
        <ele>188.074368</ele>
        <time>2026-06-18T21:19:30.174Z</time>
      </trkpt>
      <trkpt lat="48.098793" lon="7.769398">
        <ele>192.893912</ele>
        <time>2026-06-18T21:20:22.186Z</time>
      </trkpt>
      <trkpt lat="48.098712" lon="7.769808">
        <ele>194.424374</ele>
        <time>2026-06-18T21:20:37.541Z</time>
      </trkpt>
      <trkpt lat="48.098673" lon="7.769935">
        <ele>194.924726</ele>
        <time>2026-06-18T21:20:42.579Z</time>
      </trkpt>
      <trkpt lat="48.098563" lon="7.770110">
        <ele>196.005110</ele>
        <time>2026-06-18T21:20:51.421Z</time>
      </trkpt>
      <trkpt lat="48.098318" lon="7.770402">
        <ele>198.312195</ele>
        <time>2026-06-18T21:21:09.181Z</time>
      </trkpt>
      <trkpt lat="48.098297" lon="7.770426">
        <ele>198.506834</ele>
        <time>2026-06-18T21:21:10.727Z</time>
      </trkpt>
      <trkpt lat="48.098272" lon="7.770454">
        <ele>198.736851</ele>
        <time>2026-06-18T21:21:12.579Z</time>
      </trkpt>
      <trkpt lat="48.098045" lon="7.770627">
        <ele>200.613479</ele>
        <time>2026-06-18T21:21:28.054Z</time>
      </trkpt>
      <trkpt lat="48.097982" lon="7.770675">
        <ele>201.134276</ele>
        <time>2026-06-18T21:21:32.355Z</time>
      </trkpt>
      <trkpt lat="48.097871" lon="7.770760">
        <ele>202.052830</ele>
        <time>2026-06-18T21:21:39.804Z</time>
      </trkpt>
      <trkpt lat="48.097424" lon="7.771069">
        <ele>205.680205</ele>
        <time>2026-06-18T21:22:06.768Z</time>
      </trkpt>
      <trkpt lat="48.097060" lon="7.771198">
        <ele>208.436123</ele>
        <time>2026-06-18T21:22:23.089Z</time>
      </trkpt>
      <trkpt lat="48.096927" lon="7.771066">
        <ele>209.333159</ele>
        <time>2026-06-18T21:22:29.676Z</time>
      </trkpt>
      <trkpt lat="48.096902" lon="7.770972">
        <ele>209.711736</ele>
        <time>2026-06-18T21:22:32.418Z</time>
      </trkpt>
      <trkpt lat="48.096885" lon="7.770691">
        <ele>210.767449</ele>
        <time>2026-06-18T21:22:40.895Z</time>
      </trkpt>
      <trkpt lat="48.096875" lon="7.770516">
        <ele>211.424634</ele>
        <time>2026-06-18T21:22:45.964Z</time>
      </trkpt>
      <trkpt lat="48.096778" lon="7.770163">
        <ele>212.852868</ele>
        <time>2026-06-18T21:22:56.816Z</time>
      </trkpt>
      <trkpt lat="48.096627" lon="7.769949">
        <ele>214.017684</ele>
        <time>2026-06-18T21:23:05.834Z</time>
      </trkpt>
      <trkpt lat="48.096483" lon="7.769887">
        <ele>214.857116</ele>
        <time>2026-06-18T21:23:12.066Z</time>
      </trkpt>
      <trkpt lat="48.096344" lon="7.769894">
        <ele>215.636285</ele>
        <time>2026-06-18T21:23:17.788Z</time>
      </trkpt>
      <trkpt lat="48.096276" lon="7.769921">
        <ele>216.030414</ele>
        <time>2026-06-18T21:23:20.587Z</time>
      </trkpt>
      <trkpt lat="48.096191" lon="7.770010">
        <ele>216.611503</ele>
        <time>2026-06-18T21:23:25.005Z</time>
      </trkpt>
      <trkpt lat="48.096212" lon="7.770141">
        <ele>217.115589</ele>
        <time>2026-06-18T21:23:28.582Z</time>
      </trkpt>
      <trkpt lat="48.096219" lon="7.770188">
        <ele>217.295770</ele>
        <time>2026-06-18T21:23:30.115Z</time>
      </trkpt>
      <trkpt lat="48.096212" lon="7.770141">
        <ele>217.475950</ele>
        <time>2026-06-18T21:23:32.398Z</time>
      </trkpt>
      <trkpt lat="48.096191" lon="7.770010">
        <ele>217.980036</ele>
        <time>2026-06-18T21:23:38.633Z</time>
      </trkpt>
      <trkpt lat="48.096090" lon="7.769964">
        <ele>218.578930</ele>
        <time>2026-06-18T21:23:43.651Z</time>
      </trkpt>
      <trkpt lat="48.096067" lon="7.769977">
        <ele>218.739088</ele>
        <time>2026-06-18T21:23:44.827Z</time>
      </trkpt>
      <trkpt lat="48.095532" lon="7.770131">
        <ele>222.288269</ele>
        <time>2026-06-18T21:24:13.615Z</time>
      </trkpt>
      <trkpt lat="48.095464" lon="7.770154">
        <ele>222.742430</ele>
        <time>2026-06-18T21:24:17.171Z</time>
      </trkpt>
      <trkpt lat="48.095110" lon="7.770271">
        <ele>225.104147</ele>
        <time>2026-06-18T21:24:41.299Z</time>
      </trkpt>
      <trkpt lat="48.095049" lon="7.770301">
        <ele>225.522432</ele>
        <time>2026-06-18T21:24:44.620Z</time>
      </trkpt>
      <trkpt lat="48.095036" lon="7.770307">
        <ele>225.611055</ele>
        <time>2026-06-18T21:24:45.294Z</time>
      </trkpt>
      <trkpt lat="48.094571" lon="7.770529">
        <ele>228.790661</ele>
        <time>2026-06-18T21:25:07.406Z</time>
      </trkpt>
      <trkpt lat="48.094105" lon="7.770677">
        <ele>231.392503</ele>
        <time>2026-06-18T21:25:25.796Z</time>
      </trkpt>
      <trkpt lat="48.093439" lon="7.770878">
        <ele>234.473802</ele>
        <time>2026-06-18T21:25:49.939Z</time>
      </trkpt>
      <trkpt lat="48.092899" lon="7.771040">
        <ele>236.971573</ele>
        <time>2026-06-18T21:26:11.862Z</time>
      </trkpt>
      <trkpt lat="48.092857" lon="7.771072">
        <ele>237.185305</ele>
        <time>2026-06-18T21:26:13.702Z</time>
      </trkpt>
      <trkpt lat="48.092825" lon="7.771098">
        <ele>237.350430</ele>
        <time>2026-06-18T21:26:15.130Z</time>
      </trkpt>
      <trkpt lat="48.092821" lon="7.771129">
        <ele>237.446074</ele>
        <time>2026-06-18T21:26:16.094Z</time>
      </trkpt>
      <trkpt lat="48.092812" lon="7.771217">
        <ele>237.715757</ele>
        <time>2026-06-18T21:26:18.622Z</time>
      </trkpt>
      <trkpt lat="48.092932" lon="7.772109">
        <ele>240.117919</ele>
        <time>2026-06-18T21:26:44.811Z</time>
      </trkpt>
      <trkpt lat="48.092965" lon="7.772639">
        <ele>241.454653</ele>
        <time>2026-06-18T21:26:59.699Z</time>
      </trkpt>
      <trkpt lat="48.092983" lon="7.772881">
        <ele>242.066132</ele>
        <time>2026-06-18T21:27:06.423Z</time>
      </trkpt>
      <trkpt lat="48.093039" lon="7.773259">
        <ele>243.038454</ele>
        <time>2026-06-18T21:27:16.306Z</time>
      </trkpt>
      <trkpt lat="48.093020" lon="7.773657">
        <ele>244.040481</ele>
        <time>2026-06-18T21:27:25.342Z</time>
      </trkpt>
      <trkpt lat="48.093064" lon="7.773967">
        <ele>244.836351</ele>
        <time>2026-06-18T21:27:31.408Z</time>
      </trkpt>
      <trkpt lat="48.092870" lon="7.774037">
        <ele>245.126289</ele>
        <time>2026-06-18T21:27:38.883Z</time>
      </trkpt>
      <trkpt lat="48.092654" lon="7.774150">
        <ele>245.051154</ele>
        <time>2026-06-18T21:27:46.776Z</time>
      </trkpt>
      <trkpt lat="48.092557" lon="7.774292">
        <ele>245.006605</ele>
        <time>2026-06-18T21:27:51.112Z</time>
      </trkpt>
      <trkpt lat="48.092477" lon="7.774408">
        <ele>244.970034</ele>
        <time>2026-06-18T21:27:54.533Z</time>
      </trkpt>
      <trkpt lat="48.092462" lon="7.774426">
        <ele>244.963722</ele>
        <time>2026-06-18T21:27:55.151Z</time>
      </trkpt>
      <trkpt lat="48.091902" lon="7.775268">
        <ele>244.703103</ele>
        <time>2026-06-18T21:28:18.350Z</time>
      </trkpt>
      <trkpt lat="48.091867" lon="7.775368">
        <ele>244.678341</ele>
        <time>2026-06-18T21:28:20.465Z</time>
      </trkpt>
      <trkpt lat="48.091951" lon="7.775624">
        <ele>244.615782</ele>
        <time>2026-06-18T21:28:23.684Z</time>
      </trkpt>
      <trkpt lat="48.091992" lon="7.775751">
        <ele>244.584843</ele>
        <time>2026-06-18T21:28:25.275Z</time>
      </trkpt>
      <trkpt lat="48.092007" lon="7.775905">
        <ele>244.557065</ele>
        <time>2026-06-18T21:28:27.044Z</time>
      </trkpt>
      <trkpt lat="48.092029" lon="7.776091">
        <ele>244.527645</ele>
        <time>2026-06-18T21:28:29.202Z</time>
      </trkpt>
      <trkpt lat="48.092030" lon="7.776112">
        <ele>244.524366</ele>
        <time>2026-06-18T21:28:29.444Z</time>
      </trkpt>
      <trkpt lat="48.092039" lon="7.776230">
        <ele>244.505868</ele>
        <time>2026-06-18T21:28:30.819Z</time>
      </trkpt>
      <trkpt lat="48.092005" lon="7.776644">
        <ele>244.440903</ele>
        <time>2026-06-18T21:28:35.868Z</time>
      </trkpt>
      <trkpt lat="48.092025" lon="7.776967">
        <ele>244.390380</ele>
        <time>2026-06-18T21:28:40.013Z</time>
      </trkpt>
      <trkpt lat="48.091981" lon="7.777026">
        <ele>244.376607</ele>
        <time>2026-06-18T21:28:41.288Z</time>
      </trkpt>
      <trkpt lat="48.091650" lon="7.777150">
        <ele>244.297046</ele>
        <time>2026-06-18T21:28:48.533Z</time>
      </trkpt>
      <trkpt lat="48.091279" lon="7.777359">
        <ele>244.204615</ele>
        <time>2026-06-18T21:28:57.220Z</time>
      </trkpt>
      <trkpt lat="48.091188" lon="7.777423">
        <ele>244.181171</ele>
        <time>2026-06-18T21:28:59.459Z</time>
      </trkpt>
      <trkpt lat="48.090936" lon="7.777552">
        <ele>243.827126</ele>
        <time>2026-06-18T21:29:05.255Z</time>
      </trkpt>
      <trkpt lat="48.090847" lon="7.777629">
        <ele>243.598307</ele>
        <time>2026-06-18T21:29:07.327Z</time>
      </trkpt>
      <trkpt lat="48.090541" lon="7.777792">
        <ele>242.875309</ele>
        <time>2026-06-18T21:29:17.296Z</time>
      </trkpt>
      <trkpt lat="48.089981" lon="7.777928">
        <ele>241.612437</ele>
        <time>2026-06-18T21:29:33.715Z</time>
      </trkpt>
      <trkpt lat="48.089502" lon="7.777955">
        <ele>240.545413</ele>
        <time>2026-06-18T21:29:45.740Z</time>
      </trkpt>
      <trkpt lat="48.089051" lon="7.777828">
        <ele>238.593033</ele>
        <time>2026-06-18T21:29:56.334Z</time>
      </trkpt>
      <trkpt lat="48.089065" lon="7.778814">
        <ele>234.944399</ele>
        <time>2026-06-18T21:30:11.462Z</time>
      </trkpt>
      <trkpt lat="48.089067" lon="7.778966">
        <ele>234.381951</ele>
        <time>2026-06-18T21:30:13.840Z</time>
      </trkpt>
      <trkpt lat="48.089076" lon="7.779012">
        <ele>234.204619</ele>
        <time>2026-06-18T21:30:14.579Z</time>
      </trkpt>
      <trkpt lat="48.089147" lon="7.779209">
        <ele>233.376479</ele>
        <time>2026-06-18T21:30:18.061Z</time>
      </trkpt>
      <trkpt lat="48.089235" lon="7.779348">
        <ele>232.667962</ele>
        <time>2026-06-18T21:30:21.059Z</time>
      </trkpt>
      <trkpt lat="48.089167" lon="7.779350">
        <ele>232.291268</ele>
        <time>2026-06-18T21:30:21.959Z</time>
      </trkpt>
      <trkpt lat="48.089145" lon="7.779351">
        <ele>232.169364</ele>
        <time>2026-06-18T21:30:22.258Z</time>
      </trkpt>
      <trkpt lat="48.088285" lon="7.779344">
        <ele>228.916982</ele>
        <time>2026-06-18T21:30:34.625Z</time>
      </trkpt>
      <trkpt lat="48.087767" lon="7.779378">
        <ele>227.605162</ele>
        <time>2026-06-18T21:30:43.717Z</time>
      </trkpt>
      <trkpt lat="48.087411" lon="7.779601">
        <ele>226.628797</ele>
        <time>2026-06-18T21:30:50.263Z</time>
      </trkpt>
      <trkpt lat="48.087200" lon="7.779676">
        <ele>226.080116</ele>
        <time>2026-06-18T21:30:53.750Z</time>
      </trkpt>
      <trkpt lat="48.087141" lon="7.779663">
        <ele>225.929236</ele>
        <time>2026-06-18T21:30:55.350Z</time>
      </trkpt>
      <trkpt lat="48.086860" lon="7.779486">
        <ele>224.887412</ele>
        <time>2026-06-18T21:31:03.357Z</time>
      </trkpt>
      <trkpt lat="48.086734" lon="7.779319">
        <ele>224.221170</ele>
        <time>2026-06-18T21:31:07.686Z</time>
      </trkpt>
      <trkpt lat="48.086606" lon="7.779234">
        <ele>223.666806</ele>
        <time>2026-06-18T21:31:11.286Z</time>
      </trkpt>
      <trkpt lat="48.086556" lon="7.779212">
        <ele>223.460487</ele>
        <time>2026-06-18T21:31:12.610Z</time>
      </trkpt>
      <trkpt lat="48.086258" lon="7.779069">
        <ele>222.221593</ele>
        <time>2026-06-18T21:31:20.480Z</time>
      </trkpt>
      <trkpt lat="48.086205" lon="7.779038">
        <ele>221.996322</ele>
        <time>2026-06-18T21:31:21.845Z</time>
      </trkpt>
      <trkpt lat="48.085755" lon="7.778903">
        <ele>220.179380</ele>
        <time>2026-06-18T21:31:32.778Z</time>
      </trkpt>
      <trkpt lat="48.085443" lon="7.778868">
        <ele>218.940730</ele>
        <time>2026-06-18T21:31:40.286Z</time>
      </trkpt>
      <trkpt lat="48.085404" lon="7.778876">
        <ele>218.784889</ele>
        <time>2026-06-18T21:31:41.235Z</time>
      </trkpt>
      <trkpt lat="48.085208" lon="7.778833">
        <ele>218.410081</ele>
        <time>2026-06-18T21:31:46.107Z</time>
      </trkpt>
      <trkpt lat="48.085042" lon="7.778736">
        <ele>218.264876</ele>
        <time>2026-06-18T21:31:50.566Z</time>
      </trkpt>
      <trkpt lat="48.084685" lon="7.778532">
        <ele>217.953502</ele>
        <time>2026-06-18T21:32:01.436Z</time>
      </trkpt>
      <trkpt lat="48.084260" lon="7.778459">
        <ele>217.604921</ele>
        <time>2026-06-18T21:32:14.564Z</time>
      </trkpt>
      <trkpt lat="48.082139" lon="7.778412">
        <ele>220.470431</ele>
        <time>2026-06-18T21:33:48.697Z</time>
      </trkpt>
      <trkpt lat="48.081591" lon="7.778215">
        <ele>221.604306</ele>
        <time>2026-06-18T21:34:14.329Z</time>
      </trkpt>
      <trkpt lat="48.081276" lon="7.778208">
        <ele>222.040256</ele>
        <time>2026-06-18T21:34:28.403Z</time>
      </trkpt>
      <trkpt lat="48.080567" lon="7.778159">
        <ele>223.022426</ele>
        <time>2026-06-18T21:34:59.559Z</time>
      </trkpt>
      <trkpt lat="48.080543" lon="7.778186">
        <ele>223.063972</ele>
        <time>2026-06-18T21:35:00.289Z</time>
      </trkpt>
      <trkpt lat="48.080387" lon="7.778361">
        <ele>223.333746</ele>
        <time>2026-06-18T21:35:04.750Z</time>
      </trkpt>
      <trkpt lat="48.080238" lon="7.779016">
        <ele>223.388035</ele>
        <time>2026-06-18T21:35:12.204Z</time>
      </trkpt>
      <trkpt lat="48.080165" lon="7.779521">
        <ele>222.171192</ele>
        <time>2026-06-18T21:35:16.727Z</time>
      </trkpt>
      <trkpt lat="48.080152" lon="7.779941">
        <ele>221.180991</ele>
        <time>2026-06-18T21:35:20.204Z</time>
      </trkpt>
      <trkpt lat="48.080120" lon="7.780317">
        <ele>220.288319</ele>
        <time>2026-06-18T21:35:23.230Z</time>
      </trkpt>
      <trkpt lat="48.080085" lon="7.780479">
        <ele>219.887340</ele>
        <time>2026-06-18T21:35:24.561Z</time>
      </trkpt>
      <trkpt lat="48.080032" lon="7.780634">
        <ele>219.477266</ele>
        <time>2026-06-18T21:35:25.914Z</time>
      </trkpt>
      <trkpt lat="48.079844" lon="7.780857">
        <ele>218.631676</ele>
        <time>2026-06-18T21:35:28.656Z</time>
      </trkpt>
      <trkpt lat="48.079030" lon="7.781435">
        <ele>215.786348</ele>
        <time>2026-06-18T21:35:39.255Z</time>
      </trkpt>
      <trkpt lat="48.078377" lon="7.781943">
        <ele>213.618352</ele>
        <time>2026-06-18T21:35:49.161Z</time>
      </trkpt>
      <trkpt lat="48.078152" lon="7.782177">
        <ele>212.811223</ele>
        <time>2026-06-18T21:35:52.941Z</time>
      </trkpt>
      <trkpt lat="48.077805" lon="7.782520">
        <ele>211.885190</ele>
        <time>2026-06-18T21:35:58.661Z</time>
      </trkpt>
      <trkpt lat="48.076854" lon="7.783278">
        <ele>210.338533</ele>
        <time>2026-06-18T21:36:13.671Z</time>
      </trkpt>
      <trkpt lat="48.076510" lon="7.783571">
        <ele>209.770364</ele>
        <time>2026-06-18T21:36:19.531Z</time>
      </trkpt>
      <trkpt lat="48.076125" lon="7.784016">
        <ele>209.228247</ele>
        <time>2026-06-18T21:36:27.174Z</time>
      </trkpt>
      <trkpt lat="48.075765" lon="7.784497">
        <ele>208.745430</ele>
        <time>2026-06-18T21:36:34.799Z</time>
      </trkpt>
      <trkpt lat="48.075467" lon="7.785224">
        <ele>208.175279</ele>
        <time>2026-06-18T21:36:43.304Z</time>
      </trkpt>
      <trkpt lat="48.075387" lon="7.785355">
        <ele>208.056641</ele>
        <time>2026-06-18T21:36:45.008Z</time>
      </trkpt>
      <trkpt lat="48.075032" lon="7.785714">
        <ele>207.462760</ele>
        <time>2026-06-18T21:36:50.982Z</time>
      </trkpt>
      <trkpt lat="48.074258" lon="7.786419">
        <ele>205.619557</ele>
        <time>2026-06-18T21:37:03.579Z</time>
      </trkpt>
      <trkpt lat="48.074035" lon="7.786678">
        <ele>205.045338</ele>
        <time>2026-06-18T21:37:07.452Z</time>
      </trkpt>
      <trkpt lat="48.073571" lon="7.787145">
        <ele>203.741265</ele>
        <time>2026-06-18T21:37:14.725Z</time>
      </trkpt>
      <trkpt lat="48.074291" lon="7.787883">
        <ele>200.628581</ele>
        <time>2026-06-18T21:37:25.474Z</time>
      </trkpt>
      <trkpt lat="48.074685" lon="7.788316">
        <ele>198.885059</ele>
        <time>2026-06-18T21:37:31.291Z</time>
      </trkpt>
      <trkpt lat="48.075356" lon="7.788866">
        <ele>196.939617</ele>
        <time>2026-06-18T21:37:40.778Z</time>
      </trkpt>
      <trkpt lat="48.075686" lon="7.789136">
        <ele>196.272965</ele>
        <time>2026-06-18T21:37:45.852Z</time>
      </trkpt>
      <trkpt lat="48.075781" lon="7.789263">
        <ele>196.047176</ele>
        <time>2026-06-18T21:37:47.664Z</time>
      </trkpt>
      <trkpt lat="48.075878" lon="7.789486">
        <ele>195.732031</ele>
        <time>2026-06-18T21:37:50.215Z</time>
      </trkpt>
      <trkpt lat="48.075548" lon="7.790063">
        <ele>194.832498</ele>
        <time>2026-06-18T21:37:57.921Z</time>
      </trkpt>
      <trkpt lat="48.075384" lon="7.790290">
        <ele>194.527580</ele>
        <time>2026-06-18T21:38:01.498Z</time>
      </trkpt>
      <trkpt lat="48.074771" lon="7.791008">
        <ele>194.563851</ele>
        <time>2026-06-18T21:38:15.717Z</time>
      </trkpt>
      <trkpt lat="48.074597" lon="7.791319">
        <ele>194.576480</ele>
        <time>2026-06-18T21:38:20.717Z</time>
      </trkpt>
      <trkpt lat="48.074309" lon="7.791905">
        <ele>194.599129</ele>
        <time>2026-06-18T21:38:29.408Z</time>
      </trkpt>
      <trkpt lat="48.074754" lon="7.792647">
        <ele>194.524037</ele>
        <time>2026-06-18T21:38:40.766Z</time>
      </trkpt>
      <trkpt lat="48.075309" lon="7.793670">
        <ele>194.358820</ele>
        <time>2026-06-18T21:38:54.987Z</time>
      </trkpt>
      <trkpt lat="48.075449" lon="7.793832">
        <ele>194.325613</ele>
        <time>2026-06-18T21:38:57.865Z</time>
      </trkpt>
      <trkpt lat="48.075570" lon="7.793914">
        <ele>194.300689</ele>
        <time>2026-06-18T21:39:00.102Z</time>
      </trkpt>
      <trkpt lat="48.075989" lon="7.794131">
        <ele>194.307335</ele>
        <time>2026-06-18T21:39:07.561Z</time>
      </trkpt>
      <trkpt lat="48.076096" lon="7.794238">
        <ele>194.323320</ele>
        <time>2026-06-18T21:39:09.740Z</time>
      </trkpt>
      <trkpt lat="48.076270" lon="7.794507">
        <ele>194.354393</ele>
        <time>2026-06-18T21:39:13.975Z</time>
      </trkpt>
      <trkpt lat="48.076301" lon="7.794629">
        <ele>194.365226</ele>
        <time>2026-06-18T21:39:15.508Z</time>
      </trkpt>
      <trkpt lat="48.076294" lon="7.794911">
        <ele>194.388647</ele>
        <time>2026-06-18T21:39:18.758Z</time>
      </trkpt>
      <trkpt lat="48.076321" lon="7.795076">
        <ele>194.402746</ele>
        <time>2026-06-18T21:39:20.753Z</time>
      </trkpt>
      <trkpt lat="48.076387" lon="7.795254">
        <ele>194.419641</ele>
        <time>2026-06-18T21:39:23.169Z</time>
      </trkpt>
      <trkpt lat="48.076742" lon="7.795669">
        <ele>194.475595</ele>
        <time>2026-06-18T21:39:31.533Z</time>
      </trkpt>
      <trkpt lat="48.077052" lon="7.796145">
        <ele>194.667770</ele>
        <time>2026-06-18T21:39:39.982Z</time>
      </trkpt>
      <trkpt lat="48.077687" lon="7.797377">
        <ele>195.291236</ele>
        <time>2026-06-18T21:40:00.633Z</time>
      </trkpt>
      <trkpt lat="48.077701" lon="7.797539">
        <ele>195.356688</ele>
        <time>2026-06-18T21:40:02.857Z</time>
      </trkpt>
      <trkpt lat="48.077471" lon="7.797958">
        <ele>195.573992</ele>
        <time>2026-06-18T21:40:10.977Z</time>
      </trkpt>
      <trkpt lat="48.077105" lon="7.798045">
        <ele>195.810386</ele>
        <time>2026-06-18T21:40:19.375Z</time>
      </trkpt>
      <trkpt lat="48.076672" lon="7.798066">
        <ele>196.086737</ele>
        <time>2026-06-18T21:40:29.209Z</time>
      </trkpt>
      <trkpt lat="48.076463" lon="7.798091">
        <ele>196.220481</ele>
        <time>2026-06-18T21:40:33.806Z</time>
      </trkpt>
      <trkpt lat="48.075823" lon="7.798275">
        <ele>196.636195</ele>
        <time>2026-06-18T21:40:47.916Z</time>
      </trkpt>
      <trkpt lat="48.075529" lon="7.798405">
        <ele>196.793090</ele>
        <time>2026-06-18T21:40:54.520Z</time>
      </trkpt>
      <trkpt lat="48.075428" lon="7.798449">
        <ele>196.836772</ele>
        <time>2026-06-18T21:40:56.776Z</time>
      </trkpt>
      <trkpt lat="48.073882" lon="7.798698">
        <ele>197.485460</ele>
        <time>2026-06-18T21:41:28.987Z</time>
      </trkpt>
      <trkpt lat="48.073490" lon="7.798841">
        <ele>197.687383</ele>
        <time>2026-06-18T21:41:37.852Z</time>
      </trkpt>
      <trkpt lat="48.073210" lon="7.798984">
        <ele>197.835445</ele>
        <time>2026-06-18T21:41:44.362Z</time>
      </trkpt>
      <trkpt lat="48.073147" lon="7.799123">
        <ele>197.891610</ele>
        <time>2026-06-18T21:41:46.844Z</time>
      </trkpt>
      <trkpt lat="48.073098" lon="7.799280">
        <ele>197.949555</ele>
        <time>2026-06-18T21:41:49.367Z</time>
      </trkpt>
      <trkpt lat="48.072965" lon="7.799315">
        <ele>198.017137</ele>
        <time>2026-06-18T21:41:52.039Z</time>
      </trkpt>
      <trkpt lat="48.072583" lon="7.799596">
        <ele>198.230156</ele>
        <time>2026-06-18T21:42:00.258Z</time>
      </trkpt>
      <trkpt lat="48.072014" lon="7.800209">
        <ele>198.500715</ele>
        <time>2026-06-18T21:42:13.426Z</time>
      </trkpt>
      <trkpt lat="48.071944" lon="7.800289">
        <ele>198.528174</ele>
        <time>2026-06-18T21:42:15.036Z</time>
      </trkpt>
      <trkpt lat="48.071871" lon="7.800372">
        <ele>198.556755</ele>
        <time>2026-06-18T21:42:16.702Z</time>
      </trkpt>
      <trkpt lat="48.071586" lon="7.800736">
        <ele>198.673565</ele>
        <time>2026-06-18T21:42:23.526Z</time>
      </trkpt>
      <trkpt lat="48.071406" lon="7.801077">
        <ele>198.764093</ele>
        <time>2026-06-18T21:42:28.776Z</time>
      </trkpt>
      <trkpt lat="48.071307" lon="7.801271">
        <ele>198.814944</ele>
        <time>2026-06-18T21:42:31.717Z</time>
      </trkpt>
      <trkpt lat="48.071215" lon="7.801379">
        <ele>198.851398</ele>
        <time>2026-06-18T21:42:33.827Z</time>
      </trkpt>
      <trkpt lat="48.071251" lon="7.801463">
        <ele>198.872186</ele>
        <time>2026-06-18T21:42:35.084Z</time>
      </trkpt>
      <trkpt lat="48.071283" lon="7.801536">
        <ele>198.890374</ele>
        <time>2026-06-18T21:42:36.202Z</time>
      </trkpt>
      <trkpt lat="48.071295" lon="7.801564">
        <ele>198.897304</ele>
        <time>2026-06-18T21:42:36.635Z</time>
      </trkpt>
      <trkpt lat="48.071447" lon="7.801935">
        <ele>198.991755</ele>
        <time>2026-06-18T21:42:42.362Z</time>
      </trkpt>
      <trkpt lat="48.071558" lon="7.802244">
        <ele>199.069523</ele>
        <time>2026-06-18T21:42:47.141Z</time>
      </trkpt>
      <trkpt lat="48.071625" lon="7.802545">
        <ele>199.139851</ele>
        <time>2026-06-18T21:42:51.442Z</time>
      </trkpt>
      <trkpt lat="48.071638" lon="7.802613">
        <ele>199.155529</ele>
        <time>2026-06-18T21:42:52.388Z</time>
      </trkpt>
      <trkpt lat="48.071703" lon="7.803260">
        <ele>199.300563</ele>
        <time>2026-06-18T21:43:01.105Z</time>
      </trkpt>
      <trkpt lat="48.071722" lon="7.803610">
        <ele>199.378403</ele>
        <time>2026-06-18T21:43:05.571Z</time>
      </trkpt>
      <trkpt lat="48.071754" lon="7.803929">
        <ele>199.449909</ele>
        <time>2026-06-18T21:43:09.554Z</time>
      </trkpt>
      <trkpt lat="48.071771" lon="7.804183">
        <ele>199.506495</ele>
        <time>2026-06-18T21:43:12.574Z</time>
      </trkpt>
      <trkpt lat="48.071787" lon="7.804308">
        <ele>199.525465</ele>
        <time>2026-06-18T21:43:14.107Z</time>
      </trkpt>
      <trkpt lat="48.071499" lon="7.804477">
        <ele>199.525465</ele>
        <time>2026-06-18T21:43:19.623Z</time>
      </trkpt>
      <trkpt lat="48.071599" lon="7.804721">
        <ele>199.525465</ele>
        <time>2026-06-18T21:43:23.005Z</time>
      </trkpt>
      <trkpt lat="48.071741" lon="7.805212">
        <ele>199.525465</ele>
        <time>2026-06-18T21:43:29.352Z</time>
      </trkpt>
      <trkpt lat="48.071834" lon="7.805743">
        <ele>199.525465</ele>
        <time>2026-06-18T21:43:35.778Z</time>
      </trkpt>
      <trkpt lat="48.071831" lon="7.806061">
        <ele>199.525465</ele>
        <time>2026-06-18T21:43:39.334Z</time>
      </trkpt>
      <trkpt lat="48.071771" lon="7.806291">
        <ele>199.525465</ele>
        <time>2026-06-18T21:43:42.130Z</time>
      </trkpt>
      <trkpt lat="48.071776" lon="7.806417">
        <ele>199.525465</ele>
        <time>2026-06-18T21:43:43.653Z</time>
      </trkpt>
      <trkpt lat="48.071918" lon="7.806830">
        <ele>199.525465</ele>
        <time>2026-06-18T21:43:49.095Z</time>
      </trkpt>
      <trkpt lat="48.072033" lon="7.807282">
        <ele>199.525465</ele>
        <time>2026-06-18T21:43:54.822Z</time>
      </trkpt>
    </trkseg>
  </trk>
</gpx>